<?xml version="1.0" encoding="UTF-8" standalone="no" ?>
<gpx xmlns="http://www.topografix.com/GPX/1/1" xmlns:xsi="http://www.w3.org/2001/XMLSchema-instance" xsi:schemaLocation="http://www.topografix.com/GPX/1/1 http://www.topografix.com/GPX/1/1/gpx.xsd" version="1.1" creator="VisuGPX - https://www.visugpx.com">
  <metadata>
    <name>Mont du Chat - 28520 - UtagawaVTT.com</name>
  </metadata>
  <trk>
    <name><![CDATA[Mont du Chat - 28520 - UtagawaVTT.com]]></name>
    <extensions>
      <line xmlns="http://www.topografix.com/GPX/gpx_style/0/2">
        <color>0000FF</color>
        <opacity>0.8</opacity>
        <width>6</width>
        <dasharray>6</dasharray>
      </line>
    </extensions>
    <trkseg>
      <trkpt lat="45.53696" lon="5.81541">
        <ele>411.570374</ele>
        <time>2020-09-05T05:58:29Z</time>
      </trkpt>
      <trkpt lat="45.537" lon="5.81534">
        <ele>411.026703</ele>
        <time>2020-09-05T05:58:41Z</time>
      </trkpt>
      <trkpt lat="45.53702" lon="5.81523">
        <ele>410.682892</ele>
        <time>2020-09-05T05:58:45Z</time>
      </trkpt>
      <trkpt lat="45.53716" lon="5.81526">
        <ele>409.154999</ele>
        <time>2020-09-05T05:58:53Z</time>
      </trkpt>
      <trkpt lat="45.53729" lon="5.81535">
        <ele>407.975006</ele>
        <time>2020-09-05T05:59:02Z</time>
      </trkpt>
      <trkpt lat="45.53723" lon="5.81564">
        <ele>409.422485</ele>
        <time>2020-09-05T05:59:18Z</time>
      </trkpt>
      <trkpt lat="45.53724" lon="5.8161">
        <ele>411.051422</ele>
        <time>2020-09-05T05:59:44Z</time>
      </trkpt>
      <trkpt lat="45.53723" lon="5.81634">
        <ele>412.360443</ele>
        <time>2020-09-05T05:59:57Z</time>
      </trkpt>
      <trkpt lat="45.53724" lon="5.81642">
        <ele>412.623718</ele>
        <time>2020-09-05T06:00:04Z</time>
      </trkpt>
      <trkpt lat="45.53735" lon="5.81652">
        <ele>412.097504</ele>
        <time>2020-09-05T06:00:42Z</time>
      </trkpt>
      <trkpt lat="45.53737" lon="5.81659">
        <ele>412.261261</ele>
        <time>2020-09-05T06:00:44Z</time>
      </trkpt>
      <trkpt lat="45.53734" lon="5.81673">
        <ele>413.137512</ele>
        <time>2020-09-05T06:00:48Z</time>
      </trkpt>
      <trkpt lat="45.53737" lon="5.81683">
        <ele>413.287506</ele>
        <time>2020-09-05T06:00:50Z</time>
      </trkpt>
      <trkpt lat="45.53758" lon="5.81705">
        <ele>412.466614</ele>
        <time>2020-09-05T06:00:58Z</time>
      </trkpt>
      <trkpt lat="45.53771" lon="5.81729">
        <ele>413.403961</ele>
        <time>2020-09-05T06:01:03Z</time>
      </trkpt>
      <trkpt lat="45.53786" lon="5.81739">
        <ele>413.851318</ele>
        <time>2020-09-05T06:01:08Z</time>
      </trkpt>
      <trkpt lat="45.53807" lon="5.81767">
        <ele>417.291321</ele>
        <time>2020-09-05T06:01:25Z</time>
      </trkpt>
      <trkpt lat="45.53844" lon="5.81793">
        <ele>424.757996</ele>
        <time>2020-09-05T06:01:50Z</time>
      </trkpt>
      <trkpt lat="45.5387" lon="5.81797">
        <ele>426.838165</ele>
        <time>2020-09-05T06:02:04Z</time>
      </trkpt>
      <trkpt lat="45.53914" lon="5.81823">
        <ele>434.538818</ele>
        <time>2020-09-05T06:02:32Z</time>
      </trkpt>
      <trkpt lat="45.53944" lon="5.81837">
        <ele>438.6409</ele>
        <time>2020-09-05T06:02:51Z</time>
      </trkpt>
      <trkpt lat="45.53964" lon="5.81851">
        <ele>440.640137</ele>
        <time>2020-09-05T06:03:05Z</time>
      </trkpt>
      <trkpt lat="45.53991" lon="5.81862">
        <ele>440.312805</ele>
        <time>2020-09-05T06:03:17Z</time>
      </trkpt>
      <trkpt lat="45.54025" lon="5.81884">
        <ele>439.514984</ele>
        <time>2020-09-05T06:03:28Z</time>
      </trkpt>
      <trkpt lat="45.54035" lon="5.81907">
        <ele>441.282318</ele>
        <time>2020-09-05T06:03:41Z</time>
      </trkpt>
      <trkpt lat="45.54052" lon="5.8192">
        <ele>441.262268</ele>
        <time>2020-09-05T06:03:48Z</time>
      </trkpt>
      <trkpt lat="45.54069" lon="5.81938">
        <ele>442.337006</ele>
        <time>2020-09-05T06:03:53Z</time>
      </trkpt>
      <trkpt lat="45.54103" lon="5.81961">
        <ele>441.072113</ele>
        <time>2020-09-05T06:04:09Z</time>
      </trkpt>
      <trkpt lat="45.5412" lon="5.81985">
        <ele>443.826508</ele>
        <time>2020-09-05T06:04:17Z</time>
      </trkpt>
      <trkpt lat="45.54139" lon="5.82025">
        <ele>449.019775</ele>
        <time>2020-09-05T06:04:30Z</time>
      </trkpt>
      <trkpt lat="45.54151" lon="5.82029">
        <ele>449.409485</ele>
        <time>2020-09-05T06:04:35Z</time>
      </trkpt>
      <trkpt lat="45.54187" lon="5.82032">
        <ele>455.01474</ele>
        <time>2020-09-05T06:04:52Z</time>
      </trkpt>
      <trkpt lat="45.54223" lon="5.82054">
        <ele>463.112488</ele>
        <time>2020-09-05T06:05:09Z</time>
      </trkpt>
      <trkpt lat="45.54237" lon="5.82056">
        <ele>466.067505</ele>
        <time>2020-09-05T06:05:16Z</time>
      </trkpt>
      <trkpt lat="45.54258" lon="5.82054">
        <ele>471.148438</ele>
        <time>2020-09-05T06:05:28Z</time>
      </trkpt>
      <trkpt lat="45.54289" lon="5.82029">
        <ele>474.774994</ele>
        <time>2020-09-05T06:05:57Z</time>
      </trkpt>
      <trkpt lat="45.54293" lon="5.82036">
        <ele>477.029999</ele>
        <time>2020-09-05T06:06:17Z</time>
      </trkpt>
      <trkpt lat="45.54297" lon="5.82037">
        <ele>478.11499</ele>
        <time>2020-09-05T06:06:35Z</time>
      </trkpt>
      <trkpt lat="45.54305" lon="5.82055">
        <ele>482.809998</ele>
        <time>2020-09-05T06:06:58Z</time>
      </trkpt>
      <trkpt lat="45.54324" lon="5.8207">
        <ele>489.744629</ele>
        <time>2020-09-05T06:07:11Z</time>
      </trkpt>
      <trkpt lat="45.54331" lon="5.82069">
        <ele>491.54718</ele>
        <time>2020-09-05T06:07:15Z</time>
      </trkpt>
      <trkpt lat="45.54349" lon="5.82039">
        <ele>494.442261</ele>
        <time>2020-09-05T06:07:29Z</time>
      </trkpt>
      <trkpt lat="45.54374" lon="5.82007">
        <ele>503.345245</ele>
        <time>2020-09-05T06:07:41Z</time>
      </trkpt>
      <trkpt lat="45.54397" lon="5.81984">
        <ele>509.728394</ele>
        <time>2020-09-05T06:07:52Z</time>
      </trkpt>
      <trkpt lat="45.54408" lon="5.81971">
        <ele>510.576294</ele>
        <time>2020-09-05T06:07:58Z</time>
      </trkpt>
      <trkpt lat="45.54422" lon="5.81936">
        <ele>505.904236</ele>
        <time>2020-09-05T06:08:10Z</time>
      </trkpt>
      <trkpt lat="45.54436" lon="5.8192">
        <ele>504.807007</ele>
        <time>2020-09-05T06:08:17Z</time>
      </trkpt>
      <trkpt lat="45.54463" lon="5.81913">
        <ele>508.648499</ele>
        <time>2020-09-05T06:08:27Z</time>
      </trkpt>
      <trkpt lat="45.5448" lon="5.81917">
        <ele>514.982788</ele>
        <time>2020-09-05T06:08:34Z</time>
      </trkpt>
      <trkpt lat="45.54496" lon="5.81914">
        <ele>517.435669</ele>
        <time>2020-09-05T06:08:40Z</time>
      </trkpt>
      <trkpt lat="45.54576" lon="5.81875">
        <ele>515.682373</ele>
        <time>2020-09-05T06:09:11Z</time>
      </trkpt>
      <trkpt lat="45.54652" lon="5.81859">
        <ele>519.503967</ele>
        <time>2020-09-05T06:09:38Z</time>
      </trkpt>
      <trkpt lat="45.5469" lon="5.81839">
        <ele>515.146729</ele>
        <time>2020-09-05T06:09:52Z</time>
      </trkpt>
      <trkpt lat="45.54712" lon="5.81833">
        <ele>509.099518</ele>
        <time>2020-09-05T06:10:00Z</time>
      </trkpt>
      <trkpt lat="45.54719" lon="5.81836">
        <ele>507.735046</ele>
        <time>2020-09-05T06:10:03Z</time>
      </trkpt>
      <trkpt lat="45.5472" lon="5.81842">
        <ele>508.055328</ele>
        <time>2020-09-05T06:10:05Z</time>
      </trkpt>
      <trkpt lat="45.54715" lon="5.81856">
        <ele>510.529266</ele>
        <time>2020-09-05T06:10:10Z</time>
      </trkpt>
      <trkpt lat="45.54699" lon="5.81874">
        <ele>515.796509</ele>
        <time>2020-09-05T06:10:18Z</time>
      </trkpt>
      <trkpt lat="45.54682" lon="5.81902">
        <ele>520.531982</ele>
        <time>2020-09-05T06:10:27Z</time>
      </trkpt>
      <trkpt lat="45.54638" lon="5.82037">
        <ele>529.43573</ele>
        <time>2020-09-05T06:11:05Z</time>
      </trkpt>
      <trkpt lat="45.54592" lon="5.82116">
        <ele>547.206604</ele>
        <time>2020-09-05T06:11:36Z</time>
      </trkpt>
      <trkpt lat="45.54584" lon="5.82137">
        <ele>549.174805</ele>
        <time>2020-09-05T06:11:44Z</time>
      </trkpt>
      <trkpt lat="45.54586" lon="5.82149">
        <ele>550.399353</ele>
        <time>2020-09-05T06:11:50Z</time>
      </trkpt>
      <trkpt lat="45.54605" lon="5.82163">
        <ele>557.059631</ele>
        <time>2020-09-05T06:12:02Z</time>
      </trkpt>
      <trkpt lat="45.54615" lon="5.82163">
        <ele>558.94812</ele>
        <time>2020-09-05T06:12:08Z</time>
      </trkpt>
      <trkpt lat="45.54678" lon="5.82135">
        <ele>560.149658</ele>
        <time>2020-09-05T06:12:35Z</time>
      </trkpt>
      <trkpt lat="45.54701" lon="5.82129">
        <ele>561.18512</ele>
        <time>2020-09-05T06:12:43Z</time>
      </trkpt>
      <trkpt lat="45.54713" lon="5.82132">
        <ele>563.953369</ele>
        <time>2020-09-05T06:12:48Z</time>
      </trkpt>
      <trkpt lat="45.54726" lon="5.82142">
        <ele>568.757874</ele>
        <time>2020-09-05T06:12:54Z</time>
      </trkpt>
      <trkpt lat="45.54756" lon="5.82179">
        <ele>579.139038</ele>
        <time>2020-09-05T06:13:09Z</time>
      </trkpt>
      <trkpt lat="45.54768" lon="5.822">
        <ele>583.468811</ele>
        <time>2020-09-05T06:13:17Z</time>
      </trkpt>
      <trkpt lat="45.54824" lon="5.82225">
        <ele>590.414795</ele>
        <time>2020-09-05T06:13:41Z</time>
      </trkpt>
      <trkpt lat="45.54835" lon="5.82225">
        <ele>591.119202</ele>
        <time>2020-09-05T06:13:50Z</time>
      </trkpt>
      <trkpt lat="45.54836" lon="5.82224">
        <ele>575.4</ele>
        <time>2020-09-05T06:14:09Z</time>
      </trkpt>
      <trkpt lat="45.54836" lon="5.82225">
        <ele>591.174316</ele>
        <time>2020-09-05T06:14:18Z</time>
      </trkpt>
      <trkpt lat="45.54873" lon="5.82216">
        <ele>590.841919</ele>
        <time>2020-09-05T06:14:47Z</time>
      </trkpt>
      <trkpt lat="45.54889" lon="5.82216">
        <ele>591.739075</ele>
        <time>2020-09-05T06:14:55Z</time>
      </trkpt>
      <trkpt lat="45.54974" lon="5.82198">
        <ele>599.50708</ele>
        <time>2020-09-05T06:15:43Z</time>
      </trkpt>
      <trkpt lat="45.55043" lon="5.82138">
        <ele>604.372742</ele>
        <time>2020-09-05T06:16:24Z</time>
      </trkpt>
      <trkpt lat="45.55087" lon="5.82114">
        <ele>612.799622</ele>
        <time>2020-09-05T06:16:48Z</time>
      </trkpt>
      <trkpt lat="45.5511" lon="5.82108">
        <ele>618.214233</ele>
        <time>2020-09-05T06:17:01Z</time>
      </trkpt>
      <trkpt lat="45.55141" lon="5.82086">
        <ele>621.039795</ele>
        <time>2020-09-05T06:17:19Z</time>
      </trkpt>
      <trkpt lat="45.55155" lon="5.82081">
        <ele>623.390137</ele>
        <time>2020-09-05T06:17:27Z</time>
      </trkpt>
      <trkpt lat="45.55183" lon="5.82057">
        <ele>623.57312</ele>
        <time>2020-09-05T06:17:43Z</time>
      </trkpt>
      <trkpt lat="45.55242" lon="5.82036">
        <ele>630.928284</ele>
        <time>2020-09-05T06:18:18Z</time>
      </trkpt>
      <trkpt lat="45.55285" lon="5.82009">
        <ele>634.76825</ele>
        <time>2020-09-05T06:18:43Z</time>
      </trkpt>
      <trkpt lat="45.55309" lon="5.81987">
        <ele>634.342102</ele>
        <time>2020-09-05T06:18:59Z</time>
      </trkpt>
      <trkpt lat="45.55335" lon="5.8197">
        <ele>636.494995</ele>
        <time>2020-09-05T06:19:14Z</time>
      </trkpt>
      <trkpt lat="45.55362" lon="5.81964">
        <ele>644.325012</ele>
        <time>2020-09-05T06:19:29Z</time>
      </trkpt>
      <trkpt lat="45.55373" lon="5.81956">
        <ele>645.269226</ele>
        <time>2020-09-05T06:19:35Z</time>
      </trkpt>
      <trkpt lat="45.55412" lon="5.81939">
        <ele>651.48877</ele>
        <time>2020-09-05T06:19:58Z</time>
      </trkpt>
      <trkpt lat="45.55431" lon="5.81934">
        <ele>652.738708</ele>
        <time>2020-09-05T06:20:09Z</time>
      </trkpt>
      <trkpt lat="45.55466" lon="5.81918">
        <ele>651.375</ele>
        <time>2020-09-05T06:20:31Z</time>
      </trkpt>
      <trkpt lat="45.55469" lon="5.81921">
        <ele>652.659973</ele>
        <time>2020-09-05T06:20:37Z</time>
      </trkpt>
      <trkpt lat="45.55456" lon="5.81935">
        <ele>657.088074</ele>
        <time>2020-09-05T06:20:49Z</time>
      </trkpt>
      <trkpt lat="45.55438" lon="5.81964">
        <ele>665.062378</ele>
        <time>2020-09-05T06:21:08Z</time>
      </trkpt>
      <trkpt lat="45.55427" lon="5.81989">
        <ele>673.393494</ele>
        <time>2020-09-05T06:21:20Z</time>
      </trkpt>
      <trkpt lat="45.55412" lon="5.82015">
        <ele>682.034668</ele>
        <time>2020-09-05T06:21:33Z</time>
      </trkpt>
      <trkpt lat="45.55375" lon="5.82061">
        <ele>682.394348</ele>
        <time>2020-09-05T06:22:01Z</time>
      </trkpt>
      <trkpt lat="45.55367" lon="5.82083">
        <ele>686.83252</ele>
        <time>2020-09-05T06:22:12Z</time>
      </trkpt>
      <trkpt lat="45.55354" lon="5.82102">
        <ele>688.364563</ele>
        <time>2020-09-05T06:22:24Z</time>
      </trkpt>
      <trkpt lat="45.55361" lon="5.82117">
        <ele>694.931213</ele>
        <time>2020-09-05T06:22:31Z</time>
      </trkpt>
      <trkpt lat="45.55363" lon="5.82128">
        <ele>698.9375</ele>
        <time>2020-09-05T06:22:37Z</time>
      </trkpt>
      <trkpt lat="45.55328" lon="5.82171">
        <ele>701.943726</ele>
        <time>2020-09-05T06:23:04Z</time>
      </trkpt>
      <trkpt lat="45.55304" lon="5.82214">
        <ele>705.513489</ele>
        <time>2020-09-05T06:23:26Z</time>
      </trkpt>
      <trkpt lat="45.55287" lon="5.82231">
        <ele>703.834778</ele>
        <time>2020-09-05T06:23:38Z</time>
      </trkpt>
      <trkpt lat="45.55277" lon="5.82237">
        <ele>702.153015</ele>
        <time>2020-09-05T06:23:44Z</time>
      </trkpt>
      <trkpt lat="45.55263" lon="5.82261">
        <ele>702.956665</ele>
        <time>2020-09-05T06:23:56Z</time>
      </trkpt>
      <trkpt lat="45.55263" lon="5.82273">
        <ele>706.021851</ele>
        <time>2020-09-05T06:24:02Z</time>
      </trkpt>
      <trkpt lat="45.55281" lon="5.8229">
        <ele>714.930908</ele>
        <time>2020-09-05T06:24:17Z</time>
      </trkpt>
      <trkpt lat="45.55303" lon="5.8229">
        <ele>721.515564</ele>
        <time>2020-09-05T06:24:34Z</time>
      </trkpt>
      <trkpt lat="45.55321" lon="5.82284">
        <ele>725.164612</ele>
        <time>2020-09-05T06:24:47Z</time>
      </trkpt>
      <trkpt lat="45.5533" lon="5.82287">
        <ele>728.594177</ele>
        <time>2020-09-05T06:24:53Z</time>
      </trkpt>
      <trkpt lat="45.55356" lon="5.82282">
        <ele>735.499939</ele>
        <time>2020-09-05T06:25:11Z</time>
      </trkpt>
      <trkpt lat="45.55373" lon="5.82283">
        <ele>739.815002</ele>
        <time>2020-09-05T06:25:22Z</time>
      </trkpt>
      <trkpt lat="45.55387" lon="5.8229">
        <ele>744.525024</ele>
        <time>2020-09-05T06:25:30Z</time>
      </trkpt>
      <trkpt lat="45.55392" lon="5.823">
        <ele>747.852478</ele>
        <time>2020-09-05T06:25:36Z</time>
      </trkpt>
      <trkpt lat="45.55398" lon="5.82302">
        <ele>749.737488</ele>
        <time>2020-09-05T06:25:39Z</time>
      </trkpt>
      <trkpt lat="45.55406" lon="5.82299">
        <ele>750.910522</ele>
        <time>2020-09-05T06:25:44Z</time>
      </trkpt>
      <trkpt lat="45.55418" lon="5.82267">
        <ele>746.510498</ele>
        <time>2020-09-05T06:26:03Z</time>
      </trkpt>
      <trkpt lat="45.55426" lon="5.82264">
        <ele>747.731934</ele>
        <time>2020-09-05T06:26:08Z</time>
      </trkpt>
      <trkpt lat="45.55436" lon="5.82276">
        <ele>752.908081</ele>
        <time>2020-09-05T06:26:19Z</time>
      </trkpt>
      <trkpt lat="45.55445" lon="5.8228">
        <ele>755.693604</ele>
        <time>2020-09-05T06:26:25Z</time>
      </trkpt>
      <trkpt lat="45.55456" lon="5.82272">
        <ele>757.146179</ele>
        <time>2020-09-05T06:26:33Z</time>
      </trkpt>
      <trkpt lat="45.55468" lon="5.82274">
        <ele>761.047791</ele>
        <time>2020-09-05T06:26:42Z</time>
      </trkpt>
      <trkpt lat="45.55477" lon="5.82271">
        <ele>762.909546</ele>
        <time>2020-09-05T06:26:47Z</time>
      </trkpt>
      <trkpt lat="45.55498" lon="5.82279">
        <ele>771.04248</ele>
        <time>2020-09-05T06:27:16Z</time>
      </trkpt>
      <trkpt lat="45.55529" lon="5.82267">
        <ele>776.487488</ele>
        <time>2020-09-05T06:27:58Z</time>
      </trkpt>
      <trkpt lat="45.55546" lon="5.82264">
        <ele>779.599976</ele>
        <time>2020-09-05T06:28:10Z</time>
      </trkpt>
      <trkpt lat="45.55549" lon="5.82268">
        <ele>780.9823</ele>
        <time>2020-09-05T06:28:13Z</time>
      </trkpt>
      <trkpt lat="45.5554" lon="5.82285">
        <ele>783.872498</ele>
        <time>2020-09-05T06:28:26Z</time>
      </trkpt>
      <trkpt lat="45.55506" lon="5.82309">
        <ele>781</ele>
        <time>2020-09-05T06:28:55Z</time>
      </trkpt>
      <trkpt lat="45.55499" lon="5.82319">
        <ele>781.682495</ele>
        <time>2020-09-05T06:29:01Z</time>
      </trkpt>
      <trkpt lat="45.55495" lon="5.82331">
        <ele>783.852539</ele>
        <time>2020-09-05T06:29:06Z</time>
      </trkpt>
      <trkpt lat="45.55484" lon="5.82352">
        <ele>786.611145</ele>
        <time>2020-09-05T06:29:18Z</time>
      </trkpt>
      <trkpt lat="45.55484" lon="5.82369">
        <ele>792.174805</ele>
        <time>2020-09-05T06:29:28Z</time>
      </trkpt>
      <trkpt lat="45.55489" lon="5.82375">
        <ele>795.457214</ele>
        <time>2020-09-05T06:29:33Z</time>
      </trkpt>
      <trkpt lat="45.55517" lon="5.82378">
        <ele>803.645691</ele>
        <time>2020-09-05T06:29:51Z</time>
      </trkpt>
      <trkpt lat="45.55593" lon="5.82371">
        <ele>818.98999</ele>
        <time>2020-09-05T06:30:36Z</time>
      </trkpt>
      <trkpt lat="45.5561" lon="5.82361">
        <ele>819.589966</ele>
        <time>2020-09-05T06:30:47Z</time>
      </trkpt>
      <trkpt lat="45.55678" lon="5.82344">
        <ele>825.777466</ele>
        <time>2020-09-05T06:31:24Z</time>
      </trkpt>
      <trkpt lat="45.55694" lon="5.82348">
        <ele>828.229431</ele>
        <time>2020-09-05T06:31:33Z</time>
      </trkpt>
      <trkpt lat="45.55702" lon="5.82354">
        <ele>831.230713</ele>
        <time>2020-09-05T06:31:39Z</time>
      </trkpt>
      <trkpt lat="45.55699" lon="5.82359">
        <ele>832.536804</ele>
        <time>2020-09-05T06:31:44Z</time>
      </trkpt>
      <trkpt lat="45.55665" lon="5.82376">
        <ele>833.540955</ele>
        <time>2020-09-05T06:32:12Z</time>
      </trkpt>
      <trkpt lat="45.5564" lon="5.82398">
        <ele>836.006714</ele>
        <time>2020-09-05T06:32:34Z</time>
      </trkpt>
      <trkpt lat="45.55635" lon="5.82411">
        <ele>838.788208</ele>
        <time>2020-09-05T06:32:40Z</time>
      </trkpt>
      <trkpt lat="45.55624" lon="5.8242">
        <ele>839.536377</ele>
        <time>2020-09-05T06:32:48Z</time>
      </trkpt>
      <trkpt lat="45.55614" lon="5.82435">
        <ele>841.909241</ele>
        <time>2020-09-05T06:32:58Z</time>
      </trkpt>
      <trkpt lat="45.55592" lon="5.82451">
        <ele>841.783508</ele>
        <time>2020-09-05T06:33:12Z</time>
      </trkpt>
      <trkpt lat="45.55569" lon="5.82462">
        <ele>839.844971</ele>
        <time>2020-09-05T06:33:22Z</time>
      </trkpt>
      <trkpt lat="45.55557" lon="5.82472">
        <ele>840.151001</ele>
        <time>2020-09-05T06:33:26Z</time>
      </trkpt>
      <trkpt lat="45.55506" lon="5.825">
        <ele>838.388733</ele>
        <time>2020-09-05T06:33:41Z</time>
      </trkpt>
      <trkpt lat="45.55436" lon="5.82529">
        <ele>832.262512</ele>
        <time>2020-09-05T06:33:59Z</time>
      </trkpt>
      <trkpt lat="45.55419" lon="5.82543">
        <ele>832.857483</ele>
        <time>2020-09-05T06:34:03Z</time>
      </trkpt>
      <trkpt lat="45.55375" lon="5.82598">
        <ele>838.282532</ele>
        <time>2020-09-05T06:34:19Z</time>
      </trkpt>
      <trkpt lat="45.55366" lon="5.82614">
        <ele>840.047485</ele>
        <time>2020-09-05T06:34:24Z</time>
      </trkpt>
      <trkpt lat="45.55359" lon="5.82667">
        <ele>849.50177</ele>
        <time>2020-09-05T06:34:41Z</time>
      </trkpt>
      <trkpt lat="45.55351" lon="5.82687">
        <ele>851.684265</ele>
        <time>2020-09-05T06:34:50Z</time>
      </trkpt>
      <trkpt lat="45.55349" lon="5.82716">
        <ele>856.548889</ele>
        <time>2020-09-05T06:35:00Z</time>
      </trkpt>
      <trkpt lat="45.55352" lon="5.82761">
        <ele>863.416382</ele>
        <time>2020-09-05T06:35:17Z</time>
      </trkpt>
      <trkpt lat="45.55343" lon="5.82784">
        <ele>865.022461</ele>
        <time>2020-09-05T06:35:27Z</time>
      </trkpt>
      <trkpt lat="45.55316" lon="5.82831">
        <ele>865.956726</ele>
        <time>2020-09-05T06:35:46Z</time>
      </trkpt>
      <trkpt lat="45.55303" lon="5.8286">
        <ele>868.69751</ele>
        <time>2020-09-05T06:35:58Z</time>
      </trkpt>
      <trkpt lat="45.55294" lon="5.82867">
        <ele>868.756042</ele>
        <time>2020-09-05T06:36:04Z</time>
      </trkpt>
      <trkpt lat="45.5529" lon="5.82876">
        <ele>869.767822</ele>
        <time>2020-09-05T06:36:09Z</time>
      </trkpt>
      <trkpt lat="45.55291" lon="5.8288">
        <ele>870.452087</ele>
        <time>2020-09-05T06:36:12Z</time>
      </trkpt>
      <trkpt lat="45.55308" lon="5.82887">
        <ele>873.674988</ele>
        <time>2020-09-05T06:36:23Z</time>
      </trkpt>
      <trkpt lat="45.55328" lon="5.82886">
        <ele>875.934998</ele>
        <time>2020-09-05T06:36:36Z</time>
      </trkpt>
      <trkpt lat="45.55368" lon="5.82891">
        <ele>883.214172</ele>
        <time>2020-09-05T06:36:59Z</time>
      </trkpt>
      <trkpt lat="45.55413" lon="5.82883">
        <ele>889.9375</ele>
        <time>2020-09-05T06:37:26Z</time>
      </trkpt>
      <trkpt lat="45.55438" lon="5.82875">
        <ele>892.614685</ele>
        <time>2020-09-05T06:37:40Z</time>
      </trkpt>
      <trkpt lat="45.55469" lon="5.82858">
        <ele>894.333862</ele>
        <time>2020-09-05T06:38:00Z</time>
      </trkpt>
      <trkpt lat="45.55474" lon="5.82862">
        <ele>895.771606</ele>
        <time>2020-09-05T06:38:04Z</time>
      </trkpt>
      <trkpt lat="45.55481" lon="5.8288">
        <ele>898.666626</ele>
        <time>2020-09-05T06:38:16Z</time>
      </trkpt>
      <trkpt lat="45.55482" lon="5.82907">
        <ele>902.086853</ele>
        <time>2020-09-05T06:38:28Z</time>
      </trkpt>
      <trkpt lat="45.55488" lon="5.82914">
        <ele>903.406006</ele>
        <time>2020-09-05T06:38:33Z</time>
      </trkpt>
      <trkpt lat="45.55496" lon="5.82915">
        <ele>904.18103</ele>
        <time>2020-09-05T06:38:38Z</time>
      </trkpt>
      <trkpt lat="45.55502" lon="5.8291">
        <ele>904.133972</ele>
        <time>2020-09-05T06:38:43Z</time>
      </trkpt>
      <trkpt lat="45.55506" lon="5.82919">
        <ele>905.356262</ele>
        <time>2020-09-05T06:38:47Z</time>
      </trkpt>
      <trkpt lat="45.55504" lon="5.82928">
        <ele>905.927795</ele>
        <time>2020-09-05T06:38:51Z</time>
      </trkpt>
      <trkpt lat="45.55496" lon="5.82935">
        <ele>906.116699</ele>
        <time>2020-09-05T06:38:58Z</time>
      </trkpt>
      <trkpt lat="45.55513" lon="5.82959">
        <ele>908.67627</ele>
        <time>2020-09-05T06:39:15Z</time>
      </trkpt>
      <trkpt lat="45.55517" lon="5.82981">
        <ele>902.7</ele>
        <time>2020-09-05T06:39:34Z</time>
      </trkpt>
      <trkpt lat="45.55517" lon="5.82994">
        <ele>904.6</ele>
      </trkpt>
      <trkpt lat="45.55511" lon="5.83025">
        <ele>914.526367</ele>
        <time>2020-09-05T06:39:50Z</time>
      </trkpt>
      <trkpt lat="45.55518" lon="5.83051">
        <ele>908.3</ele>
        <time>2020-09-05T06:39:55Z</time>
      </trkpt>
      <trkpt lat="45.55547" lon="5.83032">
        <ele>914.519836</ele>
        <time>2020-09-05T06:40:11Z</time>
      </trkpt>
      <trkpt lat="45.55551" lon="5.83037">
        <ele>914.788391</ele>
        <time>2020-09-05T06:40:14Z</time>
      </trkpt>
      <trkpt lat="45.55552" lon="5.83056">
        <ele>911.6</ele>
        <time>2020-09-05T06:40:24Z</time>
      </trkpt>
      <trkpt lat="45.55548" lon="5.83073">
        <ele>914.872803</ele>
        <time>2020-09-05T06:40:31Z</time>
      </trkpt>
      <trkpt lat="45.55555" lon="5.83092">
        <ele>910.4</ele>
      </trkpt>
      <trkpt lat="45.55566" lon="5.83089">
        <ele>914.219666</ele>
        <time>2020-09-05T06:41:50Z</time>
      </trkpt>
      <trkpt lat="45.55567" lon="5.83089">
        <ele>911</ele>
        <time>2020-09-05T06:43:02Z</time>
      </trkpt>
      <trkpt lat="45.55568" lon="5.83091">
        <ele>910.9</ele>
        <time>2020-09-05T06:44:23Z</time>
      </trkpt>
      <trkpt lat="45.55572" lon="5.83089">
        <ele>915.290222</ele>
        <time>2020-09-05T06:44:33Z</time>
      </trkpt>
      <trkpt lat="45.55594" lon="5.83091">
        <ele>918.875122</ele>
        <time>2020-09-05T06:44:46Z</time>
      </trkpt>
      <trkpt lat="45.55601" lon="5.83081">
        <ele>920.152466</ele>
        <time>2020-09-05T06:44:52Z</time>
      </trkpt>
      <trkpt lat="45.55606" lon="5.83043">
        <ele>921.8</ele>
      </trkpt>
      <trkpt lat="45.5559" lon="5.82991">
        <ele>916.263733</ele>
        <time>2020-09-05T06:45:20Z</time>
      </trkpt>
      <trkpt lat="45.5559" lon="5.82976">
        <ele>915.214539</ele>
        <time>2020-09-05T06:45:25Z</time>
      </trkpt>
      <trkpt lat="45.55596" lon="5.8296">
        <ele>914.504456</ele>
        <time>2020-09-05T06:45:30Z</time>
      </trkpt>
      <trkpt lat="45.55638" lon="5.82925">
        <ele>918.6</ele>
        <time>2020-09-05T06:45:43Z</time>
      </trkpt>
      <trkpt lat="45.55655" lon="5.82918">
        <ele>916.8</ele>
      </trkpt>
      <trkpt lat="45.55674" lon="5.82919">
        <ele>916.9</ele>
        <time>2020-09-05T06:45:54Z</time>
      </trkpt>
      <trkpt lat="45.55704" lon="5.82924">
        <ele>920.867126</ele>
        <time>2020-09-05T06:45:58Z</time>
      </trkpt>
      <trkpt lat="45.55723" lon="5.82916">
        <ele>922.1</ele>
      </trkpt>
      <trkpt lat="45.55729" lon="5.82913">
        <ele>922.8</ele>
        <time>2020-09-05T06:46:04Z</time>
      </trkpt>
      <trkpt lat="45.5576" lon="5.82909">
        <ele>928.542114</ele>
        <time>2020-09-05T06:46:16Z</time>
      </trkpt>
      <trkpt lat="45.55782" lon="5.82902">
        <ele>932.190063</ele>
        <time>2020-09-05T06:46:23Z</time>
      </trkpt>
      <trkpt lat="45.5579" lon="5.8289">
        <ele>926.7</ele>
        <time>2020-09-05T06:46:27Z</time>
      </trkpt>
      <trkpt lat="45.55821" lon="5.8284">
        <ele>931.723816</ele>
        <time>2020-09-05T06:46:42Z</time>
      </trkpt>
      <trkpt lat="45.55832" lon="5.82834">
        <ele>933.330139</ele>
        <time>2020-09-05T06:46:47Z</time>
      </trkpt>
      <trkpt lat="45.5588" lon="5.82821">
        <ele>938.470764</ele>
        <time>2020-09-05T06:47:08Z</time>
      </trkpt>
      <trkpt lat="45.55895" lon="5.82823">
        <ele>941.098511</ele>
        <time>2020-09-05T06:47:15Z</time>
      </trkpt>
      <trkpt lat="45.55916" lon="5.8282">
        <ele>943.750244</ele>
        <time>2020-09-05T06:47:25Z</time>
      </trkpt>
      <trkpt lat="45.55954" lon="5.82823">
        <ele>949.905396</ele>
        <time>2020-09-05T06:47:44Z</time>
      </trkpt>
      <trkpt lat="45.56014" lon="5.82821">
        <ele>957.164978</ele>
        <time>2020-09-05T06:48:13Z</time>
      </trkpt>
      <trkpt lat="45.56049" lon="5.82821">
        <ele>962.3</ele>
        <time>2020-09-05T06:48:31Z</time>
      </trkpt>
      <trkpt lat="45.56062" lon="5.8282">
        <ele>961.925659</ele>
        <time>2020-09-05T06:48:37Z</time>
      </trkpt>
      <trkpt lat="45.56089" lon="5.82819">
        <ele>964.641479</ele>
        <time>2020-09-05T06:48:50Z</time>
      </trkpt>
      <trkpt lat="45.56099" lon="5.82823">
        <ele>966.074829</ele>
        <time>2020-09-05T06:48:55Z</time>
      </trkpt>
      <trkpt lat="45.56109" lon="5.82832">
        <ele>968.717529</ele>
        <time>2020-09-05T06:49:01Z</time>
      </trkpt>
      <trkpt lat="45.56122" lon="5.82832">
        <ele>970.23999</ele>
        <time>2020-09-05T06:49:07Z</time>
      </trkpt>
      <trkpt lat="45.5613" lon="5.82826">
        <ele>970.262512</ele>
        <time>2020-09-05T06:49:12Z</time>
      </trkpt>
      <trkpt lat="45.56143" lon="5.82823">
        <ele>971.448975</ele>
        <time>2020-09-05T06:49:19Z</time>
      </trkpt>
      <trkpt lat="45.56178" lon="5.82825">
        <ele>975.512512</ele>
        <time>2020-09-05T06:49:39Z</time>
      </trkpt>
      <trkpt lat="45.56187" lon="5.82831">
        <ele>977.342957</ele>
        <time>2020-09-05T06:49:44Z</time>
      </trkpt>
      <trkpt lat="45.56202" lon="5.82835">
        <ele>979.266968</ele>
        <time>2020-09-05T06:49:52Z</time>
      </trkpt>
      <trkpt lat="45.56247" lon="5.82823">
        <ele>982.617798</ele>
        <time>2020-09-05T06:50:16Z</time>
      </trkpt>
      <trkpt lat="45.56292" lon="5.82816">
        <ele>985.68158</ele>
        <time>2020-09-05T06:50:36Z</time>
      </trkpt>
      <trkpt lat="45.56332" lon="5.82816">
        <ele>987.986572</ele>
        <time>2020-09-05T06:50:48Z</time>
      </trkpt>
      <trkpt lat="45.56358" lon="5.82822">
        <ele>988.482727</ele>
        <time>2020-09-05T06:50:59Z</time>
      </trkpt>
      <trkpt lat="45.56374" lon="5.82821">
        <ele>988.841736</ele>
        <time>2020-09-05T06:51:04Z</time>
      </trkpt>
      <trkpt lat="45.56429" lon="5.82792">
        <ele>991.63916</ele>
        <time>2020-09-05T06:51:24Z</time>
      </trkpt>
      <trkpt lat="45.56443" lon="5.82781">
        <ele>991.992188</ele>
        <time>2020-09-05T06:51:30Z</time>
      </trkpt>
      <trkpt lat="45.56466" lon="5.82772">
        <ele>992.450012</ele>
        <time>2020-09-05T06:51:35Z</time>
      </trkpt>
      <trkpt lat="45.56543" lon="5.82725">
        <ele>994.61499</ele>
        <time>2020-09-05T06:51:58Z</time>
      </trkpt>
      <trkpt lat="45.56572" lon="5.82713">
        <ele>994.600037</ele>
        <time>2020-09-05T06:52:05Z</time>
      </trkpt>
      <trkpt lat="45.56608" lon="5.82694">
        <ele>996.07843</ele>
        <time>2020-09-05T06:52:15Z</time>
      </trkpt>
      <trkpt lat="45.56664" lon="5.82676">
        <ele>994.497681</ele>
        <time>2020-09-05T06:52:27Z</time>
      </trkpt>
      <trkpt lat="45.56674" lon="5.82664">
        <ele>994.801208</ele>
        <time>2020-09-05T06:52:29Z</time>
      </trkpt>
      <trkpt lat="45.56677" lon="5.82641">
        <ele>996.330017</ele>
        <time>2020-09-05T06:52:32Z</time>
      </trkpt>
      <trkpt lat="45.56677" lon="5.826">
        <ele>999.577515</ele>
        <time>2020-09-05T06:52:40Z</time>
      </trkpt>
      <trkpt lat="45.56694" lon="5.82561">
        <ele>1000</ele>
        <time>2020-09-05T06:52:49Z</time>
      </trkpt>
      <trkpt lat="45.56666" lon="5.82479">
        <ele>1007.877441</ele>
        <time>2020-09-05T06:53:09Z</time>
      </trkpt>
      <trkpt lat="45.56668" lon="5.82454">
        <ele>1007.643616</ele>
        <time>2020-09-05T06:53:15Z</time>
      </trkpt>
      <trkpt lat="45.56677" lon="5.82427">
        <ele>1007.019043</ele>
        <time>2020-09-05T06:53:19Z</time>
      </trkpt>
      <trkpt lat="45.56709" lon="5.82421">
        <ele>1006.666443</ele>
        <time>2020-09-05T06:53:26Z</time>
      </trkpt>
      <trkpt lat="45.56731" lon="5.8241">
        <ele>1007.309875</ele>
        <time>2020-09-05T06:53:33Z</time>
      </trkpt>
      <trkpt lat="45.56791" lon="5.82398">
        <ele>1008.268738</ele>
        <time>2020-09-05T06:53:51Z</time>
      </trkpt>
      <trkpt lat="45.56834" lon="5.82383">
        <ele>1008.409119</ele>
        <time>2020-09-05T06:54:04Z</time>
      </trkpt>
      <trkpt lat="45.56872" lon="5.82379">
        <ele>1009.883789</ele>
        <time>2020-09-05T06:54:16Z</time>
      </trkpt>
      <trkpt lat="45.56896" lon="5.82364">
        <ele>1011.077148</ele>
        <time>2020-09-05T06:54:25Z</time>
      </trkpt>
      <trkpt lat="45.56918" lon="5.8236">
        <ele>1013.298096</ele>
        <time>2020-09-05T06:54:33Z</time>
      </trkpt>
      <trkpt lat="45.56933" lon="5.82354">
        <ele>1014.121887</ele>
        <time>2020-09-05T06:54:39Z</time>
      </trkpt>
      <trkpt lat="45.56956" lon="5.82326">
        <ele>1014.982239</ele>
        <time>2020-09-05T06:54:51Z</time>
      </trkpt>
      <trkpt lat="45.56982" lon="5.82312">
        <ele>1020.015259</ele>
        <time>2020-09-05T06:55:04Z</time>
      </trkpt>
      <trkpt lat="45.57006" lon="5.8227">
        <ele>1021.346802</ele>
        <time>2020-09-05T06:55:20Z</time>
      </trkpt>
      <trkpt lat="45.57033" lon="5.82191">
        <ele>1024.938232</ele>
        <time>2020-09-05T06:55:36Z</time>
      </trkpt>
      <trkpt lat="45.57041" lon="5.82173">
        <ele>1022.2</ele>
        <time>2020-09-05T06:55:40Z</time>
      </trkpt>
      <trkpt lat="45.57057" lon="5.8216">
        <ele>1021.5</ele>
        <time>2020-09-05T06:55:45Z</time>
      </trkpt>
      <trkpt lat="45.57089" lon="5.82145">
        <ele>1021.8</ele>
        <time>2020-09-05T06:55:50Z</time>
      </trkpt>
      <trkpt lat="45.5712" lon="5.82131">
        <ele>1018.7</ele>
        <time>2020-09-05T06:55:53Z</time>
      </trkpt>
      <trkpt lat="45.57149" lon="5.82134">
        <ele>1015.3</ele>
        <time>2020-09-05T06:55:57Z</time>
      </trkpt>
      <trkpt lat="45.57164" lon="5.82145">
        <ele>1013.8</ele>
        <time>2020-09-05T06:56:00Z</time>
      </trkpt>
      <trkpt lat="45.57193" lon="5.82163">
        <ele>1012.7</ele>
        <time>2020-09-05T06:56:04Z</time>
      </trkpt>
      <trkpt lat="45.57211" lon="5.82164">
        <ele>1011.9</ele>
      </trkpt>
      <trkpt lat="45.57218" lon="5.82164">
        <ele>1011.6</ele>
        <time>2020-09-05T06:56:08Z</time>
      </trkpt>
      <trkpt lat="45.57234" lon="5.82156">
        <ele>1012.4</ele>
        <time>2020-09-05T06:56:11Z</time>
      </trkpt>
      <trkpt lat="45.57251" lon="5.82136">
        <ele>1010.9</ele>
        <time>2020-09-05T06:56:15Z</time>
      </trkpt>
      <trkpt lat="45.57266" lon="5.82123">
        <ele>1013.681946</ele>
        <time>2020-09-05T06:56:20Z</time>
      </trkpt>
      <trkpt lat="45.573" lon="5.82091">
        <ele>1015.40802</ele>
        <time>2020-09-05T06:56:29Z</time>
      </trkpt>
      <trkpt lat="45.5732" lon="5.82086">
        <ele>1011.333191</ele>
        <time>2020-09-05T06:56:33Z</time>
      </trkpt>
      <trkpt lat="45.57357" lon="5.82103">
        <ele>1009.691833</ele>
        <time>2020-09-05T06:56:38Z</time>
      </trkpt>
      <trkpt lat="45.5738" lon="5.82107">
        <ele>1002.81958</ele>
        <time>2020-09-05T06:56:40Z</time>
      </trkpt>
      <trkpt lat="45.57454" lon="5.82104">
        <ele>990.78717</ele>
        <time>2020-09-05T06:56:47Z</time>
      </trkpt>
      <trkpt lat="45.57463" lon="5.8211">
        <ele>991.525757</ele>
        <time>2020-09-05T06:56:48Z</time>
      </trkpt>
      <trkpt lat="45.57491" lon="5.82139">
        <ele>995.03125</ele>
        <time>2020-09-05T06:56:52Z</time>
      </trkpt>
      <trkpt lat="45.57522" lon="5.82163">
        <ele>997.489868</ele>
        <time>2020-09-05T06:56:59Z</time>
      </trkpt>
      <trkpt lat="45.5754" lon="5.82167">
        <ele>997.494629</ele>
        <time>2020-09-05T06:57:04Z</time>
      </trkpt>
      <trkpt lat="45.57606" lon="5.82166">
        <ele>997.020935</ele>
        <time>2020-09-05T06:57:17Z</time>
      </trkpt>
      <trkpt lat="45.57635" lon="5.82142">
        <ele>993.658203</ele>
        <time>2020-09-05T06:57:22Z</time>
      </trkpt>
      <trkpt lat="45.57652" lon="5.82144">
        <ele>993.298279</ele>
        <time>2020-09-05T06:57:24Z</time>
      </trkpt>
      <trkpt lat="45.5768" lon="5.82162">
        <ele>990.164978</ele>
        <time>2020-09-05T06:57:28Z</time>
      </trkpt>
      <trkpt lat="45.57716" lon="5.8217">
        <ele>982.637573</ele>
        <time>2020-09-05T06:57:34Z</time>
      </trkpt>
      <trkpt lat="45.57729" lon="5.82169">
        <ele>979.635193</ele>
        <time>2020-09-05T06:57:43Z</time>
      </trkpt>
      <trkpt lat="45.57743" lon="5.82174">
        <ele>977.13324</ele>
        <time>2020-09-05T06:57:48Z</time>
      </trkpt>
      <trkpt lat="45.5775" lon="5.82171">
        <ele>976.22699</ele>
        <time>2020-09-05T06:57:50Z</time>
      </trkpt>
      <trkpt lat="45.57799" lon="5.82138">
        <ele>977.802551</ele>
        <time>2020-09-05T06:58:09Z</time>
      </trkpt>
      <trkpt lat="45.57819" lon="5.82132">
        <ele>979.846558</ele>
        <time>2020-09-05T06:58:15Z</time>
      </trkpt>
      <trkpt lat="45.57877" lon="5.82128">
        <ele>985.340881</ele>
        <time>2020-09-05T06:58:32Z</time>
      </trkpt>
      <trkpt lat="45.579" lon="5.82129">
        <ele>986.247498</ele>
        <time>2020-09-05T06:58:40Z</time>
      </trkpt>
      <trkpt lat="45.57921" lon="5.82135">
        <ele>988.330017</ele>
        <time>2020-09-05T06:58:45Z</time>
      </trkpt>
      <trkpt lat="45.57964" lon="5.82156">
        <ele>990.432007</ele>
        <time>2020-09-05T06:58:55Z</time>
      </trkpt>
      <trkpt lat="45.58" lon="5.82185">
        <ele>991.6474</ele>
        <time>2020-09-05T06:59:06Z</time>
      </trkpt>
      <trkpt lat="45.58013" lon="5.82203">
        <ele>989.690002</ele>
        <time>2020-09-05T06:59:11Z</time>
      </trkpt>
      <trkpt lat="45.58035" lon="5.8224">
        <ele>988.653809</ele>
        <time>2020-09-05T06:59:21Z</time>
      </trkpt>
      <trkpt lat="45.58064" lon="5.82278">
        <ele>987.761047</ele>
        <time>2020-09-05T06:59:33Z</time>
      </trkpt>
      <trkpt lat="45.58088" lon="5.82291">
        <ele>990.48645</ele>
        <time>2020-09-05T06:59:44Z</time>
      </trkpt>
      <trkpt lat="45.58106" lon="5.82283">
        <ele>994.196167</ele>
        <time>2020-09-05T06:59:58Z</time>
      </trkpt>
      <trkpt lat="45.58109" lon="5.82268">
        <ele>995.776978</ele>
        <time>2020-09-05T07:00:05Z</time>
      </trkpt>
      <trkpt lat="45.58131" lon="5.82265">
        <ele>994.507202</ele>
        <time>2020-09-05T07:00:17Z</time>
      </trkpt>
      <trkpt lat="45.58148" lon="5.82257">
        <ele>993.213745</ele>
        <time>2020-09-05T07:00:29Z</time>
      </trkpt>
      <trkpt lat="45.58164" lon="5.82261">
        <ele>990.119995</ele>
        <time>2020-09-05T07:00:34Z</time>
      </trkpt>
      <trkpt lat="45.58185" lon="5.82273">
        <ele>986.301331</ele>
        <time>2020-09-05T07:00:38Z</time>
      </trkpt>
      <trkpt lat="45.58207" lon="5.8228">
        <ele>978.6</ele>
        <time>2020-09-05T07:00:42Z</time>
      </trkpt>
      <trkpt lat="45.58237" lon="5.82277">
        <ele>981.935974</ele>
        <time>2020-09-05T07:00:49Z</time>
      </trkpt>
      <trkpt lat="45.58267" lon="5.82275">
        <ele>978.155823</ele>
        <time>2020-09-05T07:00:55Z</time>
      </trkpt>
      <trkpt lat="45.58279" lon="5.82279">
        <ele>978.026306</ele>
        <time>2020-09-05T07:00:57Z</time>
      </trkpt>
      <trkpt lat="45.58321" lon="5.82281">
        <ele>973.762268</ele>
        <time>2020-09-05T07:01:02Z</time>
      </trkpt>
      <trkpt lat="45.58367" lon="5.82258">
        <ele>969.681274</ele>
        <time>2020-09-05T07:01:08Z</time>
      </trkpt>
      <trkpt lat="45.58393" lon="5.8224">
        <ele>969.67627</ele>
        <time>2020-09-05T07:01:12Z</time>
      </trkpt>
      <trkpt lat="45.58417" lon="5.82213">
        <ele>969.38501</ele>
        <time>2020-09-05T07:01:19Z</time>
      </trkpt>
      <trkpt lat="45.58427" lon="5.82194">
        <ele>970.211975</ele>
        <time>2020-09-05T07:01:25Z</time>
      </trkpt>
      <trkpt lat="45.58427" lon="5.82176">
        <ele>970.867065</ele>
        <time>2020-09-05T07:01:30Z</time>
      </trkpt>
      <trkpt lat="45.58431" lon="5.8216">
        <ele>972.041443</ele>
        <time>2020-09-05T07:01:35Z</time>
      </trkpt>
      <trkpt lat="45.5843" lon="5.82137">
        <ele>972.733643</ele>
        <time>2020-09-05T07:01:43Z</time>
      </trkpt>
      <trkpt lat="45.58433" lon="5.82137">
        <ele>973.197754</ele>
        <time>2020-09-05T07:01:45Z</time>
      </trkpt>
      <trkpt lat="45.58438" lon="5.82152">
        <ele>973.491821</ele>
        <time>2020-09-05T07:01:51Z</time>
      </trkpt>
      <trkpt lat="45.58452" lon="5.82175">
        <ele>975.189941</ele>
        <time>2020-09-05T07:02:01Z</time>
      </trkpt>
      <trkpt lat="45.58459" lon="5.8218">
        <ele>976.434326</ele>
        <time>2020-09-05T07:02:08Z</time>
      </trkpt>
      <trkpt lat="45.58463" lon="5.82158">
        <ele>977.084778</ele>
        <time>2020-09-05T07:02:18Z</time>
      </trkpt>
      <trkpt lat="45.58476" lon="5.82135">
        <ele>978.385315</ele>
        <time>2020-09-05T07:02:28Z</time>
      </trkpt>
      <trkpt lat="45.58481" lon="5.82122">
        <ele>978.048218</ele>
        <time>2020-09-05T07:02:33Z</time>
      </trkpt>
      <trkpt lat="45.58488" lon="5.82109">
        <ele>977.951538</ele>
        <time>2020-09-05T07:02:37Z</time>
      </trkpt>
      <trkpt lat="45.585" lon="5.82098">
        <ele>978.113464</ele>
        <time>2020-09-05T07:02:42Z</time>
      </trkpt>
      <trkpt lat="45.58518" lon="5.82094">
        <ele>978.876038</ele>
        <time>2020-09-05T07:02:48Z</time>
      </trkpt>
      <trkpt lat="45.58531" lon="5.82097">
        <ele>978.605713</ele>
        <time>2020-09-05T07:02:52Z</time>
      </trkpt>
      <trkpt lat="45.5855" lon="5.8212">
        <ele>978.750122</ele>
        <time>2020-09-05T07:02:58Z</time>
      </trkpt>
      <trkpt lat="45.58558" lon="5.82142">
        <ele>978.97113</ele>
        <time>2020-09-05T07:03:03Z</time>
      </trkpt>
      <trkpt lat="45.5857" lon="5.82185">
        <ele>979.761902</ele>
        <time>2020-09-05T07:03:10Z</time>
      </trkpt>
      <trkpt lat="45.58589" lon="5.82216">
        <ele>977.917786</ele>
        <time>2020-09-05T07:03:15Z</time>
      </trkpt>
      <trkpt lat="45.58607" lon="5.82223">
        <ele>975.737793</ele>
        <time>2020-09-05T07:03:18Z</time>
      </trkpt>
      <trkpt lat="45.58668" lon="5.82224">
        <ele>969.101379</ele>
        <time>2020-09-05T07:03:26Z</time>
      </trkpt>
      <trkpt lat="45.58687" lon="5.82222">
        <ele>968.345337</ele>
        <time>2020-09-05T07:03:28Z</time>
      </trkpt>
      <trkpt lat="45.58705" lon="5.82211">
        <ele>967.997559</ele>
        <time>2020-09-05T07:03:30Z</time>
      </trkpt>
      <trkpt lat="45.58785" lon="5.82121">
        <ele>968.198486</ele>
        <time>2020-09-05T07:03:42Z</time>
      </trkpt>
      <trkpt lat="45.5882" lon="5.82101">
        <ele>968.872498</ele>
        <time>2020-09-05T07:03:48Z</time>
      </trkpt>
      <trkpt lat="45.58836" lon="5.82098">
        <ele>969.02655</ele>
        <time>2020-09-05T07:03:51Z</time>
      </trkpt>
      <trkpt lat="45.58856" lon="5.82102">
        <ele>968.888123</ele>
        <time>2020-09-05T07:03:55Z</time>
      </trkpt>
      <trkpt lat="45.58888" lon="5.82122">
        <ele>968.743835</ele>
        <time>2020-09-05T07:04:04Z</time>
      </trkpt>
      <trkpt lat="45.58929" lon="5.82155">
        <ele>968.434509</ele>
        <time>2020-09-05T07:04:20Z</time>
      </trkpt>
      <trkpt lat="45.58943" lon="5.82164">
        <ele>968.184387</ele>
        <time>2020-09-05T07:04:25Z</time>
      </trkpt>
      <trkpt lat="45.58975" lon="5.8217">
        <ele>969.019043</ele>
        <time>2020-09-05T07:04:35Z</time>
      </trkpt>
      <trkpt lat="45.59017" lon="5.82193">
        <ele>971.692505</ele>
        <time>2020-09-05T07:04:49Z</time>
      </trkpt>
      <trkpt lat="45.5907" lon="5.82239">
        <ele>974.00946</ele>
        <time>2020-09-05T07:05:09Z</time>
      </trkpt>
      <trkpt lat="45.59106" lon="5.82248">
        <ele>975.597717</ele>
        <time>2020-09-05T07:05:19Z</time>
      </trkpt>
      <trkpt lat="45.59171" lon="5.82253">
        <ele>980.149414</ele>
        <time>2020-09-05T07:05:39Z</time>
      </trkpt>
      <trkpt lat="45.59268" lon="5.82267">
        <ele>983.642761</ele>
        <time>2020-09-05T07:06:04Z</time>
      </trkpt>
      <trkpt lat="45.59336" lon="5.82255">
        <ele>981.061218</ele>
        <time>2020-09-05T07:06:20Z</time>
      </trkpt>
      <trkpt lat="45.5937" lon="5.8224">
        <ele>982.178772</ele>
        <time>2020-09-05T07:06:29Z</time>
      </trkpt>
      <trkpt lat="45.59417" lon="5.82213">
        <ele>985.590088</ele>
        <time>2020-09-05T07:06:43Z</time>
      </trkpt>
      <trkpt lat="45.59482" lon="5.82191">
        <ele>991.785767</ele>
        <time>2020-09-05T07:07:07Z</time>
      </trkpt>
      <trkpt lat="45.59596" lon="5.82175">
        <ele>1005.34552</ele>
        <time>2020-09-05T07:07:59Z</time>
      </trkpt>
      <trkpt lat="45.59636" lon="5.82174">
        <ele>1009.049805</ele>
        <time>2020-09-05T07:08:16Z</time>
      </trkpt>
      <trkpt lat="45.59692" lon="5.82163">
        <ele>1015.218506</ele>
        <time>2020-09-05T07:08:37Z</time>
      </trkpt>
      <trkpt lat="45.59774" lon="5.8217">
        <ele>1023.644775</ele>
        <time>2020-09-05T07:09:08Z</time>
      </trkpt>
      <trkpt lat="45.59784" lon="5.82181">
        <ele>1024.302612</ele>
        <time>2020-09-05T07:09:13Z</time>
      </trkpt>
      <trkpt lat="45.59802" lon="5.82216">
        <ele>1023.96582</ele>
        <time>2020-09-05T07:09:26Z</time>
      </trkpt>
      <trkpt lat="45.59823" lon="5.82233">
        <ele>1026.837524</ele>
        <time>2020-09-05T07:09:37Z</time>
      </trkpt>
      <trkpt lat="45.59883" lon="5.82251">
        <ele>1036.964966</ele>
        <time>2020-09-05T07:10:01Z</time>
      </trkpt>
      <trkpt lat="45.59885" lon="5.82249">
        <ele>1037.277466</ele>
        <time>2020-09-05T07:10:02Z</time>
      </trkpt>
      <trkpt lat="45.5989" lon="5.82253">
        <ele>1038.217529</ele>
        <time>2020-09-05T07:10:04Z</time>
      </trkpt>
      <trkpt lat="45.59955" lon="5.82275">
        <ele>1043.933594</ele>
        <time>2020-09-05T07:10:25Z</time>
      </trkpt>
      <trkpt lat="45.60007" lon="5.82265">
        <ele>1047.829956</ele>
        <time>2020-09-05T07:10:40Z</time>
      </trkpt>
      <trkpt lat="45.60047" lon="5.82242">
        <ele>1051.928833</ele>
        <time>2020-09-05T07:10:53Z</time>
      </trkpt>
      <trkpt lat="45.60064" lon="5.8224">
        <ele>1052.550171</ele>
        <time>2020-09-05T07:10:58Z</time>
      </trkpt>
      <trkpt lat="45.601" lon="5.82243">
        <ele>1053.566406</ele>
        <time>2020-09-05T07:11:09Z</time>
      </trkpt>
      <trkpt lat="45.60118" lon="5.82236">
        <ele>1054.969604</ele>
        <time>2020-09-05T07:11:15Z</time>
      </trkpt>
      <trkpt lat="45.60146" lon="5.82209">
        <ele>1058.363647</ele>
        <time>2020-09-05T07:11:26Z</time>
      </trkpt>
      <trkpt lat="45.60164" lon="5.822">
        <ele>1061.05188</ele>
        <time>2020-09-05T07:11:32Z</time>
      </trkpt>
      <trkpt lat="45.602" lon="5.822">
        <ele>1065.322144</ele>
        <time>2020-09-05T07:11:45Z</time>
      </trkpt>
      <trkpt lat="45.60285" lon="5.82232">
        <ele>1073.760986</ele>
        <time>2020-09-05T07:12:17Z</time>
      </trkpt>
      <trkpt lat="45.60341" lon="5.82244">
        <ele>1079.348511</ele>
        <time>2020-09-05T07:12:38Z</time>
      </trkpt>
      <trkpt lat="45.60434" lon="5.82275">
        <ele>1087.494629</ele>
        <time>2020-09-05T07:13:20Z</time>
      </trkpt>
      <trkpt lat="45.60439" lon="5.82274">
        <ele>1088.208862</ele>
        <time>2020-09-05T07:13:34Z</time>
      </trkpt>
      <trkpt lat="45.60441" lon="5.82266">
        <ele>1089.196411</ele>
        <time>2020-09-05T07:13:39Z</time>
      </trkpt>
      <trkpt lat="45.60447" lon="5.8227">
        <ele>1089.44873</ele>
        <time>2020-09-05T07:14:37Z</time>
      </trkpt>
      <trkpt lat="45.60445" lon="5.82271">
        <ele>1089.179932</ele>
        <time>2020-09-05T07:14:49Z</time>
      </trkpt>
      <trkpt lat="45.60452" lon="5.82274">
        <ele>1089.356079</ele>
        <time>2020-09-05T07:16:56Z</time>
      </trkpt>
      <trkpt lat="45.60452" lon="5.82278">
        <ele>1088.956299</ele>
        <time>2020-09-05T07:16:58Z</time>
      </trkpt>
      <trkpt lat="45.6045" lon="5.82283">
        <ele>1088.215942</ele>
        <time>2020-09-05T07:17:01Z</time>
      </trkpt>
      <trkpt lat="45.60441" lon="5.82286">
        <ele>1087.130615</ele>
        <time>2020-09-05T07:17:07Z</time>
      </trkpt>
      <trkpt lat="45.60431" lon="5.82282">
        <ele>1086.54895</ele>
        <time>2020-09-05T07:17:16Z</time>
      </trkpt>
      <trkpt lat="45.60429" lon="5.82279">
        <ele>1086.678955</ele>
        <time>2020-09-05T07:17:19Z</time>
      </trkpt>
      <trkpt lat="45.60436" lon="5.82257">
        <ele>1089.474976</ele>
        <time>2020-09-05T07:17:31Z</time>
      </trkpt>
      <trkpt lat="45.60434" lon="5.82258">
        <ele>1089.047485</ele>
        <time>2020-09-05T07:17:49Z</time>
      </trkpt>
      <trkpt lat="45.60422" lon="5.8225">
        <ele>1088.407471</ele>
        <time>2020-09-05T07:18:01Z</time>
      </trkpt>
      <trkpt lat="45.60396" lon="5.82215">
        <ele>1088.801514</ele>
        <time>2020-09-05T07:18:18Z</time>
      </trkpt>
      <trkpt lat="45.60377" lon="5.82175">
        <ele>1092.215332</ele>
        <time>2020-09-05T07:18:34Z</time>
      </trkpt>
      <trkpt lat="45.60366" lon="5.82164">
        <ele>1092.72229</ele>
        <time>2020-09-05T07:18:38Z</time>
      </trkpt>
      <trkpt lat="45.60361" lon="5.82149">
        <ele>1094.105957</ele>
        <time>2020-09-05T07:18:42Z</time>
      </trkpt>
      <trkpt lat="45.60364" lon="5.8213">
        <ele>1096.289551</ele>
        <time>2020-09-05T07:18:46Z</time>
      </trkpt>
      <trkpt lat="45.60372" lon="5.82115">
        <ele>1098.602417</ele>
        <time>2020-09-05T07:18:51Z</time>
      </trkpt>
      <trkpt lat="45.6039" lon="5.82099">
        <ele>1101.89502</ele>
        <time>2020-09-05T07:19:01Z</time>
      </trkpt>
      <trkpt lat="45.60415" lon="5.82084">
        <ele>1106.081665</ele>
        <time>2020-09-05T07:19:14Z</time>
      </trkpt>
      <trkpt lat="45.60455" lon="5.82081">
        <ele>1111.371216</ele>
        <time>2020-09-05T07:19:30Z</time>
      </trkpt>
      <trkpt lat="45.60513" lon="5.82101">
        <ele>1117.66687</ele>
        <time>2020-09-05T07:20:00Z</time>
      </trkpt>
      <trkpt lat="45.60543" lon="5.82099">
        <ele>1124.403442</ele>
        <time>2020-09-05T07:21:06Z</time>
      </trkpt>
      <trkpt lat="45.6055" lon="5.82103">
        <ele>1126.118896</ele>
        <time>2020-09-05T07:21:12Z</time>
      </trkpt>
      <trkpt lat="45.606" lon="5.821">
        <ele>1138.014404</ele>
        <time>2020-09-05T07:21:41Z</time>
      </trkpt>
      <trkpt lat="45.60627" lon="5.82082">
        <ele>1141.11499</ele>
        <time>2020-09-05T07:21:59Z</time>
      </trkpt>
      <trkpt lat="45.60649" lon="5.82075">
        <ele>1146.49707</ele>
        <time>2020-09-05T07:22:11Z</time>
      </trkpt>
      <trkpt lat="45.60663" lon="5.82053">
        <ele>1152.320679</ele>
        <time>2020-09-05T07:22:23Z</time>
      </trkpt>
      <trkpt lat="45.60667" lon="5.82042">
        <ele>1154.452759</ele>
        <time>2020-09-05T07:22:28Z</time>
      </trkpt>
      <trkpt lat="45.60683" lon="5.82026">
        <ele>1158.952026</ele>
        <time>2020-09-05T07:23:35Z</time>
      </trkpt>
      <trkpt lat="45.60677" lon="5.81961">
        <ele>1171.903931</ele>
        <time>2020-09-05T07:24:44Z</time>
      </trkpt>
      <trkpt lat="45.60659" lon="5.81893">
        <ele>1177.670044</ele>
        <time>2020-09-05T07:25:16Z</time>
      </trkpt>
      <trkpt lat="45.6066" lon="5.81878">
        <ele>1179.843872</ele>
        <time>2020-09-05T07:25:22Z</time>
      </trkpt>
      <trkpt lat="45.60658" lon="5.81837">
        <ele>1184.278931</ele>
        <time>2020-09-05T07:25:39Z</time>
      </trkpt>
      <trkpt lat="45.60663" lon="5.81804">
        <ele>1189.549194</ele>
        <time>2020-09-05T07:25:52Z</time>
      </trkpt>
      <trkpt lat="45.60654" lon="5.81758">
        <ele>1192.817505</ele>
        <time>2020-09-05T07:26:15Z</time>
      </trkpt>
      <trkpt lat="45.60663" lon="5.81748">
        <ele>1197.138794</ele>
        <time>2020-09-05T07:26:22Z</time>
      </trkpt>
      <trkpt lat="45.60672" lon="5.81748">
        <ele>1199.943726</ele>
        <time>2020-09-05T07:26:28Z</time>
      </trkpt>
      <trkpt lat="45.607" lon="5.81775">
        <ele>1205.467529</ele>
        <time>2020-09-05T07:26:52Z</time>
      </trkpt>
      <trkpt lat="45.60721" lon="5.81789">
        <ele>1210.94751</ele>
        <time>2020-09-05T07:27:06Z</time>
      </trkpt>
      <trkpt lat="45.60738" lon="5.8181">
        <ele>1213.964111</ele>
        <time>2020-09-05T07:27:20Z</time>
      </trkpt>
      <trkpt lat="45.60754" lon="5.81813">
        <ele>1218.338135</ele>
        <time>2020-09-05T07:27:30Z</time>
      </trkpt>
      <trkpt lat="45.60762" lon="5.8182">
        <ele>1219.063965</ele>
        <time>2020-09-05T07:27:36Z</time>
      </trkpt>
      <trkpt lat="45.60767" lon="5.81821">
        <ele>1220.490723</ele>
        <time>2020-09-05T07:27:41Z</time>
      </trkpt>
      <trkpt lat="45.60753" lon="5.81775">
        <ele>1225.529663</ele>
        <time>2020-09-05T07:28:02Z</time>
      </trkpt>
      <trkpt lat="45.60746" lon="5.81766">
        <ele>1224.394897</ele>
        <time>2020-09-05T07:28:11Z</time>
      </trkpt>
      <trkpt lat="45.60737" lon="5.81749">
        <ele>1225.192749</ele>
        <time>2020-09-05T07:28:40Z</time>
      </trkpt>
      <trkpt lat="45.6073" lon="5.81741">
        <ele>1224.133789</ele>
        <time>2020-09-05T07:28:45Z</time>
      </trkpt>
      <trkpt lat="45.60727" lon="5.8173">
        <ele>1225.42981</ele>
        <time>2020-09-05T07:28:50Z</time>
      </trkpt>
      <trkpt lat="45.60719" lon="5.81718">
        <ele>1224.548218</ele>
        <time>2020-09-05T07:28:56Z</time>
      </trkpt>
      <trkpt lat="45.6071" lon="5.81689">
        <ele>1226.453003</ele>
        <time>2020-09-05T07:29:09Z</time>
      </trkpt>
      <trkpt lat="45.6069" lon="5.81647">
        <ele>1224.891724</ele>
        <time>2020-09-05T07:29:30Z</time>
      </trkpt>
      <trkpt lat="45.60686" lon="5.81632">
        <ele>1226.813599</ele>
        <time>2020-09-05T07:29:36Z</time>
      </trkpt>
      <trkpt lat="45.60681" lon="5.81627">
        <ele>1226.077637</ele>
        <time>2020-09-05T07:29:40Z</time>
      </trkpt>
      <trkpt lat="45.60674" lon="5.81604">
        <ele>1229.267578</ele>
        <time>2020-09-05T07:29:51Z</time>
      </trkpt>
      <trkpt lat="45.60669" lon="5.81596">
        <ele>1228.952026</ele>
        <time>2020-09-05T07:30:49Z</time>
      </trkpt>
      <trkpt lat="45.60683" lon="5.81629">
        <ele>1226.25293</ele>
        <time>2020-09-05T07:31:22Z</time>
      </trkpt>
      <trkpt lat="45.60707" lon="5.81668">
        <ele>1229.472534</ele>
        <time>2020-09-05T07:31:36Z</time>
      </trkpt>
      <trkpt lat="45.6071" lon="5.81687">
        <ele>1226.835205</ele>
        <time>2020-09-05T07:31:39Z</time>
      </trkpt>
      <trkpt lat="45.60714" lon="5.81696">
        <ele>1227.29834</ele>
        <time>2020-09-05T07:31:42Z</time>
      </trkpt>
      <trkpt lat="45.60716" lon="5.81705">
        <ele>1225.980835</ele>
        <time>2020-09-05T07:31:45Z</time>
      </trkpt>
      <trkpt lat="45.60728" lon="5.81727">
        <ele>1226.472168</ele>
        <time>2020-09-05T07:31:53Z</time>
      </trkpt>
      <trkpt lat="45.60758" lon="5.81769">
        <ele>1228.706665</ele>
        <time>2020-09-05T07:33:13Z</time>
      </trkpt>
      <trkpt lat="45.60753" lon="5.81766">
        <ele>1227.814453</ele>
        <time>2020-09-05T07:33:38Z</time>
      </trkpt>
      <trkpt lat="45.60754" lon="5.81761">
        <ele>1229.428711</ele>
        <time>2020-09-05T07:33:52Z</time>
      </trkpt>
      <trkpt lat="45.60773" lon="5.81818">
        <ele>1223.035522</ele>
        <time>2020-09-05T07:34:46Z</time>
      </trkpt>
      <trkpt lat="45.60803" lon="5.81875">
        <ele>1222.073975</ele>
        <time>2020-09-05T07:35:07Z</time>
      </trkpt>
      <trkpt lat="45.60816" lon="5.81888">
        <ele>1222.884766</ele>
        <time>2020-09-05T07:35:13Z</time>
      </trkpt>
      <trkpt lat="45.60833" lon="5.81915">
        <ele>1225.642944</ele>
        <time>2020-09-05T07:35:25Z</time>
      </trkpt>
      <trkpt lat="45.60835" lon="5.81927">
        <ele>1225.357422</ele>
        <time>2020-09-05T07:35:43Z</time>
      </trkpt>
      <trkpt lat="45.60834" lon="5.81919">
        <ele>1225.737793</ele>
        <time>2020-09-05T07:36:01Z</time>
      </trkpt>
      <trkpt lat="45.60824" lon="5.81903">
        <ele>1222.682251</ele>
        <time>2020-09-05T07:36:06Z</time>
      </trkpt>
      <trkpt lat="45.60797" lon="5.81877">
        <ele>1219.957642</ele>
        <time>2020-09-05T07:36:14Z</time>
      </trkpt>
      <trkpt lat="45.6078" lon="5.81842">
        <ele>1220.141113</ele>
        <time>2020-09-05T07:36:28Z</time>
      </trkpt>
      <trkpt lat="45.6074" lon="5.81819">
        <ele>1212.899292</ele>
        <time>2020-09-05T07:36:41Z</time>
      </trkpt>
      <trkpt lat="45.60719" lon="5.81797">
        <ele>1209.23999</ele>
        <time>2020-09-05T07:36:45Z</time>
      </trkpt>
      <trkpt lat="45.60702" lon="5.81784">
        <ele>1204.880005</ele>
        <time>2020-09-05T07:36:48Z</time>
      </trkpt>
      <trkpt lat="45.60677" lon="5.81755">
        <ele>1200.454956</ele>
        <time>2020-09-05T07:36:53Z</time>
      </trkpt>
      <trkpt lat="45.60665" lon="5.81752">
        <ele>1197.088745</ele>
        <time>2020-09-05T07:36:56Z</time>
      </trkpt>
      <trkpt lat="45.60658" lon="5.8176">
        <ele>1193.481201</ele>
        <time>2020-09-05T07:37:01Z</time>
      </trkpt>
      <trkpt lat="45.60662" lon="5.81772">
        <ele>1193.216553</ele>
        <time>2020-09-05T07:37:05Z</time>
      </trkpt>
      <trkpt lat="45.60665" lon="5.81796">
        <ele>1191.349731</ele>
        <time>2020-09-05T07:37:08Z</time>
      </trkpt>
      <trkpt lat="45.60658" lon="5.81902">
        <ele>1176.44458</ele>
        <time>2020-09-05T07:37:22Z</time>
      </trkpt>
      <trkpt lat="45.60671" lon="5.8196">
        <ele>1171.083374</ele>
        <time>2020-09-05T07:37:39Z</time>
      </trkpt>
      <trkpt lat="45.60676" lon="5.81997">
        <ele>1163.47229</ele>
        <time>2020-09-05T07:37:43Z</time>
      </trkpt>
      <trkpt lat="45.60677" lon="5.82037">
        <ele>1156.125244</ele>
        <time>2020-09-05T07:37:48Z</time>
      </trkpt>
      <trkpt lat="45.60685" lon="5.82057">
        <ele>1156.680298</ele>
        <time>2020-09-05T07:37:51Z</time>
      </trkpt>
      <trkpt lat="45.60695" lon="5.82071">
        <ele>1158.34436</ele>
        <time>2020-09-05T07:37:53Z</time>
      </trkpt>
      <trkpt lat="45.60702" lon="5.82088">
        <ele>1158.069702</ele>
        <time>2020-09-05T07:37:55Z</time>
      </trkpt>
      <trkpt lat="45.60705" lon="5.8212">
        <ele>1157.180054</ele>
        <time>2020-09-05T07:37:58Z</time>
      </trkpt>
      <trkpt lat="45.60704" lon="5.82139">
        <ele>1155.749512</ele>
        <time>2020-09-05T07:38:00Z</time>
      </trkpt>
      <trkpt lat="45.60708" lon="5.82179">
        <ele>1149.79248</ele>
        <time>2020-09-05T07:38:06Z</time>
      </trkpt>
      <trkpt lat="45.60718" lon="5.82193">
        <ele>1148.774536</ele>
        <time>2020-09-05T07:38:11Z</time>
      </trkpt>
      <trkpt lat="45.60733" lon="5.82207">
        <ele>1149.593994</ele>
        <time>2020-09-05T07:38:27Z</time>
      </trkpt>
      <trkpt lat="45.60763" lon="5.82222">
        <ele>1154.514282</ele>
        <time>2020-09-05T07:38:39Z</time>
      </trkpt>
      <trkpt lat="45.60791" lon="5.82229">
        <ele>1157.505005</ele>
        <time>2020-09-05T07:38:47Z</time>
      </trkpt>
      <trkpt lat="45.60812" lon="5.82242">
        <ele>1156.570068</ele>
        <time>2020-09-05T07:38:54Z</time>
      </trkpt>
      <trkpt lat="45.6082" lon="5.82255">
        <ele>1153.060059</ele>
        <time>2020-09-05T07:38:59Z</time>
      </trkpt>
      <trkpt lat="45.60858" lon="5.82271">
        <ele>1151.76416</ele>
        <time>2020-09-05T07:39:09Z</time>
      </trkpt>
      <trkpt lat="45.60887" lon="5.82272">
        <ele>1155.009521</ele>
        <time>2020-09-05T07:39:17Z</time>
      </trkpt>
      <trkpt lat="45.609" lon="5.82277">
        <ele>1155.320313</ele>
        <time>2020-09-05T07:39:24Z</time>
      </trkpt>
      <trkpt lat="45.60942" lon="5.82278">
        <ele>1165.278442</ele>
        <time>2020-09-05T07:39:42Z</time>
      </trkpt>
      <trkpt lat="45.60957" lon="5.82285">
        <ele>1167.802002</ele>
        <time>2020-09-05T07:39:48Z</time>
      </trkpt>
      <trkpt lat="45.60981" lon="5.82303">
        <ele>1170.052856</ele>
        <time>2020-09-05T07:39:58Z</time>
      </trkpt>
      <trkpt lat="45.60997" lon="5.82329">
        <ele>1170.673584</ele>
        <time>2020-09-05T07:40:06Z</time>
      </trkpt>
      <trkpt lat="45.61007" lon="5.8235">
        <ele>1169.163696</ele>
        <time>2020-09-05T07:40:12Z</time>
      </trkpt>
      <trkpt lat="45.61018" lon="5.82366">
        <ele>1169.65625</ele>
        <time>2020-09-05T07:40:18Z</time>
      </trkpt>
      <trkpt lat="45.61032" lon="5.82371">
        <ele>1173.346436</ele>
        <time>2020-09-05T07:40:24Z</time>
      </trkpt>
      <trkpt lat="45.61062" lon="5.82362">
        <ele>1184.02063</ele>
        <time>2020-09-05T07:40:38Z</time>
      </trkpt>
      <trkpt lat="45.6109" lon="5.82369">
        <ele>1186.67749</ele>
        <time>2020-09-05T07:40:49Z</time>
      </trkpt>
      <trkpt lat="45.61132" lon="5.8237">
        <ele>1191.440552</ele>
        <time>2020-09-05T07:41:07Z</time>
      </trkpt>
      <trkpt lat="45.61145" lon="5.82366">
        <ele>1194.250122</ele>
        <time>2020-09-05T07:41:12Z</time>
      </trkpt>
      <trkpt lat="45.61173" lon="5.82369">
        <ele>1195.816162</ele>
        <time>2020-09-05T07:41:24Z</time>
      </trkpt>
      <trkpt lat="45.61222" lon="5.82395">
        <ele>1194.296875</ele>
        <time>2020-09-05T07:41:44Z</time>
      </trkpt>
      <trkpt lat="45.61236" lon="5.82397">
        <ele>1195.74292</ele>
        <time>2020-09-05T07:41:50Z</time>
      </trkpt>
      <trkpt lat="45.61278" lon="5.82384">
        <ele>1206.140259</ele>
        <time>2020-09-05T07:42:09Z</time>
      </trkpt>
      <trkpt lat="45.61311" lon="5.8239">
        <ele>1210.349976</ele>
        <time>2020-09-05T07:42:25Z</time>
      </trkpt>
      <trkpt lat="45.61337" lon="5.82408">
        <ele>1210.092896</ele>
        <time>2020-09-05T07:42:37Z</time>
      </trkpt>
      <trkpt lat="45.61374" lon="5.82398">
        <ele>1218.342773</ele>
        <time>2020-09-05T07:42:54Z</time>
      </trkpt>
      <trkpt lat="45.61399" lon="5.824">
        <ele>1219.835327</ele>
        <time>2020-09-05T07:43:05Z</time>
      </trkpt>
      <trkpt lat="45.61434" lon="5.82396">
        <ele>1223.107788</ele>
        <time>2020-09-05T07:43:20Z</time>
      </trkpt>
      <trkpt lat="45.61467" lon="5.82386">
        <ele>1228.746094</ele>
        <time>2020-09-05T07:43:35Z</time>
      </trkpt>
      <trkpt lat="45.61508" lon="5.82386">
        <ele>1231.680054</ele>
        <time>2020-09-05T07:43:54Z</time>
      </trkpt>
      <trkpt lat="45.61556" lon="5.82374">
        <ele>1239.057129</ele>
        <time>2020-09-05T07:44:15Z</time>
      </trkpt>
      <trkpt lat="45.61591" lon="5.8238">
        <ele>1240.688354</ele>
        <time>2020-09-05T07:44:29Z</time>
      </trkpt>
      <trkpt lat="45.61623" lon="5.82378">
        <ele>1245.152466</ele>
        <time>2020-09-05T07:44:43Z</time>
      </trkpt>
      <trkpt lat="45.6169" lon="5.82355">
        <ele>1255.012573</ele>
        <time>2020-09-05T07:45:13Z</time>
      </trkpt>
      <trkpt lat="45.617" lon="5.82347">
        <ele>1257.351196</ele>
        <time>2020-09-05T07:45:18Z</time>
      </trkpt>
      <trkpt lat="45.61726" lon="5.82315">
        <ele>1263.14563</ele>
        <time>2020-09-05T07:45:30Z</time>
      </trkpt>
      <trkpt lat="45.61746" lon="5.82282">
        <ele>1268.918579</ele>
        <time>2020-09-05T07:45:42Z</time>
      </trkpt>
      <trkpt lat="45.61758" lon="5.8227">
        <ele>1270.564941</ele>
        <time>2020-09-05T07:45:48Z</time>
      </trkpt>
      <trkpt lat="45.61785" lon="5.82254">
        <ele>1270.160034</ele>
        <time>2020-09-05T07:46:00Z</time>
      </trkpt>
      <trkpt lat="45.61834" lon="5.82204">
        <ele>1276.007446</ele>
        <time>2020-09-05T07:46:26Z</time>
      </trkpt>
      <trkpt lat="45.61861" lon="5.82186">
        <ele>1278.755737</ele>
        <time>2020-09-05T07:46:39Z</time>
      </trkpt>
      <trkpt lat="45.61878" lon="5.82179">
        <ele>1280.590088</ele>
        <time>2020-09-05T07:46:47Z</time>
      </trkpt>
      <trkpt lat="45.61896" lon="5.82177">
        <ele>1281.290771</ele>
        <time>2020-09-05T07:46:54Z</time>
      </trkpt>
      <trkpt lat="45.61935" lon="5.82192">
        <ele>1279.376221</ele>
        <time>2020-09-05T07:47:07Z</time>
      </trkpt>
      <trkpt lat="45.61956" lon="5.82197">
        <ele>1280.558716</ele>
        <time>2020-09-05T07:47:14Z</time>
      </trkpt>
      <trkpt lat="45.61976" lon="5.82206">
        <ele>1280.349976</ele>
        <time>2020-09-05T07:47:20Z</time>
      </trkpt>
      <trkpt lat="45.61992" lon="5.82221">
        <ele>1277.779541</ele>
        <time>2020-09-05T07:47:26Z</time>
      </trkpt>
      <trkpt lat="45.62053" lon="5.82241">
        <ele>1278.557129</ele>
        <time>2020-09-05T07:47:43Z</time>
      </trkpt>
      <trkpt lat="45.62076" lon="5.82252">
        <ele>1277.048462</ele>
        <time>2020-09-05T07:47:48Z</time>
      </trkpt>
      <trkpt lat="45.62127" lon="5.8226">
        <ele>1277.213745</ele>
        <time>2020-09-05T07:48:00Z</time>
      </trkpt>
      <trkpt lat="45.62157" lon="5.82269">
        <ele>1276.08252</ele>
        <time>2020-09-05T07:48:08Z</time>
      </trkpt>
      <trkpt lat="45.62185" lon="5.82266">
        <ele>1275.479126</ele>
        <time>2020-09-05T07:48:15Z</time>
      </trkpt>
      <trkpt lat="45.62225" lon="5.82251">
        <ele>1277.135254</ele>
        <time>2020-09-05T07:48:26Z</time>
      </trkpt>
      <trkpt lat="45.62271" lon="5.82223">
        <ele>1278.970581</ele>
        <time>2020-09-05T07:48:37Z</time>
      </trkpt>
      <trkpt lat="45.6228" lon="5.82223">
        <ele>1278.080078</ele>
        <time>2020-09-05T07:48:39Z</time>
      </trkpt>
      <trkpt lat="45.62297" lon="5.82234">
        <ele>1274.510742</ele>
        <time>2020-09-05T07:48:43Z</time>
      </trkpt>
      <trkpt lat="45.62322" lon="5.82232">
        <ele>1274.910278</ele>
        <time>2020-09-05T07:48:48Z</time>
      </trkpt>
      <trkpt lat="45.62386" lon="5.82205">
        <ele>1276.19519</ele>
        <time>2020-09-05T07:49:04Z</time>
      </trkpt>
      <trkpt lat="45.62411" lon="5.82172">
        <ele>1282.25293</ele>
        <time>2020-09-05T07:49:12Z</time>
      </trkpt>
      <trkpt lat="45.62421" lon="5.82173">
        <ele>1281.62439</ele>
        <time>2020-09-05T07:49:15Z</time>
      </trkpt>
      <trkpt lat="45.62438" lon="5.82201">
        <ele>1275.303833</ele>
        <time>2020-09-05T07:49:21Z</time>
      </trkpt>
      <trkpt lat="45.62451" lon="5.82211">
        <ele>1273.255737</ele>
        <time>2020-09-05T07:49:24Z</time>
      </trkpt>
      <trkpt lat="45.62471" lon="5.82214">
        <ele>1272.442383</ele>
        <time>2020-09-05T07:49:29Z</time>
      </trkpt>
      <trkpt lat="45.62486" lon="5.82205">
        <ele>1274.392456</ele>
        <time>2020-09-05T07:49:33Z</time>
      </trkpt>
      <trkpt lat="45.62502" lon="5.82202">
        <ele>1275.662476</ele>
        <time>2020-09-05T07:49:38Z</time>
      </trkpt>
      <trkpt lat="45.62538" lon="5.82205">
        <ele>1276.57251</ele>
        <time>2020-09-05T07:49:56Z</time>
      </trkpt>
      <trkpt lat="45.6261" lon="5.8222">
        <ele>1276.477539</ele>
        <time>2020-09-05T07:50:14Z</time>
      </trkpt>
      <trkpt lat="45.62625" lon="5.8222">
        <ele>1277.179932</ele>
        <time>2020-09-05T07:50:17Z</time>
      </trkpt>
      <trkpt lat="45.6268" lon="5.82229">
        <ele>1278.765015</ele>
        <time>2020-09-05T07:50:29Z</time>
      </trkpt>
      <trkpt lat="45.6283" lon="5.82276">
        <ele>1278.456055</ele>
        <time>2020-09-05T07:51:04Z</time>
      </trkpt>
      <trkpt lat="45.6288" lon="5.82281">
        <ele>1280.235962</ele>
        <time>2020-09-05T07:51:14Z</time>
      </trkpt>
      <trkpt lat="45.62901" lon="5.82288">
        <ele>1279.130127</ele>
        <time>2020-09-05T07:51:19Z</time>
      </trkpt>
      <trkpt lat="45.6295" lon="5.82294">
        <ele>1279.59082</ele>
        <time>2020-09-05T07:51:32Z</time>
      </trkpt>
      <trkpt lat="45.62974" lon="5.82303">
        <ele>1277.804932</ele>
        <time>2020-09-05T07:51:39Z</time>
      </trkpt>
      <trkpt lat="45.62997" lon="5.82316">
        <ele>1274.41626</ele>
        <time>2020-09-05T07:51:44Z</time>
      </trkpt>
      <trkpt lat="45.63075" lon="5.8234">
        <ele>1268.226807</ele>
        <time>2020-09-05T07:51:56Z</time>
      </trkpt>
      <trkpt lat="45.63172" lon="5.82354">
        <ele>1266.142456</ele>
        <time>2020-09-05T07:52:08Z</time>
      </trkpt>
      <trkpt lat="45.6323" lon="5.82376">
        <ele>1260.131226</ele>
        <time>2020-09-05T07:52:17Z</time>
      </trkpt>
      <trkpt lat="45.63273" lon="5.82373">
        <ele>1261.96875</ele>
        <time>2020-09-05T07:52:24Z</time>
      </trkpt>
      <trkpt lat="45.63289" lon="5.82388">
        <ele>1257.360229</ele>
        <time>2020-09-05T07:52:27Z</time>
      </trkpt>
      <trkpt lat="45.63316" lon="5.82408">
        <ele>1252.598267</ele>
        <time>2020-09-05T07:52:31Z</time>
      </trkpt>
      <trkpt lat="45.63356" lon="5.82427">
        <ele>1249.142578</ele>
        <time>2020-09-05T07:52:36Z</time>
      </trkpt>
      <trkpt lat="45.63398" lon="5.82454">
        <ele>1244.51001</ele>
        <time>2020-09-05T07:52:41Z</time>
      </trkpt>
      <trkpt lat="45.63508" lon="5.82503">
        <ele>1236.492065</ele>
        <time>2020-09-05T07:52:53Z</time>
      </trkpt>
      <trkpt lat="45.63526" lon="5.82517">
        <ele>1233.893555</ele>
        <time>2020-09-05T07:52:55Z</time>
      </trkpt>
      <trkpt lat="45.63552" lon="5.8253">
        <ele>1232.675659</ele>
        <time>2020-09-05T07:52:58Z</time>
      </trkpt>
      <trkpt lat="45.63565" lon="5.82547">
        <ele>1227.72522</ele>
        <time>2020-09-05T07:53:00Z</time>
      </trkpt>
      <trkpt lat="45.63594" lon="5.82553">
        <ele>1227.8</ele>
      </trkpt>
      <trkpt lat="45.63597" lon="5.82554">
        <ele>1227.7</ele>
        <time>2020-09-05T07:53:11Z</time>
      </trkpt>
      <trkpt lat="45.63625" lon="5.82553">
        <ele>1226.9</ele>
        <time>2020-09-05T07:53:13Z</time>
      </trkpt>
      <trkpt lat="45.63657" lon="5.8255">
        <ele>1224.7</ele>
        <time>2020-09-05T07:54:58Z</time>
      </trkpt>
      <trkpt lat="45.63702" lon="5.82527">
        <ele>1227.2</ele>
      </trkpt>
      <trkpt lat="45.63804" lon="5.82496">
        <ele>1237.75</ele>
        <time>2020-09-05T07:56:00Z</time>
      </trkpt>
      <trkpt lat="45.6382" lon="5.82495">
        <ele>1238.29248</ele>
        <time>2020-09-05T07:56:06Z</time>
      </trkpt>
      <trkpt lat="45.63835" lon="5.82497">
        <ele>1238.122437</ele>
        <time>2020-09-05T07:56:11Z</time>
      </trkpt>
      <trkpt lat="45.63858" lon="5.82494">
        <ele>1239.753662</ele>
        <time>2020-09-05T07:56:19Z</time>
      </trkpt>
      <trkpt lat="45.63936" lon="5.82473">
        <ele>1244.384644</ele>
        <time>2020-09-05T07:56:58Z</time>
      </trkpt>
      <trkpt lat="45.64011" lon="5.82432">
        <ele>1251.408325</ele>
        <time>2020-09-05T07:57:33Z</time>
      </trkpt>
      <trkpt lat="45.64082" lon="5.8242">
        <ele>1253.098267</ele>
        <time>2020-09-05T07:58:02Z</time>
      </trkpt>
      <trkpt lat="45.64115" lon="5.82398">
        <ele>1259.380005</ele>
        <time>2020-09-05T07:58:18Z</time>
      </trkpt>
      <trkpt lat="45.64161" lon="5.82373">
        <ele>1264.122559</ele>
        <time>2020-09-05T07:58:40Z</time>
      </trkpt>
      <trkpt lat="45.64185" lon="5.82365">
        <ele>1263.903564</ele>
        <time>2020-09-05T07:58:50Z</time>
      </trkpt>
      <trkpt lat="45.64244" lon="5.82324">
        <ele>1272.3</ele>
      </trkpt>
      <trkpt lat="45.64259" lon="5.82309">
        <ele>1276.4</ele>
      </trkpt>
      <trkpt lat="45.64268" lon="5.82299">
        <ele>1278.371216</ele>
        <time>2020-09-05T08:03:04Z</time>
      </trkpt>
      <trkpt lat="45.64277" lon="5.82293">
        <ele>1280.8</ele>
        <time>2020-09-05T08:03:40Z</time>
      </trkpt>
      <trkpt lat="45.64322" lon="5.8226">
        <ele>1290</ele>
        <time>2020-09-05T08:04:11Z</time>
      </trkpt>
      <trkpt lat="45.6434" lon="5.82255">
        <ele>1291.5</ele>
        <time>2020-09-05T08:04:22Z</time>
      </trkpt>
      <trkpt lat="45.64377" lon="5.82246">
        <ele>1293.797485</ele>
        <time>2020-09-05T08:04:41Z</time>
      </trkpt>
      <trkpt lat="45.64387" lon="5.82242">
        <ele>1295.02002</ele>
        <time>2020-09-05T08:04:47Z</time>
      </trkpt>
      <trkpt lat="45.64396" lon="5.82233">
        <ele>1298.155029</ele>
        <time>2020-09-05T08:04:53Z</time>
      </trkpt>
      <trkpt lat="45.64407" lon="5.82226">
        <ele>1300.367554</ele>
        <time>2020-09-05T08:04:59Z</time>
      </trkpt>
      <trkpt lat="45.6443" lon="5.82199">
        <ele>1310.663818</ele>
        <time>2020-09-05T08:05:14Z</time>
      </trkpt>
      <trkpt lat="45.64455" lon="5.82196">
        <ele>1312.459961</ele>
        <time>2020-09-05T08:05:27Z</time>
      </trkpt>
      <trkpt lat="45.64507" lon="5.82168">
        <ele>1323.752808</ele>
        <time>2020-09-05T08:05:56Z</time>
      </trkpt>
      <trkpt lat="45.64516" lon="5.8216">
        <ele>1326.883789</ele>
        <time>2020-09-05T08:06:02Z</time>
      </trkpt>
      <trkpt lat="45.64536" lon="5.82148">
        <ele>1332.3</ele>
      </trkpt>
      <trkpt lat="45.64549" lon="5.82144">
        <ele>1333.192505</ele>
        <time>2020-09-05T08:06:23Z</time>
      </trkpt>
      <trkpt lat="45.64559" lon="5.82137">
        <ele>1336.188721</ele>
        <time>2020-09-05T08:06:29Z</time>
      </trkpt>
      <trkpt lat="45.64602" lon="5.82115">
        <ele>1345.964966</ele>
        <time>2020-09-05T08:06:52Z</time>
      </trkpt>
      <trkpt lat="45.64617" lon="5.82107">
        <ele>1348.2</ele>
        <time>2020-09-05T08:07:07Z</time>
      </trkpt>
      <trkpt lat="45.6466" lon="5.8211">
        <ele>1349.851196</ele>
        <time>2020-09-05T08:07:20Z</time>
      </trkpt>
      <trkpt lat="45.64747" lon="5.82123">
        <ele>1345.27002</ele>
        <time>2020-09-05T08:07:49Z</time>
      </trkpt>
      <trkpt lat="45.64782" lon="5.82119">
        <ele>1346.952271</ele>
        <time>2020-09-05T08:08:03Z</time>
      </trkpt>
      <trkpt lat="45.64822" lon="5.82129">
        <ele>1344.75</ele>
        <time>2020-09-05T08:08:19Z</time>
      </trkpt>
      <trkpt lat="45.6488" lon="5.82137">
        <ele>1345.072021</ele>
        <time>2020-09-05T08:08:31Z</time>
      </trkpt>
      <trkpt lat="45.64922" lon="5.8215">
        <ele>1343.922607</ele>
        <time>2020-09-05T08:08:42Z</time>
      </trkpt>
      <trkpt lat="45.64959" lon="5.82158">
        <ele>1344.698608</ele>
        <time>2020-09-05T08:08:49Z</time>
      </trkpt>
      <trkpt lat="45.64973" lon="5.82167">
        <ele>1342.835571</ele>
        <time>2020-09-05T08:08:52Z</time>
      </trkpt>
      <trkpt lat="45.64986" lon="5.82171">
        <ele>1342.734009</ele>
        <time>2020-09-05T08:08:55Z</time>
      </trkpt>
      <trkpt lat="45.65002" lon="5.82166">
        <ele>1345.765015</ele>
        <time>2020-09-05T08:09:01Z</time>
      </trkpt>
      <trkpt lat="45.6505" lon="5.82164">
        <ele>1351.853638</ele>
        <time>2020-09-05T08:09:20Z</time>
      </trkpt>
      <trkpt lat="45.65067" lon="5.82166">
        <ele>1353.535889</ele>
        <time>2020-09-05T08:09:27Z</time>
      </trkpt>
      <trkpt lat="45.65099" lon="5.82199">
        <ele>1346.315063</ele>
        <time>2020-09-05T08:09:38Z</time>
      </trkpt>
      <trkpt lat="45.65118" lon="5.8221">
        <ele>1344.787476</ele>
        <time>2020-09-05T08:09:42Z</time>
      </trkpt>
      <trkpt lat="45.65187" lon="5.82232">
        <ele>1344.227539</ele>
        <time>2020-09-05T08:10:04Z</time>
      </trkpt>
      <trkpt lat="45.65257" lon="5.82242">
        <ele>1347.517578</ele>
        <time>2020-09-05T08:10:28Z</time>
      </trkpt>
      <trkpt lat="45.65282" lon="5.82232">
        <ele>1353.08252</ele>
        <time>2020-09-05T08:10:41Z</time>
      </trkpt>
      <trkpt lat="45.65339" lon="5.82223">
        <ele>1360.974731</ele>
        <time>2020-09-05T08:11:10Z</time>
      </trkpt>
      <trkpt lat="45.65353" lon="5.82225">
        <ele>1361.151855</ele>
        <time>2020-09-05T08:11:17Z</time>
      </trkpt>
      <trkpt lat="45.65384" lon="5.82217">
        <ele>1366.445557</ele>
        <time>2020-09-05T08:11:29Z</time>
      </trkpt>
      <trkpt lat="45.65401" lon="5.82217">
        <ele>1367.704834</ele>
        <time>2020-09-05T08:11:35Z</time>
      </trkpt>
      <trkpt lat="45.65428" lon="5.82226">
        <ele>1368.253296</ele>
        <time>2020-09-05T08:11:44Z</time>
      </trkpt>
      <trkpt lat="45.65471" lon="5.82249">
        <ele>1367.568481</ele>
        <time>2020-09-05T08:11:59Z</time>
      </trkpt>
      <trkpt lat="45.65486" lon="5.82268">
        <ele>1363.859741</ele>
        <time>2020-09-05T08:12:05Z</time>
      </trkpt>
      <trkpt lat="45.65525" lon="5.82298">
        <ele>1358.875122</ele>
        <time>2020-09-05T08:12:16Z</time>
      </trkpt>
      <trkpt lat="45.65564" lon="5.82315">
        <ele>1357.874512</ele>
        <time>2020-09-05T08:12:23Z</time>
      </trkpt>
      <trkpt lat="45.65588" lon="5.8233">
        <ele>1355.379517</ele>
        <time>2020-09-05T08:12:28Z</time>
      </trkpt>
      <trkpt lat="45.65621" lon="5.82335">
        <ele>1356.91748</ele>
        <time>2020-09-05T08:12:36Z</time>
      </trkpt>
      <trkpt lat="45.65642" lon="5.82345">
        <ele>1356.287476</ele>
        <time>2020-09-05T08:12:42Z</time>
      </trkpt>
      <trkpt lat="45.6568" lon="5.82346">
        <ele>1359.796753</ele>
        <time>2020-09-05T08:12:55Z</time>
      </trkpt>
      <trkpt lat="45.65713" lon="5.82351">
        <ele>1360.986938</ele>
        <time>2020-09-05T08:13:07Z</time>
      </trkpt>
      <trkpt lat="45.65727" lon="5.82362">
        <ele>1358.673828</ele>
        <time>2020-09-05T08:13:11Z</time>
      </trkpt>
      <trkpt lat="45.6577" lon="5.82429">
        <ele>1343.027466</ele>
        <time>2020-09-05T08:13:25Z</time>
      </trkpt>
      <trkpt lat="45.65778" lon="5.8245">
        <ele>1337.451294</ele>
        <time>2020-09-05T08:13:29Z</time>
      </trkpt>
      <trkpt lat="45.65792" lon="5.82469">
        <ele>1333.209961</ele>
        <time>2020-09-05T08:13:34Z</time>
      </trkpt>
      <trkpt lat="45.658" lon="5.82475">
        <ele>1332.197632</ele>
        <time>2020-09-05T08:13:37Z</time>
      </trkpt>
      <trkpt lat="45.65822" lon="5.82474">
        <ele>1334.047974</ele>
        <time>2020-09-05T08:13:47Z</time>
      </trkpt>
      <trkpt lat="45.65862" lon="5.82458">
        <ele>1343.004395</ele>
        <time>2020-09-05T08:14:03Z</time>
      </trkpt>
      <trkpt lat="45.65881" lon="5.82458">
        <ele>1345.330566</ele>
        <time>2020-09-05T08:14:11Z</time>
      </trkpt>
      <trkpt lat="45.65907" lon="5.82465">
        <ele>1346.393555</ele>
        <time>2020-09-05T08:14:21Z</time>
      </trkpt>
      <trkpt lat="45.65984" lon="5.82453">
        <ele>1358.069092</ele>
        <time>2020-09-05T08:14:51Z</time>
      </trkpt>
      <trkpt lat="45.66001" lon="5.82443">
        <ele>1362.516357</ele>
        <time>2020-09-05T08:14:58Z</time>
      </trkpt>
      <trkpt lat="45.6604" lon="5.82439">
        <ele>1366.714966</ele>
        <time>2020-09-05T08:15:14Z</time>
      </trkpt>
      <trkpt lat="45.66062" lon="5.82432">
        <ele>1370.30249</ele>
        <time>2020-09-05T08:15:23Z</time>
      </trkpt>
      <trkpt lat="45.66094" lon="5.82439">
        <ele>1371.353027</ele>
        <time>2020-09-05T08:15:36Z</time>
      </trkpt>
      <trkpt lat="45.66114" lon="5.82438">
        <ele>1373.381958</ele>
        <time>2020-09-05T08:15:45Z</time>
      </trkpt>
      <trkpt lat="45.66132" lon="5.82427">
        <ele>1377.285034</ele>
        <time>2020-09-05T08:15:56Z</time>
      </trkpt>
      <trkpt lat="45.66153" lon="5.82429">
        <ele>1378.740234</ele>
        <time>2020-09-05T08:16:07Z</time>
      </trkpt>
      <trkpt lat="45.66203" lon="5.82421">
        <ele>1386.507446</ele>
        <time>2020-09-05T08:16:32Z</time>
      </trkpt>
      <trkpt lat="45.66252" lon="5.82437">
        <ele>1390.462036</ele>
        <time>2020-09-05T08:16:54Z</time>
      </trkpt>
      <trkpt lat="45.66277" lon="5.82448">
        <ele>1394.144531</ele>
        <time>2020-09-05T08:17:05Z</time>
      </trkpt>
      <trkpt lat="45.66305" lon="5.82473">
        <ele>1395.549927</ele>
        <time>2020-09-05T08:17:20Z</time>
      </trkpt>
      <trkpt lat="45.66335" lon="5.8251">
        <ele>1394.577759</ele>
        <time>2020-09-05T08:17:37Z</time>
      </trkpt>
      <trkpt lat="45.66388" lon="5.82545">
        <ele>1398.234131</ele>
        <time>2020-09-05T08:18:05Z</time>
      </trkpt>
      <trkpt lat="45.66423" lon="5.82554">
        <ele>1401.824585</ele>
        <time>2020-09-05T08:18:21Z</time>
      </trkpt>
      <trkpt lat="45.66476" lon="5.82556">
        <ele>1409.559204</ele>
        <time>2020-09-05T08:18:44Z</time>
      </trkpt>
      <trkpt lat="45.66489" lon="5.8256">
        <ele>1411.172119</ele>
        <time>2020-09-05T08:18:50Z</time>
      </trkpt>
      <trkpt lat="45.66566" lon="5.82598">
        <ele>1419.685669</ele>
        <time>2020-09-05T08:19:28Z</time>
      </trkpt>
      <trkpt lat="45.66593" lon="5.82615">
        <ele>1420.709961</ele>
        <time>2020-09-05T08:19:41Z</time>
      </trkpt>
      <trkpt lat="45.66615" lon="5.82621">
        <ele>1424.372314</ele>
        <time>2020-09-05T08:19:53Z</time>
      </trkpt>
      <trkpt lat="45.66618" lon="5.82615">
        <ele>1427.063232</ele>
        <time>2020-09-05T08:19:58Z</time>
      </trkpt>
      <trkpt lat="45.66616" lon="5.82604">
        <ele>1429.929199</ele>
        <time>2020-09-05T08:20:02Z</time>
      </trkpt>
      <trkpt lat="45.66609" lon="5.82594">
        <ele>1431.611206</ele>
        <time>2020-09-05T08:20:07Z</time>
      </trkpt>
      <trkpt lat="45.6658" lon="5.82582">
        <ele>1428.28125</ele>
        <time>2020-09-05T08:20:20Z</time>
      </trkpt>
      <trkpt lat="45.66563" lon="5.82569">
        <ele>1428.136597</ele>
        <time>2020-09-05T08:20:28Z</time>
      </trkpt>
      <trkpt lat="45.66549" lon="5.82549">
        <ele>1430.359741</ele>
        <time>2020-09-05T08:20:36Z</time>
      </trkpt>
      <trkpt lat="45.66543" lon="5.82536">
        <ele>1432.912109</ele>
        <time>2020-09-05T08:20:41Z</time>
      </trkpt>
      <trkpt lat="45.66504" lon="5.82486">
        <ele>1438.141235</ele>
        <time>2020-09-05T08:21:04Z</time>
      </trkpt>
      <trkpt lat="45.66475" lon="5.82427">
        <ele>1448.800537</ele>
        <time>2020-09-05T08:21:25Z</time>
      </trkpt>
      <trkpt lat="45.66436" lon="5.82406">
        <ele>1449.263306</ele>
        <time>2020-09-05T08:21:43Z</time>
      </trkpt>
      <trkpt lat="45.6642" lon="5.82394">
        <ele>1450.017456</ele>
        <time>2020-09-05T08:21:52Z</time>
      </trkpt>
      <trkpt lat="45.66408" lon="5.82377">
        <ele>1452.001099</ele>
        <time>2020-09-05T08:22:00Z</time>
      </trkpt>
      <trkpt lat="45.6639" lon="5.82335">
        <ele>1459.233643</ele>
        <time>2020-09-05T08:22:17Z</time>
      </trkpt>
      <trkpt lat="45.66319" lon="5.82269">
        <ele>1468.682739</ele>
        <time>2020-09-05T08:23:00Z</time>
      </trkpt>
      <trkpt lat="45.66303" lon="5.8226">
        <ele>1470.306274</ele>
        <time>2020-09-05T08:23:08Z</time>
      </trkpt>
      <trkpt lat="45.66287" lon="5.82255">
        <ele>1470.005127</ele>
        <time>2020-09-05T08:23:16Z</time>
      </trkpt>
      <trkpt lat="45.66256" lon="5.82239">
        <ele>1470.980713</ele>
        <time>2020-09-05T08:23:31Z</time>
      </trkpt>
      <trkpt lat="45.66227" lon="5.82218">
        <ele>1474.537842</ele>
        <time>2020-09-05T08:23:45Z</time>
      </trkpt>
      <trkpt lat="45.66169" lon="5.82189">
        <ele>1478.28125</ele>
        <time>2020-09-05T08:24:12Z</time>
      </trkpt>
      <trkpt lat="45.66136" lon="5.82177">
        <ele>1481.110107</ele>
        <time>2020-09-05T08:24:26Z</time>
      </trkpt>
      <trkpt lat="45.6612" lon="5.82175">
        <ele>1481.641846</ele>
        <time>2020-09-05T08:24:33Z</time>
      </trkpt>
      <trkpt lat="45.66099" lon="5.82167">
        <ele>1482.89563</ele>
        <time>2020-09-05T08:25:13Z</time>
      </trkpt>
      <trkpt lat="45.66096" lon="5.8216">
        <ele>1483.408569</ele>
        <time>2020-09-05T08:30:07Z</time>
      </trkpt>
      <trkpt lat="45.66073" lon="5.82145">
        <ele>1484.328369</ele>
        <time>2020-09-05T08:30:14Z</time>
      </trkpt>
      <trkpt lat="45.66038" lon="5.82109">
        <ele>1487.509399</ele>
        <time>2020-09-05T08:30:23Z</time>
      </trkpt>
      <trkpt lat="45.66017" lon="5.82077">
        <ele>1483.26001</ele>
        <time>2020-09-05T08:30:28Z</time>
      </trkpt>
      <trkpt lat="45.65995" lon="5.82059">
        <ele>1481.049927</ele>
        <time>2020-09-05T08:30:32Z</time>
      </trkpt>
      <trkpt lat="45.65975" lon="5.82059">
        <ele>1479.777222</ele>
        <time>2020-09-05T08:30:35Z</time>
      </trkpt>
      <trkpt lat="45.65954" lon="5.82072">
        <ele>1479.436035</ele>
        <time>2020-09-05T08:30:39Z</time>
      </trkpt>
      <trkpt lat="45.65931" lon="5.82092">
        <ele>1479.478516</ele>
        <time>2020-09-05T08:30:43Z</time>
      </trkpt>
      <trkpt lat="45.65915" lon="5.82113">
        <ele>1476.448975</ele>
        <time>2020-09-05T08:30:46Z</time>
      </trkpt>
      <trkpt lat="45.65902" lon="5.82122">
        <ele>1473.322754</ele>
        <time>2020-09-05T08:30:48Z</time>
      </trkpt>
      <trkpt lat="45.65882" lon="5.82121">
        <ele>1469.779053</ele>
        <time>2020-09-05T08:30:51Z</time>
      </trkpt>
      <trkpt lat="45.65871" lon="5.82119">
        <ele>1473.1</ele>
      </trkpt>
      <trkpt lat="45.65869" lon="5.82103">
        <ele>1471.1</ele>
        <time>2020-09-05T08:30:53Z</time>
      </trkpt>
      <trkpt lat="45.65855" lon="5.82111">
        <ele>1472.2</ele>
        <time>2020-09-05T08:30:55Z</time>
      </trkpt>
      <trkpt lat="45.65844" lon="5.82123">
        <ele>1462.405029</ele>
        <time>2020-09-05T08:30:59Z</time>
      </trkpt>
      <trkpt lat="45.65837" lon="5.82126">
        <ele>1472.5</ele>
      </trkpt>
      <trkpt lat="45.65832" lon="5.82121">
        <ele>1472.6</ele>
        <time>2020-09-05T08:32:52Z</time>
      </trkpt>
      <trkpt lat="45.65787" lon="5.82113">
        <ele>1474.9</ele>
        <time>2020-09-05T08:33:17Z</time>
      </trkpt>
      <trkpt lat="45.65725" lon="5.82073">
        <ele>1459.27832</ele>
        <time>2020-09-05T08:33:42Z</time>
      </trkpt>
      <trkpt lat="45.65679" lon="5.82044">
        <ele>1474.8</ele>
        <time>2020-09-05T08:33:49Z</time>
      </trkpt>
      <trkpt lat="45.65643" lon="5.82065">
        <ele>1473.2</ele>
        <time>2020-09-05T08:34:02Z</time>
      </trkpt>
      <trkpt lat="45.65633" lon="5.82065">
        <ele>1455.208008</ele>
        <time>2020-09-05T08:34:12Z</time>
      </trkpt>
      <trkpt lat="45.65619" lon="5.82064">
        <ele>1454.629517</ele>
        <time>2020-09-05T08:34:39Z</time>
      </trkpt>
      <trkpt lat="45.65604" lon="5.82057">
        <ele>1455.094971</ele>
        <time>2020-09-05T08:34:45Z</time>
      </trkpt>
      <trkpt lat="45.65601" lon="5.82059">
        <ele>1454.722412</ele>
        <time>2020-09-05T08:34:46Z</time>
      </trkpt>
      <trkpt lat="45.65561" lon="5.82042">
        <ele>1455.9552</ele>
        <time>2020-09-05T08:35:01Z</time>
      </trkpt>
      <trkpt lat="45.65534" lon="5.82036">
        <ele>1455.67334</ele>
        <time>2020-09-05T08:35:14Z</time>
      </trkpt>
      <trkpt lat="45.65527" lon="5.82022">
        <ele>1458.189575</ele>
        <time>2020-09-05T08:35:21Z</time>
      </trkpt>
      <trkpt lat="45.65491" lon="5.81991">
        <ele>1460.889893</ele>
        <time>2020-09-05T08:35:31Z</time>
      </trkpt>
      <trkpt lat="45.65458" lon="5.81987">
        <ele>1461.910889</ele>
        <time>2020-09-05T08:35:38Z</time>
      </trkpt>
      <trkpt lat="45.6545" lon="5.81996">
        <ele>1461.324341</ele>
        <time>2020-09-05T08:35:42Z</time>
      </trkpt>
      <trkpt lat="45.65439" lon="5.82001">
        <ele>1460.178345</ele>
        <time>2020-09-05T08:35:46Z</time>
      </trkpt>
      <trkpt lat="45.65422" lon="5.82004">
        <ele>1457.833252</ele>
        <time>2020-09-05T08:35:51Z</time>
      </trkpt>
      <trkpt lat="45.65416" lon="5.82">
        <ele>1458.63562</ele>
        <time>2020-09-05T08:35:54Z</time>
      </trkpt>
      <trkpt lat="45.65403" lon="5.81981">
        <ele>1463.8</ele>
      </trkpt>
      <trkpt lat="45.65401" lon="5.81967">
        <ele>1461.435303</ele>
        <time>2020-09-05T08:44:57Z</time>
      </trkpt>
      <trkpt lat="45.65402" lon="5.81958">
        <ele>1465.5</ele>
      </trkpt>
      <trkpt lat="45.65405" lon="5.81937">
        <ele>1467</ele>
      </trkpt>
      <trkpt lat="45.65421" lon="5.81933">
        <ele>1464.9</ele>
      </trkpt>
      <trkpt lat="45.65428" lon="5.81911">
        <ele>1467.1</ele>
        <time>2020-09-05T08:45:33Z</time>
      </trkpt>
      <trkpt lat="45.65433" lon="5.819">
        <ele>1466.8</ele>
      </trkpt>
      <trkpt lat="45.65435" lon="5.81883">
        <ele>1467.8</ele>
      </trkpt>
      <trkpt lat="45.65434" lon="5.81863">
        <ele>1469.6</ele>
        <time>2020-09-05T08:46:00Z</time>
      </trkpt>
      <trkpt lat="45.65429" lon="5.81851">
        <ele>1469.3</ele>
        <time>2020-09-05T08:46:04Z</time>
      </trkpt>
      <trkpt lat="45.65415" lon="5.81843">
        <ele>1469.7</ele>
        <time>2020-09-05T08:46:09Z</time>
      </trkpt>
      <trkpt lat="45.65393" lon="5.81854">
        <ele>1470.2</ele>
        <time>2020-09-05T08:46:16Z</time>
      </trkpt>
      <trkpt lat="45.65381" lon="5.81881">
        <ele>1469.6</ele>
        <time>2020-09-05T08:46:26Z</time>
      </trkpt>
      <trkpt lat="45.65373" lon="5.81888">
        <ele>1467.9</ele>
      </trkpt>
      <trkpt lat="45.65356" lon="5.81931">
        <ele>1464.371094</ele>
        <time>2020-09-05T08:46:37Z</time>
      </trkpt>
      <trkpt lat="45.65341" lon="5.81941">
        <ele>1462.087158</ele>
        <time>2020-09-05T08:46:40Z</time>
      </trkpt>
      <trkpt lat="45.65327" lon="5.81963">
        <ele>1457.591431</ele>
        <time>2020-09-05T08:46:44Z</time>
      </trkpt>
      <trkpt lat="45.65315" lon="5.81965">
        <ele>1456.398804</ele>
        <time>2020-09-05T08:46:46Z</time>
      </trkpt>
      <trkpt lat="45.65287" lon="5.8196">
        <ele>1456.025635</ele>
        <time>2020-09-05T08:46:51Z</time>
      </trkpt>
      <trkpt lat="45.65261" lon="5.81951">
        <ele>1456.127686</ele>
        <time>2020-09-05T08:46:58Z</time>
      </trkpt>
      <trkpt lat="45.65203" lon="5.81921">
        <ele>1460.019775</ele>
        <time>2020-09-05T08:47:19Z</time>
      </trkpt>
      <trkpt lat="45.6515" lon="5.81906">
        <ele>1458.518799</ele>
        <time>2020-09-05T08:47:30Z</time>
      </trkpt>
      <trkpt lat="45.65133" lon="5.81905">
        <ele>1457.53125</ele>
        <time>2020-09-05T08:47:33Z</time>
      </trkpt>
      <trkpt lat="45.65095" lon="5.81897">
        <ele>1455.49585</ele>
        <time>2020-09-05T08:47:38Z</time>
      </trkpt>
      <trkpt lat="45.65018" lon="5.8186">
        <ele>1451.36084</ele>
        <time>2020-09-05T08:47:47Z</time>
      </trkpt>
      <trkpt lat="45.64894" lon="5.81831">
        <ele>1458.0625</ele>
        <time>2020-09-05T08:48:28Z</time>
      </trkpt>
      <trkpt lat="45.64837" lon="5.81809">
        <ele>1463.556641</ele>
        <time>2020-09-05T08:48:51Z</time>
      </trkpt>
      <trkpt lat="45.64807" lon="5.81804">
        <ele>1476.8</ele>
        <time>2020-09-05T08:49:03Z</time>
      </trkpt>
      <trkpt lat="45.64796" lon="5.81802">
        <ele>1468.132324</ele>
        <time>2020-09-05T08:49:09Z</time>
      </trkpt>
      <trkpt lat="45.64776" lon="5.81787">
        <ele>1472.18335</ele>
        <time>2020-09-05T08:49:20Z</time>
      </trkpt>
      <trkpt lat="45.64742" lon="5.81767">
        <ele>1477.636597</ele>
        <time>2020-09-05T08:49:34Z</time>
      </trkpt>
      <trkpt lat="45.64689" lon="5.81766">
        <ele>1479.232666</ele>
        <time>2020-09-05T08:49:51Z</time>
      </trkpt>
      <trkpt lat="45.64645" lon="5.81758">
        <ele>1477.702271</ele>
        <time>2020-09-05T08:50:04Z</time>
      </trkpt>
      <trkpt lat="45.64603" lon="5.8176">
        <ele>1475.369995</ele>
        <time>2020-09-05T08:50:11Z</time>
      </trkpt>
      <trkpt lat="45.6453" lon="5.81742">
        <ele>1472.476563</ele>
        <time>2020-09-05T08:50:23Z</time>
      </trkpt>
      <trkpt lat="45.64459" lon="5.81737">
        <ele>1469.519287</ele>
        <time>2020-09-05T08:50:38Z</time>
      </trkpt>
      <trkpt lat="45.64445" lon="5.81732">
        <ele>1468.203979</ele>
        <time>2020-09-05T08:50:42Z</time>
      </trkpt>
      <trkpt lat="45.64419" lon="5.81729">
        <ele>1465.915405</ele>
        <time>2020-09-05T08:50:50Z</time>
      </trkpt>
      <trkpt lat="45.64338" lon="5.81738">
        <ele>1461.528198</ele>
        <time>2020-09-05T08:51:12Z</time>
      </trkpt>
      <trkpt lat="45.64307" lon="5.81746">
        <ele>1461.697876</ele>
        <time>2020-09-05T08:51:21Z</time>
      </trkpt>
      <trkpt lat="45.64261" lon="5.81747">
        <ele>1461.870361</ele>
        <time>2020-09-05T08:51:30Z</time>
      </trkpt>
      <trkpt lat="45.64182" lon="5.81772">
        <ele>1460.074951</ele>
        <time>2020-09-05T08:51:47Z</time>
      </trkpt>
      <trkpt lat="45.64082" lon="5.81767">
        <ele>1456.567993</ele>
        <time>2020-09-05T08:52:04Z</time>
      </trkpt>
      <trkpt lat="45.63917" lon="5.81773">
        <ele>1446.922119</ele>
        <time>2020-09-05T08:52:24Z</time>
      </trkpt>
      <trkpt lat="45.63899" lon="5.81778">
        <ele>1446.376587</ele>
        <time>2020-09-05T08:52:26Z</time>
      </trkpt>
      <trkpt lat="45.63852" lon="5.81807">
        <ele>1444.123047</ele>
        <time>2020-09-05T08:52:34Z</time>
      </trkpt>
      <trkpt lat="45.63831" lon="5.81807">
        <ele>1443.907471</ele>
        <time>2020-09-05T08:52:37Z</time>
      </trkpt>
      <trkpt lat="45.63731" lon="5.81789">
        <ele>1442.28125</ele>
        <time>2020-09-05T08:52:51Z</time>
      </trkpt>
      <trkpt lat="45.63701" lon="5.81786">
        <ele>1440.968384</ele>
        <time>2020-09-05T08:52:55Z</time>
      </trkpt>
      <trkpt lat="45.63611" lon="5.81759">
        <ele>1428.973999</ele>
        <time>2020-09-05T08:53:06Z</time>
      </trkpt>
      <trkpt lat="45.63565" lon="5.81761">
        <ele>1428.231812</ele>
        <time>2020-09-05T08:53:15Z</time>
      </trkpt>
      <trkpt lat="45.6352" lon="5.81756">
        <ele>1428.765503</ele>
        <time>2020-09-05T08:53:26Z</time>
      </trkpt>
      <trkpt lat="45.63458" lon="5.81756">
        <ele>1426.867065</ele>
        <time>2020-09-05T08:53:46Z</time>
      </trkpt>
      <trkpt lat="45.63409" lon="5.81764">
        <ele>1429.13623</ele>
        <time>2020-09-05T08:53:58Z</time>
      </trkpt>
      <trkpt lat="45.63365" lon="5.81784">
        <ele>1436.537842</ele>
        <time>2020-09-05T08:54:11Z</time>
      </trkpt>
      <trkpt lat="45.63327" lon="5.81807">
        <ele>1444.512207</ele>
        <time>2020-09-05T08:54:27Z</time>
      </trkpt>
      <trkpt lat="45.63292" lon="5.81808">
        <ele>1445.599243</ele>
        <time>2020-09-05T08:54:38Z</time>
      </trkpt>
      <trkpt lat="45.6327" lon="5.81813">
        <ele>1445.210205</ele>
        <time>2020-09-05T08:54:45Z</time>
      </trkpt>
      <trkpt lat="45.63253" lon="5.81814">
        <ele>1445.213257</ele>
        <time>2020-09-05T08:54:50Z</time>
      </trkpt>
      <trkpt lat="45.63176" lon="5.81833">
        <ele>1446.947998</ele>
        <time>2020-09-05T08:55:10Z</time>
      </trkpt>
      <trkpt lat="45.6313" lon="5.81829">
        <ele>1444.362427</ele>
        <time>2020-09-05T08:55:22Z</time>
      </trkpt>
      <trkpt lat="45.63112" lon="5.81832">
        <ele>1443.386475</ele>
        <time>2020-09-05T08:55:27Z</time>
      </trkpt>
      <trkpt lat="45.63092" lon="5.8183">
        <ele>1442.711914</ele>
        <time>2020-09-05T08:55:32Z</time>
      </trkpt>
      <trkpt lat="45.63068" lon="5.81821">
        <ele>1441.473755</ele>
        <time>2020-09-05T08:55:37Z</time>
      </trkpt>
      <trkpt lat="45.63042" lon="5.81816">
        <ele>1440.648682</ele>
        <time>2020-09-05T08:55:42Z</time>
      </trkpt>
      <trkpt lat="45.62982" lon="5.81826">
        <ele>1439.99585</ele>
        <time>2020-09-05T08:55:52Z</time>
      </trkpt>
      <trkpt lat="45.62937" lon="5.81824">
        <ele>1439.117188</ele>
        <time>2020-09-05T08:55:59Z</time>
      </trkpt>
      <trkpt lat="45.62867" lon="5.81811">
        <ele>1438.019287</ele>
        <time>2020-09-05T08:56:17Z</time>
      </trkpt>
      <trkpt lat="45.62852" lon="5.818">
        <ele>1438.15625</ele>
        <time>2020-09-05T08:56:23Z</time>
      </trkpt>
      <trkpt lat="45.62812" lon="5.8179">
        <ele>1438.524536</ele>
        <time>2020-09-05T08:56:36Z</time>
      </trkpt>
      <trkpt lat="45.62793" lon="5.81789">
        <ele>1438.684082</ele>
        <time>2020-09-05T08:56:41Z</time>
      </trkpt>
      <trkpt lat="45.62775" lon="5.81783">
        <ele>1440.050903</ele>
        <time>2020-09-05T08:56:46Z</time>
      </trkpt>
      <trkpt lat="45.62712" lon="5.8177">
        <ele>1441.146606</ele>
        <time>2020-09-05T08:57:03Z</time>
      </trkpt>
      <trkpt lat="45.62665" lon="5.81746">
        <ele>1437.991577</ele>
        <time>2020-09-05T08:57:14Z</time>
      </trkpt>
      <trkpt lat="45.6259" lon="5.81735">
        <ele>1431.546753</ele>
        <time>2020-09-05T08:57:29Z</time>
      </trkpt>
      <trkpt lat="45.62568" lon="5.81739">
        <ele>1429.422852</ele>
        <time>2020-09-05T08:57:32Z</time>
      </trkpt>
      <trkpt lat="45.62515" lon="5.81739">
        <ele>1428.607544</ele>
        <time>2020-09-05T08:57:41Z</time>
      </trkpt>
      <trkpt lat="45.62493" lon="5.81735">
        <ele>1429.7229</ele>
        <time>2020-09-05T08:57:47Z</time>
      </trkpt>
      <trkpt lat="45.6246" lon="5.8172">
        <ele>1434.912231</ele>
        <time>2020-09-05T08:57:57Z</time>
      </trkpt>
      <trkpt lat="45.6244" lon="5.81676">
        <ele>1444.526367</ele>
        <time>2020-09-05T08:58:13Z</time>
      </trkpt>
      <trkpt lat="45.62417" lon="5.8165">
        <ele>1443.770874</ele>
        <time>2020-09-05T08:58:27Z</time>
      </trkpt>
      <trkpt lat="45.62404" lon="5.81647">
        <ele>1444.264648</ele>
        <time>2020-09-05T08:58:33Z</time>
      </trkpt>
      <trkpt lat="45.62368" lon="5.81655">
        <ele>1444.037231</ele>
        <time>2020-09-05T08:58:51Z</time>
      </trkpt>
      <trkpt lat="45.62351" lon="5.81653">
        <ele>1443.92749</ele>
        <time>2020-09-05T08:58:58Z</time>
      </trkpt>
      <trkpt lat="45.62326" lon="5.81636">
        <ele>1444.984985</ele>
        <time>2020-09-05T08:59:09Z</time>
      </trkpt>
      <trkpt lat="45.62296" lon="5.81627">
        <ele>1445.601929</ele>
        <time>2020-09-05T08:59:21Z</time>
      </trkpt>
      <trkpt lat="45.62264" lon="5.81633">
        <ele>1445.633789</ele>
        <time>2020-09-05T08:59:33Z</time>
      </trkpt>
      <trkpt lat="45.62186" lon="5.81628">
        <ele>1446.303467</ele>
        <time>2020-09-05T08:59:59Z</time>
      </trkpt>
      <trkpt lat="45.62162" lon="5.81631">
        <ele>1447.133789</ele>
        <time>2020-09-05T09:00:07Z</time>
      </trkpt>
      <trkpt lat="45.62153" lon="5.81636">
        <ele>1447.615845</ele>
        <time>2020-09-05T09:00:11Z</time>
      </trkpt>
      <trkpt lat="45.62112" lon="5.81647">
        <ele>1447.920044</ele>
        <time>2020-09-05T09:00:22Z</time>
      </trkpt>
      <trkpt lat="45.62062" lon="5.81634">
        <ele>1445.735352</ele>
        <time>2020-09-05T09:00:29Z</time>
      </trkpt>
      <trkpt lat="45.62034" lon="5.81643">
        <ele>1445.415039</ele>
        <time>2020-09-05T09:00:33Z</time>
      </trkpt>
      <trkpt lat="45.61979" lon="5.81682">
        <ele>1444.253662</ele>
        <time>2020-09-05T09:00:48Z</time>
      </trkpt>
      <trkpt lat="45.61956" lon="5.81704">
        <ele>1444.167969</ele>
        <time>2020-09-05T09:00:55Z</time>
      </trkpt>
      <trkpt lat="45.61938" lon="5.81715">
        <ele>1444.566162</ele>
        <time>2020-09-05T09:01:02Z</time>
      </trkpt>
      <trkpt lat="45.61928" lon="5.81738">
        <ele>1442.671387</ele>
        <time>2020-09-05T09:01:21Z</time>
      </trkpt>
      <trkpt lat="45.61885" lon="5.81771">
        <ele>1454.9</ele>
      </trkpt>
      <trkpt lat="45.61858" lon="5.81746">
        <ele>1442.533325</ele>
        <time>2020-09-05T09:05:31Z</time>
      </trkpt>
      <trkpt lat="45.61844" lon="5.81708">
        <ele>1444.2</ele>
        <time>2020-09-05T09:05:39Z</time>
      </trkpt>
      <trkpt lat="45.61837" lon="5.81707">
        <ele>1437.841919</ele>
        <time>2020-09-05T09:05:41Z</time>
      </trkpt>
      <trkpt lat="45.61821" lon="5.81702">
        <ele>1441.1</ele>
        <time>2020-09-05T09:05:45Z</time>
      </trkpt>
      <trkpt lat="45.61779" lon="5.81708">
        <ele>1438.6</ele>
        <time>2020-09-05T09:05:52Z</time>
      </trkpt>
      <trkpt lat="45.61747" lon="5.81704">
        <ele>1434.841919</ele>
        <time>2020-09-05T09:05:58Z</time>
      </trkpt>
      <trkpt lat="45.61731" lon="5.81689">
        <ele>1432.442383</ele>
        <time>2020-09-05T09:06:03Z</time>
      </trkpt>
      <trkpt lat="45.6171" lon="5.81671">
        <ele>1434.2</ele>
      </trkpt>
      <trkpt lat="45.61694" lon="5.8167">
        <ele>1429.245361</ele>
        <time>2020-09-05T09:06:10Z</time>
      </trkpt>
      <trkpt lat="45.61662" lon="5.81643">
        <ele>1425.522949</ele>
        <time>2020-09-05T09:06:17Z</time>
      </trkpt>
      <trkpt lat="45.6162" lon="5.81633">
        <ele>1424.639038</ele>
        <time>2020-09-05T09:06:24Z</time>
      </trkpt>
      <trkpt lat="45.61574" lon="5.81612">
        <ele>1419.402954</ele>
        <time>2020-09-05T09:06:31Z</time>
      </trkpt>
      <trkpt lat="45.61543" lon="5.81603">
        <ele>1417.087158</ele>
        <time>2020-09-05T09:06:35Z</time>
      </trkpt>
      <trkpt lat="45.61522" lon="5.81587">
        <ele>1415.123901</ele>
        <time>2020-09-05T09:06:38Z</time>
      </trkpt>
      <trkpt lat="45.61483" lon="5.81543">
        <ele>1413.565674</ele>
        <time>2020-09-05T09:06:46Z</time>
      </trkpt>
      <trkpt lat="45.61453" lon="5.8154">
        <ele>1415.387695</ele>
        <time>2020-09-05T09:06:51Z</time>
      </trkpt>
      <trkpt lat="45.61439" lon="5.81533">
        <ele>1417.033203</ele>
        <time>2020-09-05T09:06:56Z</time>
      </trkpt>
      <trkpt lat="45.61431" lon="5.81524">
        <ele>1418.115723</ele>
        <time>2020-09-05T09:07:00Z</time>
      </trkpt>
      <trkpt lat="45.61417" lon="5.81499">
        <ele>1420.544189</ele>
        <time>2020-09-05T09:07:08Z</time>
      </trkpt>
      <trkpt lat="45.61383" lon="5.81491">
        <ele>1421.774658</ele>
        <time>2020-09-05T09:07:18Z</time>
      </trkpt>
      <trkpt lat="45.61368" lon="5.81494">
        <ele>1422.286499</ele>
        <time>2020-09-05T09:07:22Z</time>
      </trkpt>
      <trkpt lat="45.61347" lon="5.81493">
        <ele>1422.365845</ele>
        <time>2020-09-05T09:07:26Z</time>
      </trkpt>
      <trkpt lat="45.61337" lon="5.81482">
        <ele>1421.474976</ele>
        <time>2020-09-05T09:07:45Z</time>
      </trkpt>
      <trkpt lat="45.61332" lon="5.81466">
        <ele>1419.795044</ele>
        <time>2020-09-05T09:07:50Z</time>
      </trkpt>
      <trkpt lat="45.6134" lon="5.8143">
        <ele>1415.805054</ele>
        <time>2020-09-05T09:07:58Z</time>
      </trkpt>
      <trkpt lat="45.61337" lon="5.81417">
        <ele>1414.354492</ele>
        <time>2020-09-05T09:08:01Z</time>
      </trkpt>
      <trkpt lat="45.61342" lon="5.81398">
        <ele>1411.837524</ele>
        <time>2020-09-05T09:08:04Z</time>
      </trkpt>
      <trkpt lat="45.61369" lon="5.81362">
        <ele>1406.362793</ele>
        <time>2020-09-05T09:08:11Z</time>
      </trkpt>
      <trkpt lat="45.6138" lon="5.81359">
        <ele>1404.916382</ele>
        <time>2020-09-05T09:08:13Z</time>
      </trkpt>
      <trkpt lat="45.614" lon="5.81368">
        <ele>1403.098022</ele>
        <time>2020-09-05T09:08:16Z</time>
      </trkpt>
      <trkpt lat="45.61416" lon="5.81384">
        <ele>1403.306641</ele>
        <time>2020-09-05T09:08:19Z</time>
      </trkpt>
      <trkpt lat="45.61429" lon="5.81388">
        <ele>1401.316895</ele>
        <time>2020-09-05T09:08:22Z</time>
      </trkpt>
      <trkpt lat="45.61433" lon="5.81383">
        <ele>1399.259888</ele>
        <time>2020-09-05T09:08:25Z</time>
      </trkpt>
      <trkpt lat="45.61443" lon="5.81385">
        <ele>1401.6</ele>
        <time>2020-09-05T09:08:29Z</time>
      </trkpt>
      <trkpt lat="45.6141" lon="5.81303">
        <ele>1392.3</ele>
        <time>2020-09-05T09:08:35Z</time>
      </trkpt>
      <trkpt lat="45.61386" lon="5.8126">
        <ele>1386.238159</ele>
        <time>2020-09-05T09:08:42Z</time>
      </trkpt>
      <trkpt lat="45.61372" lon="5.81233">
        <ele>1383.37854</ele>
        <time>2020-09-05T09:08:45Z</time>
      </trkpt>
      <trkpt lat="45.61351" lon="5.81208">
        <ele>1378.2677</ele>
        <time>2020-09-05T09:08:48Z</time>
      </trkpt>
      <trkpt lat="45.61285" lon="5.81166">
        <ele>1371.920166</ele>
        <time>2020-09-05T09:08:54Z</time>
      </trkpt>
      <trkpt lat="45.61257" lon="5.81139">
        <ele>1365.618042</ele>
        <time>2020-09-05T09:08:57Z</time>
      </trkpt>
      <trkpt lat="45.61169" lon="5.81095">
        <ele>1355.26709</ele>
        <time>2020-09-05T09:09:05Z</time>
      </trkpt>
      <trkpt lat="45.61125" lon="5.81067">
        <ele>1350.883667</ele>
        <time>2020-09-05T09:09:09Z</time>
      </trkpt>
      <trkpt lat="45.61104" lon="5.81049">
        <ele>1348.574951</ele>
        <time>2020-09-05T09:09:11Z</time>
      </trkpt>
      <trkpt lat="45.61054" lon="5.80998">
        <ele>1340.422119</ele>
        <time>2020-09-05T09:09:16Z</time>
      </trkpt>
      <trkpt lat="45.61018" lon="5.80977">
        <ele>1337.80249</ele>
        <time>2020-09-05T09:09:19Z</time>
      </trkpt>
      <trkpt lat="45.60967" lon="5.80954">
        <ele>1333.284302</ele>
        <time>2020-09-05T09:09:23Z</time>
      </trkpt>
      <trkpt lat="45.60864" lon="5.8092">
        <ele>1318.462158</ele>
        <time>2020-09-05T09:09:31Z</time>
      </trkpt>
      <trkpt lat="45.60815" lon="5.80908">
        <ele>1310.448486</ele>
        <time>2020-09-05T09:09:35Z</time>
      </trkpt>
      <trkpt lat="45.60759" lon="5.80911">
        <ele>1308.229492</ele>
        <time>2020-09-05T09:09:41Z</time>
      </trkpt>
      <trkpt lat="45.60755" lon="5.80909">
        <ele>1307.196655</ele>
        <time>2020-09-05T09:09:42Z</time>
      </trkpt>
      <trkpt lat="45.60755" lon="5.80903">
        <ele>1305.44397</ele>
        <time>2020-09-05T09:09:45Z</time>
      </trkpt>
      <trkpt lat="45.60768" lon="5.80902">
        <ele>1306.141235</ele>
        <time>2020-09-05T09:09:50Z</time>
      </trkpt>
      <trkpt lat="45.60866" lon="5.80843">
        <ele>1293.542236</ele>
        <time>2020-09-05T09:10:04Z</time>
      </trkpt>
      <trkpt lat="45.60906" lon="5.80826">
        <ele>1288.519287</ele>
        <time>2020-09-05T09:10:09Z</time>
      </trkpt>
      <trkpt lat="45.60988" lon="5.80816">
        <ele>1276.647339</ele>
        <time>2020-09-05T09:10:16Z</time>
      </trkpt>
      <trkpt lat="45.61044" lon="5.80827">
        <ele>1270.859985</ele>
        <time>2020-09-05T09:10:20Z</time>
      </trkpt>
      <trkpt lat="45.61146" lon="5.80864">
        <ele>1266.190674</ele>
        <time>2020-09-05T09:10:29Z</time>
      </trkpt>
      <trkpt lat="45.61208" lon="5.80869">
        <ele>1258.6</ele>
        <time>2020-09-05T09:10:36Z</time>
      </trkpt>
      <trkpt lat="45.61265" lon="5.80869">
        <ele>1253.2</ele>
        <time>2020-09-05T09:10:40Z</time>
      </trkpt>
      <trkpt lat="45.61268" lon="5.80859">
        <ele>1248.9</ele>
      </trkpt>
      <trkpt lat="45.61259" lon="5.80851">
        <ele>1248.134766</ele>
        <time>2020-09-05T09:10:43Z</time>
      </trkpt>
      <trkpt lat="45.61254" lon="5.80845">
        <ele>1246.249146</ele>
        <time>2020-09-05T09:10:46Z</time>
      </trkpt>
      <trkpt lat="45.61205" lon="5.80831">
        <ele>1243.091919</ele>
        <time>2020-09-05T09:10:57Z</time>
      </trkpt>
      <trkpt lat="45.61168" lon="5.80812">
        <ele>1239.053833</ele>
        <time>2020-09-05T09:11:03Z</time>
      </trkpt>
      <trkpt lat="45.61063" lon="5.80725">
        <ele>1220.832642</ele>
        <time>2020-09-05T09:11:14Z</time>
      </trkpt>
      <trkpt lat="45.61011" lon="5.80689">
        <ele>1215.540161</ele>
        <time>2020-09-05T09:11:19Z</time>
      </trkpt>
      <trkpt lat="45.6098" lon="5.80679">
        <ele>1217.487427</ele>
        <time>2020-09-05T09:11:22Z</time>
      </trkpt>
      <trkpt lat="45.60971" lon="5.80672">
        <ele>1216.437988</ele>
        <time>2020-09-05T09:11:24Z</time>
      </trkpt>
      <trkpt lat="45.60977" lon="5.80664">
        <ele>1211.833862</ele>
        <time>2020-09-05T09:11:27Z</time>
      </trkpt>
      <trkpt lat="45.61056" lon="5.80682">
        <ele>1204.919067</ele>
        <time>2020-09-05T09:11:38Z</time>
      </trkpt>
      <trkpt lat="45.61278" lon="5.80681">
        <ele>1175.70813</ele>
        <time>2020-09-05T09:11:56Z</time>
      </trkpt>
      <trkpt lat="45.61315" lon="5.80692">
        <ele>1175.89502</ele>
        <time>2020-09-05T09:12:00Z</time>
      </trkpt>
      <trkpt lat="45.61328" lon="5.80688">
        <ele>1172.80249</ele>
        <time>2020-09-05T09:12:03Z</time>
      </trkpt>
      <trkpt lat="45.61324" lon="5.80676">
        <ele>1168.502441</ele>
        <time>2020-09-05T09:12:05Z</time>
      </trkpt>
      <trkpt lat="45.612" lon="5.80577">
        <ele>1149.41748</ele>
        <time>2020-09-05T09:12:20Z</time>
      </trkpt>
      <trkpt lat="45.61147" lon="5.80529">
        <ele>1142.20752</ele>
        <time>2020-09-05T09:12:25Z</time>
      </trkpt>
      <trkpt lat="45.61106" lon="5.80497">
        <ele>1137.221069</ele>
        <time>2020-09-05T09:12:29Z</time>
      </trkpt>
      <trkpt lat="45.611" lon="5.80464">
        <ele>1128.7</ele>
      </trkpt>
      <trkpt lat="45.61061" lon="5.80446">
        <ele>1123.9</ele>
        <time>2020-09-05T09:12:35Z</time>
      </trkpt>
      <trkpt lat="45.60977" lon="5.80435">
        <ele>1114.6</ele>
        <time>2020-09-05T09:12:45Z</time>
      </trkpt>
      <trkpt lat="45.60959" lon="5.80428">
        <ele>1113.4</ele>
        <time>2020-09-05T09:12:48Z</time>
      </trkpt>
      <trkpt lat="45.60955" lon="5.8042">
        <ele>1111.767456</ele>
        <time>2020-09-05T09:12:55Z</time>
      </trkpt>
      <trkpt lat="45.60941" lon="5.80413">
        <ele>1110.685669</ele>
        <time>2020-09-05T09:13:00Z</time>
      </trkpt>
      <trkpt lat="45.6094" lon="5.8041">
        <ele>1109.740234</ele>
        <time>2020-09-05T09:13:01Z</time>
      </trkpt>
      <trkpt lat="45.60943" lon="5.80407">
        <ele>1108.520874</ele>
        <time>2020-09-05T09:13:03Z</time>
      </trkpt>
      <trkpt lat="45.60953" lon="5.80409">
        <ele>1108.406372</ele>
        <time>2020-09-05T09:13:07Z</time>
      </trkpt>
      <trkpt lat="45.6098" lon="5.80408">
        <ele>1107.394165</ele>
        <time>2020-09-05T09:13:15Z</time>
      </trkpt>
      <trkpt lat="45.61023" lon="5.80384">
        <ele>1101.818726</ele>
        <time>2020-09-05T09:13:23Z</time>
      </trkpt>
      <trkpt lat="45.61047" lon="5.80364">
        <ele>1098.584961</ele>
        <time>2020-09-05T09:13:26Z</time>
      </trkpt>
      <trkpt lat="45.61082" lon="5.80326">
        <ele>1090.897461</ele>
        <time>2020-09-05T09:13:31Z</time>
      </trkpt>
      <trkpt lat="45.61091" lon="5.80322">
        <ele>1090.317505</ele>
        <time>2020-09-05T09:13:32Z</time>
      </trkpt>
      <trkpt lat="45.61126" lon="5.80325">
        <ele>1088.565063</ele>
        <time>2020-09-05T09:13:35Z</time>
      </trkpt>
      <trkpt lat="45.61161" lon="5.80335">
        <ele>1086.846436</ele>
        <time>2020-09-05T09:13:38Z</time>
      </trkpt>
      <trkpt lat="45.61212" lon="5.80353">
        <ele>1084.337891</ele>
        <time>2020-09-05T09:13:42Z</time>
      </trkpt>
      <trkpt lat="45.61227" lon="5.80354">
        <ele>1082.320679</ele>
        <time>2020-09-05T09:13:43Z</time>
      </trkpt>
      <trkpt lat="45.61254" lon="5.80347">
        <ele>1077.90686</ele>
        <time>2020-09-05T09:13:45Z</time>
      </trkpt>
      <trkpt lat="45.61291" lon="5.80323">
        <ele>1070.780029</ele>
        <time>2020-09-05T09:13:48Z</time>
      </trkpt>
      <trkpt lat="45.6133" lon="5.8031">
        <ele>1066.887573</ele>
        <time>2020-09-05T09:13:51Z</time>
      </trkpt>
      <trkpt lat="45.61406" lon="5.80326">
        <ele>1060.124512</ele>
        <time>2020-09-05T09:14:00Z</time>
      </trkpt>
      <trkpt lat="45.61407" lon="5.80322">
        <ele>1059.528687</ele>
        <time>2020-09-05T09:14:04Z</time>
      </trkpt>
      <trkpt lat="45.61388" lon="5.80299">
        <ele>1059.450317</ele>
        <time>2020-09-05T09:14:36Z</time>
      </trkpt>
      <trkpt lat="45.61383" lon="5.8028">
        <ele>1057.619629</ele>
        <time>2020-09-05T09:15:07Z</time>
      </trkpt>
      <trkpt lat="45.61376" lon="5.80269">
        <ele>1056.838379</ele>
        <time>2020-09-05T09:15:11Z</time>
      </trkpt>
      <trkpt lat="45.61323" lon="5.80235">
        <ele>1054.994385</ele>
        <time>2020-09-05T09:15:21Z</time>
      </trkpt>
      <trkpt lat="45.61321" lon="5.80227">
        <ele>1053.653687</ele>
        <time>2020-09-05T09:15:22Z</time>
      </trkpt>
      <trkpt lat="45.61326" lon="5.80215">
        <ele>1051.260986</ele>
        <time>2020-09-05T09:15:24Z</time>
      </trkpt>
      <trkpt lat="45.61355" lon="5.80216">
        <ele>1050.691406</ele>
        <time>2020-09-05T09:15:29Z</time>
      </trkpt>
      <trkpt lat="45.61386" lon="5.80201">
        <ele>1047.881348</ele>
        <time>2020-09-05T09:15:33Z</time>
      </trkpt>
      <trkpt lat="45.61404" lon="5.80188">
        <ele>1045.662964</ele>
        <time>2020-09-05T09:15:36Z</time>
      </trkpt>
      <trkpt lat="45.61404" lon="5.80169">
        <ele>1043.31189</ele>
        <time>2020-09-05T09:15:39Z</time>
      </trkpt>
      <trkpt lat="45.61368" lon="5.80132">
        <ele>1038.446289</ele>
        <time>2020-09-05T09:15:45Z</time>
      </trkpt>
      <trkpt lat="45.61291" lon="5.80125">
        <ele>1033.22876</ele>
        <time>2020-09-05T09:15:53Z</time>
      </trkpt>
      <trkpt lat="45.61266" lon="5.80117">
        <ele>1032.859253</ele>
        <time>2020-09-05T09:15:56Z</time>
      </trkpt>
      <trkpt lat="45.61245" lon="5.80089">
        <ele>1027.607666</ele>
        <time>2020-09-05T09:15:59Z</time>
      </trkpt>
      <trkpt lat="45.61223" lon="5.80039">
        <ele>1020.308777</ele>
        <time>2020-09-05T09:16:03Z</time>
      </trkpt>
      <trkpt lat="45.61193" lon="5.7999">
        <ele>1015.316895</ele>
        <time>2020-09-05T09:16:07Z</time>
      </trkpt>
      <trkpt lat="45.61171" lon="5.79943">
        <ele>1008.089844</ele>
        <time>2020-09-05T09:16:11Z</time>
      </trkpt>
      <trkpt lat="45.61151" lon="5.79924">
        <ele>1004.012085</ele>
        <time>2020-09-05T09:16:15Z</time>
      </trkpt>
      <trkpt lat="45.61151" lon="5.79914">
        <ele>1002.131409</ele>
        <time>2020-09-05T09:16:17Z</time>
      </trkpt>
      <trkpt lat="45.61165" lon="5.79899">
        <ele>1000.043274</ele>
        <time>2020-09-05T09:16:20Z</time>
      </trkpt>
      <trkpt lat="45.61179" lon="5.79875">
        <ele>996.789368</ele>
        <time>2020-09-05T09:16:23Z</time>
      </trkpt>
      <trkpt lat="45.61198" lon="5.79863">
        <ele>995.010986</ele>
        <time>2020-09-05T09:16:26Z</time>
      </trkpt>
      <trkpt lat="45.61222" lon="5.79872">
        <ele>995.364258</ele>
        <time>2020-09-05T09:16:29Z</time>
      </trkpt>
      <trkpt lat="45.61252" lon="5.79878">
        <ele>994.554993</ele>
        <time>2020-09-05T09:16:32Z</time>
      </trkpt>
      <trkpt lat="45.6128" lon="5.79876">
        <ele>992.679321</ele>
        <time>2020-09-05T09:16:35Z</time>
      </trkpt>
      <trkpt lat="45.6131" lon="5.79857">
        <ele>987.276062</ele>
        <time>2020-09-05T09:16:39Z</time>
      </trkpt>
      <trkpt lat="45.61347" lon="5.79853">
        <ele>984.679993</ele>
        <time>2020-09-05T09:16:44Z</time>
      </trkpt>
      <trkpt lat="45.61367" lon="5.7986">
        <ele>985.450012</ele>
        <time>2020-09-05T09:16:47Z</time>
      </trkpt>
      <trkpt lat="45.61385" lon="5.79878">
        <ele>988.621826</ele>
        <time>2020-09-05T09:16:50Z</time>
      </trkpt>
      <trkpt lat="45.61394" lon="5.79893">
        <ele>991.713074</ele>
        <time>2020-09-05T09:16:55Z</time>
      </trkpt>
      <trkpt lat="45.61421" lon="5.79915">
        <ele>995.568298</ele>
        <time>2020-09-05T09:17:41Z</time>
      </trkpt>
      <trkpt lat="45.61452" lon="5.79888">
        <ele>985.644043</ele>
        <time>2020-09-05T09:17:48Z</time>
      </trkpt>
      <trkpt lat="45.61474" lon="5.79889">
        <ele>982.307617</ele>
        <time>2020-09-05T09:17:52Z</time>
      </trkpt>
      <trkpt lat="45.61494" lon="5.799">
        <ele>980.612488</ele>
        <time>2020-09-05T09:17:56Z</time>
      </trkpt>
      <trkpt lat="45.61518" lon="5.79924">
        <ele>980.123718</ele>
        <time>2020-09-05T09:18:01Z</time>
      </trkpt>
      <trkpt lat="45.6155" lon="5.79963">
        <ele>978.818726</ele>
        <time>2020-09-05T09:18:07Z</time>
      </trkpt>
      <trkpt lat="45.61562" lon="5.79973">
        <ele>976.81604</ele>
        <time>2020-09-05T09:18:09Z</time>
      </trkpt>
      <trkpt lat="45.61573" lon="5.80004">
        <ele>979.181519</ele>
        <time>2020-09-05T09:18:14Z</time>
      </trkpt>
      <trkpt lat="45.61573" lon="5.79998">
        <ele>977.774719</ele>
        <time>2020-09-05T09:18:30Z</time>
      </trkpt>
      <trkpt lat="45.6158" lon="5.79996">
        <ele>974.827454</ele>
        <time>2020-09-05T09:18:47Z</time>
      </trkpt>
      <trkpt lat="45.61581" lon="5.79984">
        <ele>971.606812</ele>
        <time>2020-09-05T09:18:55Z</time>
      </trkpt>
      <trkpt lat="45.61561" lon="5.799">
        <ele>958.745056</ele>
        <time>2020-09-05T09:19:05Z</time>
      </trkpt>
      <trkpt lat="45.61551" lon="5.79874">
        <ele>955.286255</ele>
        <time>2020-09-05T09:19:08Z</time>
      </trkpt>
      <trkpt lat="45.61543" lon="5.79863">
        <ele>955.05127</ele>
        <time>2020-09-05T09:19:11Z</time>
      </trkpt>
      <trkpt lat="45.61533" lon="5.79834">
        <ele>950.15625</ele>
        <time>2020-09-05T09:19:19Z</time>
      </trkpt>
      <trkpt lat="45.61532" lon="5.79796">
        <ele>939.434814</ele>
        <time>2020-09-05T09:19:26Z</time>
      </trkpt>
      <trkpt lat="45.61523" lon="5.79779">
        <ele>936.810486</ele>
        <time>2020-09-05T09:19:32Z</time>
      </trkpt>
      <trkpt lat="45.61521" lon="5.79767">
        <ele>933.772766</ele>
        <time>2020-09-05T09:19:38Z</time>
      </trkpt>
      <trkpt lat="45.61511" lon="5.79747">
        <ele>929.441284</ele>
        <time>2020-09-05T09:19:42Z</time>
      </trkpt>
      <trkpt lat="45.61485" lon="5.7971">
        <ele>919.161011</ele>
        <time>2020-09-05T09:19:50Z</time>
      </trkpt>
      <trkpt lat="45.61474" lon="5.79702">
        <ele>917.002563</ele>
        <time>2020-09-05T09:19:54Z</time>
      </trkpt>
      <trkpt lat="45.61448" lon="5.79662">
        <ele>904.639893</ele>
        <time>2020-09-05T09:20:01Z</time>
      </trkpt>
      <trkpt lat="45.61443" lon="5.79649">
        <ele>900.416077</ele>
        <time>2020-09-05T09:20:03Z</time>
      </trkpt>
      <trkpt lat="45.61427" lon="5.79632">
        <ele>895.13623</ele>
        <time>2020-09-05T09:20:07Z</time>
      </trkpt>
      <trkpt lat="45.614" lon="5.79609">
        <ele>889.506592</ele>
        <time>2020-09-05T09:20:12Z</time>
      </trkpt>
      <trkpt lat="45.6138" lon="5.79599">
        <ele>888.216248</ele>
        <time>2020-09-05T09:20:15Z</time>
      </trkpt>
      <trkpt lat="45.61326" lon="5.79558">
        <ele>880.578674</ele>
        <time>2020-09-05T09:20:22Z</time>
      </trkpt>
      <trkpt lat="45.61309" lon="5.79551">
        <ele>878.94043</ele>
        <time>2020-09-05T09:20:24Z</time>
      </trkpt>
      <trkpt lat="45.61282" lon="5.79554">
        <ele>882.442627</ele>
        <time>2020-09-05T09:20:28Z</time>
      </trkpt>
      <trkpt lat="45.61275" lon="5.7955">
        <ele>881.860107</ele>
        <time>2020-09-05T09:20:29Z</time>
      </trkpt>
      <trkpt lat="45.61237" lon="5.79509">
        <ele>870.89856</ele>
        <time>2020-09-05T09:20:36Z</time>
      </trkpt>
      <trkpt lat="45.61225" lon="5.79488">
        <ele>864.40509</ele>
        <time>2020-09-05T09:20:39Z</time>
      </trkpt>
      <trkpt lat="45.61223" lon="5.79471">
        <ele>859.841125</ele>
        <time>2020-09-05T09:20:42Z</time>
      </trkpt>
      <trkpt lat="45.61191" lon="5.7944">
        <ele>854.813171</ele>
        <time>2020-09-05T09:20:49Z</time>
      </trkpt>
      <trkpt lat="45.61166" lon="5.79386">
        <ele>847.344727</ele>
        <time>2020-09-05T09:20:55Z</time>
      </trkpt>
      <trkpt lat="45.61155" lon="5.79353">
        <ele>840.494385</ele>
        <time>2020-09-05T09:20:58Z</time>
      </trkpt>
      <trkpt lat="45.6115" lon="5.79322">
        <ele>838.438904</ele>
        <time>2020-09-05T09:21:00Z</time>
      </trkpt>
      <trkpt lat="45.6115" lon="5.79254">
        <ele>831.9</ele>
      </trkpt>
      <trkpt lat="45.61157" lon="5.7918">
        <ele>829.8</ele>
        <time>2020-09-05T09:21:27Z</time>
      </trkpt>
      <trkpt lat="45.61149" lon="5.79098">
        <ele>822.2</ele>
        <time>2020-09-05T09:21:34Z</time>
      </trkpt>
      <trkpt lat="45.61146" lon="5.79065">
        <ele>824.323181</ele>
        <time>2020-09-05T09:21:37Z</time>
      </trkpt>
      <trkpt lat="45.61136" lon="5.78975">
        <ele>804.8</ele>
        <time>2020-09-05T09:21:45Z</time>
      </trkpt>
      <trkpt lat="45.61127" lon="5.78937">
        <ele>805.216003</ele>
        <time>2020-09-05T09:21:50Z</time>
      </trkpt>
      <trkpt lat="45.61106" lon="5.78916">
        <ele>799.576233</ele>
        <time>2020-09-05T09:21:53Z</time>
      </trkpt>
      <trkpt lat="45.61083" lon="5.7886">
        <ele>789.20752</ele>
        <time>2020-09-05T09:22:00Z</time>
      </trkpt>
      <trkpt lat="45.61061" lon="5.78832">
        <ele>777.96051</ele>
        <time>2020-09-05T09:22:05Z</time>
      </trkpt>
      <trkpt lat="45.61054" lon="5.78785">
        <ele>767.202087</ele>
        <time>2020-09-05T09:22:10Z</time>
      </trkpt>
      <trkpt lat="45.61041" lon="5.78709">
        <ele>758.8</ele>
        <time>2020-09-05T09:22:16Z</time>
      </trkpt>
      <trkpt lat="45.61045" lon="5.78604">
        <ele>742.6</ele>
      </trkpt>
      <trkpt lat="45.61065" lon="5.78423">
        <ele>704.01001</ele>
        <time>2020-09-05T09:22:59Z</time>
      </trkpt>
      <trkpt lat="45.61071" lon="5.78403">
        <ele>700.472473</ele>
        <time>2020-09-05T09:23:01Z</time>
      </trkpt>
      <trkpt lat="45.61074" lon="5.7838">
        <ele>696.504089</ele>
        <time>2020-09-05T09:23:03Z</time>
      </trkpt>
      <trkpt lat="45.61083" lon="5.78353">
        <ele>693.156921</ele>
        <time>2020-09-05T09:23:06Z</time>
      </trkpt>
      <trkpt lat="45.61109" lon="5.78324">
        <ele>690.380371</ele>
        <time>2020-09-05T09:23:11Z</time>
      </trkpt>
      <trkpt lat="45.61115" lon="5.78312">
        <ele>689.188477</ele>
        <time>2020-09-05T09:23:16Z</time>
      </trkpt>
      <trkpt lat="45.61117" lon="5.78276">
        <ele>684.874329</ele>
        <time>2020-09-05T09:23:59Z</time>
      </trkpt>
      <trkpt lat="45.61112" lon="5.7827">
        <ele>683.756836</ele>
        <time>2020-09-05T09:24:00Z</time>
      </trkpt>
      <trkpt lat="45.61103" lon="5.7824">
        <ele>679.321411</ele>
        <time>2020-09-05T09:24:03Z</time>
      </trkpt>
      <trkpt lat="45.61102" lon="5.78208">
        <ele>675.09845</ele>
        <time>2020-09-05T09:24:06Z</time>
      </trkpt>
      <trkpt lat="45.61107" lon="5.782">
        <ele>676.3</ele>
        <time>2020-09-05T09:24:10Z</time>
      </trkpt>
      <trkpt lat="45.6111" lon="5.7818">
        <ele>674.4</ele>
      </trkpt>
      <trkpt lat="45.61115" lon="5.78139">
        <ele>668.242493</ele>
        <time>2020-09-05T09:24:16Z</time>
      </trkpt>
      <trkpt lat="45.6112" lon="5.78113">
        <ele>666.789307</ele>
        <time>2020-09-05T09:24:19Z</time>
      </trkpt>
      <trkpt lat="45.6111" lon="5.78017">
        <ele>659.150208</ele>
        <time>2020-09-05T09:24:30Z</time>
      </trkpt>
      <trkpt lat="45.61101" lon="5.77967">
        <ele>656.375854</ele>
        <time>2020-09-05T09:24:37Z</time>
      </trkpt>
      <trkpt lat="45.6108" lon="5.77891">
        <ele>651.1</ele>
        <time>2020-09-05T09:24:44Z</time>
      </trkpt>
      <trkpt lat="45.61046" lon="5.77815">
        <ele>649.1</ele>
        <time>2020-09-05T09:24:54Z</time>
      </trkpt>
      <trkpt lat="45.61038" lon="5.77778">
        <ele>649.440002</ele>
        <time>2020-09-05T09:25:16Z</time>
      </trkpt>
      <trkpt lat="45.61033" lon="5.77735">
        <ele>647.5625</ele>
        <time>2020-09-05T09:25:21Z</time>
      </trkpt>
      <trkpt lat="45.61024" lon="5.77691">
        <ele>645.962524</ele>
        <time>2020-09-05T09:26:23Z</time>
      </trkpt>
      <trkpt lat="45.61008" lon="5.77648">
        <ele>643.625244</ele>
        <time>2020-09-05T09:26:35Z</time>
      </trkpt>
      <trkpt lat="45.60984" lon="5.77597">
        <ele>640.719177</ele>
        <time>2020-09-05T09:26:47Z</time>
      </trkpt>
      <trkpt lat="45.60972" lon="5.7758">
        <ele>639.276978</ele>
        <time>2020-09-05T09:26:52Z</time>
      </trkpt>
      <trkpt lat="45.60963" lon="5.77562">
        <ele>637.59967</ele>
        <time>2020-09-05T09:27:04Z</time>
      </trkpt>
      <trkpt lat="45.60956" lon="5.77538">
        <ele>637.066406</ele>
        <time>2020-09-05T09:28:55Z</time>
      </trkpt>
      <trkpt lat="45.60937" lon="5.77522">
        <ele>637.705017</ele>
        <time>2020-09-05T09:29:11Z</time>
      </trkpt>
      <trkpt lat="45.60918" lon="5.77514">
        <ele>637.793762</ele>
        <time>2020-09-05T09:29:16Z</time>
      </trkpt>
      <trkpt lat="45.60843" lon="5.77504">
        <ele>632.029297</ele>
        <time>2020-09-05T09:29:30Z</time>
      </trkpt>
      <trkpt lat="45.60798" lon="5.77483">
        <ele>627.549988</ele>
        <time>2020-09-05T09:29:39Z</time>
      </trkpt>
      <trkpt lat="45.6075" lon="5.77467">
        <ele>616.695251</ele>
        <time>2020-09-05T09:30:11Z</time>
      </trkpt>
      <trkpt lat="45.60751" lon="5.77469">
        <ele>616.834351</ele>
        <time>2020-09-05T09:30:29Z</time>
      </trkpt>
      <trkpt lat="45.6074" lon="5.77461">
        <ele>614.076477</ele>
        <time>2020-09-05T09:30:59Z</time>
      </trkpt>
      <trkpt lat="45.6072" lon="5.7743">
        <ele>607.969482</ele>
        <time>2020-09-05T09:31:06Z</time>
      </trkpt>
      <trkpt lat="45.60716" lon="5.77407">
        <ele>607.279663</ele>
        <time>2020-09-05T09:31:10Z</time>
      </trkpt>
      <trkpt lat="45.60717" lon="5.77365">
        <ele>606.9646</ele>
        <time>2020-09-05T09:31:15Z</time>
      </trkpt>
      <trkpt lat="45.60713" lon="5.77307">
        <ele>602.703369</ele>
        <time>2020-09-05T09:31:23Z</time>
      </trkpt>
      <trkpt lat="45.60709" lon="5.77276">
        <ele>599.726318</ele>
        <time>2020-09-05T09:31:27Z</time>
      </trkpt>
      <trkpt lat="45.60704" lon="5.77257">
        <ele>597.397034</ele>
        <time>2020-09-05T09:31:31Z</time>
      </trkpt>
      <trkpt lat="45.60673" lon="5.77206">
        <ele>586.86438</ele>
        <time>2020-09-05T09:33:04Z</time>
      </trkpt>
      <trkpt lat="45.6066" lon="5.77185">
        <ele>582.569336</ele>
        <time>2020-09-05T09:33:40Z</time>
      </trkpt>
      <trkpt lat="45.60638" lon="5.77092">
        <ele>575.312134</ele>
        <time>2020-09-05T09:34:02Z</time>
      </trkpt>
      <trkpt lat="45.60628" lon="5.77077">
        <ele>571.992981</ele>
        <time>2020-09-05T09:34:18Z</time>
      </trkpt>
      <trkpt lat="45.6063" lon="5.77076">
        <ele>572.670959</ele>
        <time>2020-09-05T09:34:32Z</time>
      </trkpt>
      <trkpt lat="45.6062" lon="5.77043">
        <ele>568.163879</ele>
        <time>2020-09-05T09:35:01Z</time>
      </trkpt>
      <trkpt lat="45.60589" lon="5.76956">
        <ele>556.3</ele>
        <time>2020-09-05T09:35:17Z</time>
      </trkpt>
      <trkpt lat="45.60578" lon="5.76982">
        <ele>558.428589</ele>
        <time>2020-09-05T09:35:30Z</time>
      </trkpt>
      <trkpt lat="45.60574" lon="5.76981">
        <ele>557.751831</ele>
        <time>2020-09-05T09:35:32Z</time>
      </trkpt>
      <trkpt lat="45.60534" lon="5.77013">
        <ele>548.679993</ele>
        <time>2020-09-05T09:35:39Z</time>
      </trkpt>
      <trkpt lat="45.60521" lon="5.77008">
        <ele>542</ele>
        <time>2020-09-05T09:35:42Z</time>
      </trkpt>
      <trkpt lat="45.60496" lon="5.76991">
        <ele>538.4</ele>
      </trkpt>
      <trkpt lat="45.6045" lon="5.76981">
        <ele>536.944641</ele>
        <time>2020-09-05T09:35:52Z</time>
      </trkpt>
      <trkpt lat="45.60408" lon="5.76965">
        <ele>527.6</ele>
      </trkpt>
      <trkpt lat="45.60354" lon="5.7695">
        <ele>527.63208</ele>
        <time>2020-09-05T09:36:02Z</time>
      </trkpt>
      <trkpt lat="45.6031" lon="5.76961">
        <ele>522.742493</ele>
        <time>2020-09-05T09:36:08Z</time>
      </trkpt>
      <trkpt lat="45.6027" lon="5.76987">
        <ele>515.372498</ele>
        <time>2020-09-05T09:36:14Z</time>
      </trkpt>
      <trkpt lat="45.60245" lon="5.77001">
        <ele>510.154877</ele>
        <time>2020-09-05T09:36:18Z</time>
      </trkpt>
      <trkpt lat="45.60206" lon="5.77011">
        <ele>503.306335</ele>
        <time>2020-09-05T09:36:25Z</time>
      </trkpt>
      <trkpt lat="45.60182" lon="5.77023">
        <ele>499.046112</ele>
        <time>2020-09-05T09:36:29Z</time>
      </trkpt>
      <trkpt lat="45.60145" lon="5.77024">
        <ele>492.1875</ele>
        <time>2020-09-05T09:36:36Z</time>
      </trkpt>
      <trkpt lat="45.6006" lon="5.77012">
        <ele>480.26001</ele>
        <time>2020-09-05T09:37:13Z</time>
      </trkpt>
      <trkpt lat="45.60029" lon="5.77004">
        <ele>477.480011</ele>
        <time>2020-09-05T09:37:19Z</time>
      </trkpt>
      <trkpt lat="45.60027" lon="5.77006">
        <ele>477.329987</ele>
        <time>2020-09-05T09:37:21Z</time>
      </trkpt>
      <trkpt lat="45.60028" lon="5.77031">
        <ele>477.450012</ele>
        <time>2020-09-05T09:37:54Z</time>
      </trkpt>
      <trkpt lat="45.60042" lon="5.77118">
        <ele>476.332275</ele>
        <time>2020-09-05T09:38:07Z</time>
      </trkpt>
      <trkpt lat="45.60043" lon="5.77169">
        <ele>473.844421</ele>
        <time>2020-09-05T09:38:13Z</time>
      </trkpt>
      <trkpt lat="45.60051" lon="5.77203">
        <ele>473.647491</ele>
        <time>2020-09-05T09:38:17Z</time>
      </trkpt>
      <trkpt lat="45.60068" lon="5.77254">
        <ele>473.821259</ele>
        <time>2020-09-05T09:38:24Z</time>
      </trkpt>
      <trkpt lat="45.60084" lon="5.77291">
        <ele>474.186249</ele>
        <time>2020-09-05T09:38:30Z</time>
      </trkpt>
      <trkpt lat="45.60096" lon="5.77303">
        <ele>475.374268</ele>
        <time>2020-09-05T09:38:33Z</time>
      </trkpt>
      <trkpt lat="45.60112" lon="5.77359">
        <ele>474.323273</ele>
        <time>2020-09-05T09:38:41Z</time>
      </trkpt>
      <trkpt lat="45.60125" lon="5.77388">
        <ele>475.069794</ele>
        <time>2020-09-05T09:38:46Z</time>
      </trkpt>
      <trkpt lat="45.6012" lon="5.774">
        <ele>473.615662</ele>
        <time>2020-09-05T09:38:48Z</time>
      </trkpt>
      <trkpt lat="45.60102" lon="5.7741">
        <ele>470.818024</ele>
        <time>2020-09-05T09:38:51Z</time>
      </trkpt>
      <trkpt lat="45.60087" lon="5.77403">
        <ele>470.02829</ele>
        <time>2020-09-05T09:38:53Z</time>
      </trkpt>
      <trkpt lat="45.60042" lon="5.77361">
        <ele>465.025574</ele>
        <time>2020-09-05T09:38:59Z</time>
      </trkpt>
      <trkpt lat="45.59901" lon="5.77257">
        <ele>453.873291</ele>
        <time>2020-09-05T09:39:14Z</time>
      </trkpt>
      <trkpt lat="45.59879" lon="5.77252">
        <ele>451.542511</ele>
        <time>2020-09-05T09:39:16Z</time>
      </trkpt>
      <trkpt lat="45.5985" lon="5.77257">
        <ele>450.318359</ele>
        <time>2020-09-05T09:39:19Z</time>
      </trkpt>
      <trkpt lat="45.59663" lon="5.77339">
        <ele>445.38501</ele>
        <time>2020-09-05T09:39:44Z</time>
      </trkpt>
      <trkpt lat="45.59659" lon="5.77343">
        <ele>445.311371</ele>
        <time>2020-09-05T09:39:47Z</time>
      </trkpt>
      <trkpt lat="45.59663" lon="5.77437">
        <ele>447.539917</ele>
        <time>2020-09-05T09:40:06Z</time>
      </trkpt>
      <trkpt lat="45.59681" lon="5.77532">
        <ele>451.210938</ele>
        <time>2020-09-05T09:40:33Z</time>
      </trkpt>
      <trkpt lat="45.59647" lon="5.77587">
        <ele>449.988037</ele>
        <time>2020-09-05T09:40:54Z</time>
      </trkpt>
      <trkpt lat="45.59623" lon="5.77637">
        <ele>449.422485</ele>
        <time>2020-09-05T09:41:07Z</time>
      </trkpt>
      <trkpt lat="45.59616" lon="5.77642">
        <ele>449.007507</ele>
        <time>2020-09-05T09:41:10Z</time>
      </trkpt>
      <trkpt lat="45.59589" lon="5.77698">
        <ele>448.655121</ele>
        <time>2020-09-05T09:41:23Z</time>
      </trkpt>
      <trkpt lat="45.59544" lon="5.77823">
        <ele>448.692505</ele>
        <time>2020-09-05T09:41:47Z</time>
      </trkpt>
      <trkpt lat="45.59537" lon="5.77829">
        <ele>448.272491</ele>
        <time>2020-09-05T09:41:51Z</time>
      </trkpt>
      <trkpt lat="45.59537" lon="5.77847">
        <ele>448.320923</ele>
        <time>2020-09-05T09:41:54Z</time>
      </trkpt>
      <trkpt lat="45.59519" lon="5.78003">
        <ele>449.078064</ele>
        <time>2020-09-05T09:42:16Z</time>
      </trkpt>
      <trkpt lat="45.59498" lon="5.78123">
        <ele>451.070007</ele>
        <time>2020-09-05T09:42:33Z</time>
      </trkpt>
      <trkpt lat="45.59476" lon="5.78412">
        <ele>454.149994</ele>
        <time>2020-09-05T09:43:09Z</time>
      </trkpt>
      <trkpt lat="45.59468" lon="5.78477">
        <ele>455.208466</ele>
        <time>2020-09-05T09:43:17Z</time>
      </trkpt>
      <trkpt lat="45.59443" lon="5.78537">
        <ele>456.040009</ele>
        <time>2020-09-05T09:43:26Z</time>
      </trkpt>
      <trkpt lat="45.59437" lon="5.78557">
        <ele>456.843628</ele>
        <time>2020-09-05T09:43:29Z</time>
      </trkpt>
      <trkpt lat="45.59432" lon="5.78594">
        <ele>459.142487</ele>
        <time>2020-09-05T09:43:35Z</time>
      </trkpt>
      <trkpt lat="45.59423" lon="5.78622">
        <ele>461.089996</ele>
        <time>2020-09-05T09:43:40Z</time>
      </trkpt>
      <trkpt lat="45.59416" lon="5.78635">
        <ele>462.117493</ele>
        <time>2020-09-05T09:43:43Z</time>
      </trkpt>
      <trkpt lat="45.59293" lon="5.78814">
        <ele>480.353424</ele>
        <time>2020-09-05T09:44:36Z</time>
      </trkpt>
      <trkpt lat="45.59182" lon="5.79003">
        <ele>488.843414</ele>
        <time>2020-09-05T09:45:18Z</time>
      </trkpt>
      <trkpt lat="45.59177" lon="5.79005">
        <ele>488.721741</ele>
        <time>2020-09-05T09:45:20Z</time>
      </trkpt>
      <trkpt lat="45.59146" lon="5.7899">
        <ele>487.050262</ele>
        <time>2020-09-05T09:45:28Z</time>
      </trkpt>
      <trkpt lat="45.59102" lon="5.78957">
        <ele>486.367493</ele>
        <time>2020-09-05T09:45:38Z</time>
      </trkpt>
      <trkpt lat="45.59092" lon="5.78959">
        <ele>486.571259</ele>
        <time>2020-09-05T09:45:40Z</time>
      </trkpt>
      <trkpt lat="45.59053" lon="5.78991">
        <ele>486.55249</ele>
        <time>2020-09-05T09:45:48Z</time>
      </trkpt>
      <trkpt lat="45.59043" lon="5.7902">
        <ele>485.809998</ele>
        <time>2020-09-05T09:45:52Z</time>
      </trkpt>
      <trkpt lat="45.5904" lon="5.79058">
        <ele>484.50061</ele>
        <time>2020-09-05T09:45:56Z</time>
      </trkpt>
      <trkpt lat="45.59009" lon="5.79208">
        <ele>478.261139</ele>
        <time>2020-09-05T09:46:10Z</time>
      </trkpt>
      <trkpt lat="45.59002" lon="5.79254">
        <ele>476.462891</ele>
        <time>2020-09-05T09:46:14Z</time>
      </trkpt>
      <trkpt lat="45.59004" lon="5.79266">
        <ele>475.936829</ele>
        <time>2020-09-05T09:46:15Z</time>
      </trkpt>
      <trkpt lat="45.59068" lon="5.79476">
        <ele>465.863525</ele>
        <time>2020-09-05T09:46:33Z</time>
      </trkpt>
      <trkpt lat="45.59069" lon="5.79503">
        <ele>465.23468</ele>
        <time>2020-09-05T09:46:35Z</time>
      </trkpt>
      <trkpt lat="45.59053" lon="5.79574">
        <ele>462.154449</ele>
        <time>2020-09-05T09:46:41Z</time>
      </trkpt>
      <trkpt lat="45.59053" lon="5.79587">
        <ele>462.302002</ele>
        <time>2020-09-05T09:46:42Z</time>
      </trkpt>
      <trkpt lat="45.59041" lon="5.79628">
        <ele>461.45459</ele>
        <time>2020-09-05T09:46:46Z</time>
      </trkpt>
      <trkpt lat="45.59017" lon="5.79626">
        <ele>460.129944</ele>
        <time>2020-09-05T09:46:49Z</time>
      </trkpt>
      <trkpt lat="45.58983" lon="5.79637">
        <ele>458.943207</ele>
        <time>2020-09-05T09:46:54Z</time>
      </trkpt>
      <trkpt lat="45.58972" lon="5.79633">
        <ele>457.891663</ele>
        <time>2020-09-05T09:46:56Z</time>
      </trkpt>
      <trkpt lat="45.58944" lon="5.79615">
        <ele>453.609985</ele>
        <time>2020-09-05T09:47:00Z</time>
      </trkpt>
      <trkpt lat="45.58929" lon="5.79608">
        <ele>450.804993</ele>
        <time>2020-09-05T09:47:02Z</time>
      </trkpt>
      <trkpt lat="45.58862" lon="5.7961">
        <ele>441.917511</ele>
        <time>2020-09-05T09:47:09Z</time>
      </trkpt>
      <trkpt lat="45.5883" lon="5.79618">
        <ele>439.342499</ele>
        <time>2020-09-05T09:47:12Z</time>
      </trkpt>
      <trkpt lat="45.5882" lon="5.79627">
        <ele>439.174988</ele>
        <time>2020-09-05T09:47:13Z</time>
      </trkpt>
      <trkpt lat="45.5881" lon="5.7965">
        <ele>440.12851</ele>
        <time>2020-09-05T09:47:15Z</time>
      </trkpt>
      <trkpt lat="45.58799" lon="5.79688">
        <ele>440.382507</ele>
        <time>2020-09-05T09:47:18Z</time>
      </trkpt>
      <trkpt lat="45.58789" lon="5.79697">
        <ele>439.109985</ele>
        <time>2020-09-05T09:47:20Z</time>
      </trkpt>
      <trkpt lat="45.58778" lon="5.79693">
        <ele>437.369995</ele>
        <time>2020-09-05T09:47:23Z</time>
      </trkpt>
      <trkpt lat="45.58772" lon="5.79683">
        <ele>435.982483</ele>
        <time>2020-09-05T09:47:28Z</time>
      </trkpt>
      <trkpt lat="45.58767" lon="5.7965">
        <ele>433.910339</ele>
        <time>2020-09-05T09:47:33Z</time>
      </trkpt>
      <trkpt lat="45.58774" lon="5.79559">
        <ele>429.316254</ele>
        <time>2020-09-05T09:47:40Z</time>
      </trkpt>
      <trkpt lat="45.58767" lon="5.79531">
        <ele>427.047485</ele>
        <time>2020-09-05T09:47:42Z</time>
      </trkpt>
      <trkpt lat="45.58744" lon="5.79495">
        <ele>424.184784</ele>
        <time>2020-09-05T09:47:45Z</time>
      </trkpt>
      <trkpt lat="45.58726" lon="5.79474">
        <ele>421.220001</ele>
        <time>2020-09-05T09:47:47Z</time>
      </trkpt>
      <trkpt lat="45.58715" lon="5.79472">
        <ele>419.690002</ele>
        <time>2020-09-05T09:47:48Z</time>
      </trkpt>
      <trkpt lat="45.58617" lon="5.7947">
        <ele>408.872711</ele>
        <time>2020-09-05T09:47:56Z</time>
      </trkpt>
      <trkpt lat="45.58594" lon="5.79465">
        <ele>405.967194</ele>
        <time>2020-09-05T09:47:58Z</time>
      </trkpt>
      <trkpt lat="45.58578" lon="5.79457">
        <ele>404.058197</ele>
        <time>2020-09-05T09:47:59Z</time>
      </trkpt>
      <trkpt lat="45.58548" lon="5.79426">
        <ele>400.402222</ele>
        <time>2020-09-05T09:48:02Z</time>
      </trkpt>
      <trkpt lat="45.58526" lon="5.7941">
        <ele>398.965942</ele>
        <time>2020-09-05T09:48:04Z</time>
      </trkpt>
      <trkpt lat="45.58514" lon="5.79406">
        <ele>398.268402</ele>
        <time>2020-09-05T09:48:05Z</time>
      </trkpt>
      <trkpt lat="45.58481" lon="5.79412">
        <ele>396.840088</ele>
        <time>2020-09-05T09:48:08Z</time>
      </trkpt>
      <trkpt lat="45.5844" lon="5.79424">
        <ele>394.468506</ele>
        <time>2020-09-05T09:48:13Z</time>
      </trkpt>
      <trkpt lat="45.58436" lon="5.79418">
        <ele>394.016785</ele>
        <time>2020-09-05T09:48:14Z</time>
      </trkpt>
      <trkpt lat="45.58412" lon="5.79317">
        <ele>389.647156</ele>
        <time>2020-09-05T09:48:29Z</time>
      </trkpt>
      <trkpt lat="45.58408" lon="5.79314">
        <ele>389.393463</ele>
        <time>2020-09-05T09:48:31Z</time>
      </trkpt>
      <trkpt lat="45.58324" lon="5.79315">
        <ele>387.904999</ele>
        <time>2020-09-05T09:48:47Z</time>
      </trkpt>
      <trkpt lat="45.58318" lon="5.7931">
        <ele>387.97876</ele>
        <time>2020-09-05T09:48:48Z</time>
      </trkpt>
      <trkpt lat="45.58284" lon="5.79241">
        <ele>389</ele>
        <time>2020-09-05T09:48:57Z</time>
      </trkpt>
      <trkpt lat="45.58271" lon="5.79198">
        <ele>389</ele>
        <time>2020-09-05T09:49:02Z</time>
      </trkpt>
      <trkpt lat="45.5826" lon="5.7913">
        <ele>384.7</ele>
        <time>2020-09-05T09:49:10Z</time>
      </trkpt>
      <trkpt lat="45.5825" lon="5.79134">
        <ele>389</ele>
        <time>2020-09-05T09:49:12Z</time>
      </trkpt>
      <trkpt lat="45.5821" lon="5.79157">
        <ele>388.190002</ele>
        <time>2020-09-05T09:49:20Z</time>
      </trkpt>
      <trkpt lat="45.58201" lon="5.79156">
        <ele>388</ele>
        <time>2020-09-05T09:49:22Z</time>
      </trkpt>
      <trkpt lat="45.58187" lon="5.79134">
        <ele>383.9</ele>
        <time>2020-09-05T09:49:27Z</time>
      </trkpt>
      <trkpt lat="45.58175" lon="5.7914">
        <ele>388</ele>
        <time>2020-09-05T09:49:32Z</time>
      </trkpt>
      <trkpt lat="45.58172" lon="5.79136">
        <ele>388</ele>
        <time>2020-09-05T09:49:34Z</time>
      </trkpt>
      <trkpt lat="45.5817" lon="5.79119">
        <ele>388</ele>
        <time>2020-09-05T09:49:37Z</time>
      </trkpt>
      <trkpt lat="45.58165" lon="5.791">
        <ele>388.095001</ele>
        <time>2020-09-05T09:49:41Z</time>
      </trkpt>
      <trkpt lat="45.58149" lon="5.79101">
        <ele>388.073761</ele>
        <time>2020-09-05T09:49:44Z</time>
      </trkpt>
      <trkpt lat="45.58125" lon="5.79109">
        <ele>388.053833</ele>
        <time>2020-09-05T09:49:48Z</time>
      </trkpt>
      <trkpt lat="45.58104" lon="5.79122">
        <ele>388.60907</ele>
        <time>2020-09-05T09:49:54Z</time>
      </trkpt>
      <trkpt lat="45.58096" lon="5.79132">
        <ele>389.008514</ele>
        <time>2020-09-05T09:49:57Z</time>
      </trkpt>
      <trkpt lat="45.5809" lon="5.79154">
        <ele>389.382141</ele>
        <time>2020-09-05T09:50:01Z</time>
      </trkpt>
      <trkpt lat="45.58072" lon="5.79181">
        <ele>389.37085</ele>
        <time>2020-09-05T09:50:07Z</time>
      </trkpt>
      <trkpt lat="45.58048" lon="5.79184">
        <ele>389.357513</ele>
        <time>2020-09-05T09:50:15Z</time>
      </trkpt>
      <trkpt lat="45.58038" lon="5.792">
        <ele>388.832489</ele>
        <time>2020-09-05T09:50:20Z</time>
      </trkpt>
      <trkpt lat="45.58014" lon="5.79208">
        <ele>388.542511</ele>
        <time>2020-09-05T09:50:25Z</time>
      </trkpt>
      <trkpt lat="45.57995" lon="5.79203">
        <ele>388.654999</ele>
        <time>2020-09-05T09:50:29Z</time>
      </trkpt>
      <trkpt lat="45.57972" lon="5.79204">
        <ele>388.577881</ele>
        <time>2020-09-05T09:50:33Z</time>
      </trkpt>
      <trkpt lat="45.57955" lon="5.79213">
        <ele>388.207977</ele>
        <time>2020-09-05T09:50:37Z</time>
      </trkpt>
      <trkpt lat="45.5793" lon="5.79237">
        <ele>387.996674</ele>
        <time>2020-09-05T09:50:42Z</time>
      </trkpt>
      <trkpt lat="45.57888" lon="5.79258">
        <ele>388</ele>
        <time>2020-09-05T09:50:49Z</time>
      </trkpt>
      <trkpt lat="45.5787" lon="5.7928">
        <ele>387.726929</ele>
        <time>2020-09-05T09:50:53Z</time>
      </trkpt>
      <trkpt lat="45.57853" lon="5.7932">
        <ele>387.53775</ele>
        <time>2020-09-05T09:51:00Z</time>
      </trkpt>
      <trkpt lat="45.57845" lon="5.79316">
        <ele>387.546143</ele>
        <time>2020-09-05T09:51:04Z</time>
      </trkpt>
      <trkpt lat="45.57832" lon="5.79327">
        <ele>387.767487</ele>
        <time>2020-09-05T09:51:12Z</time>
      </trkpt>
      <trkpt lat="45.57811" lon="5.79326">
        <ele>387.776245</ele>
        <time>2020-09-05T09:51:17Z</time>
      </trkpt>
      <trkpt lat="45.57798" lon="5.79315">
        <ele>387.61499</ele>
        <time>2020-09-05T09:51:21Z</time>
      </trkpt>
      <trkpt lat="45.57789" lon="5.79331">
        <ele>387.907806</ele>
        <time>2020-09-05T09:51:27Z</time>
      </trkpt>
      <trkpt lat="45.57733" lon="5.79331">
        <ele>389.156464</ele>
        <time>2020-09-05T09:51:42Z</time>
      </trkpt>
      <trkpt lat="45.57706" lon="5.79335">
        <ele>389.881653</ele>
        <time>2020-09-05T09:51:50Z</time>
      </trkpt>
      <trkpt lat="45.5768" lon="5.79335">
        <ele>390.430115</ele>
        <time>2020-09-05T09:51:59Z</time>
      </trkpt>
      <trkpt lat="45.57668" lon="5.79341">
        <ele>390.516602</ele>
        <time>2020-09-05T09:52:03Z</time>
      </trkpt>
      <trkpt lat="45.57664" lon="5.79353">
        <ele>390.264832</ele>
        <time>2020-09-05T09:52:05Z</time>
      </trkpt>
      <trkpt lat="45.57666" lon="5.7936">
        <ele>390.089874</ele>
        <time>2020-09-05T09:52:06Z</time>
      </trkpt>
      <trkpt lat="45.57728" lon="5.79445">
        <ele>390.473175</ele>
        <time>2020-09-05T09:52:21Z</time>
      </trkpt>
      <trkpt lat="45.57761" lon="5.79501">
        <ele>391</ele>
        <time>2020-09-05T09:52:29Z</time>
      </trkpt>
      <trkpt lat="45.57767" lon="5.79517">
        <ele>391</ele>
        <time>2020-09-05T09:52:31Z</time>
      </trkpt>
      <trkpt lat="45.57771" lon="5.79533">
        <ele>390.912506</ele>
        <time>2020-09-05T09:52:33Z</time>
      </trkpt>
      <trkpt lat="45.57766" lon="5.7959">
        <ele>389.130005</ele>
        <time>2020-09-05T09:52:39Z</time>
      </trkpt>
      <trkpt lat="45.57769" lon="5.79636">
        <ele>387.702515</ele>
        <time>2020-09-05T09:52:44Z</time>
      </trkpt>
      <trkpt lat="45.57767" lon="5.79645">
        <ele>387.429993</ele>
        <time>2020-09-05T09:52:45Z</time>
      </trkpt>
      <trkpt lat="45.57753" lon="5.79665">
        <ele>386.892487</ele>
        <time>2020-09-05T09:52:48Z</time>
      </trkpt>
      <trkpt lat="45.57727" lon="5.79692">
        <ele>386.438751</ele>
        <time>2020-09-05T09:52:53Z</time>
      </trkpt>
      <trkpt lat="45.57695" lon="5.79703">
        <ele>386.233765</ele>
        <time>2020-09-05T09:52:58Z</time>
      </trkpt>
      <trkpt lat="45.57651" lon="5.79712">
        <ele>386.05249</ele>
        <time>2020-09-05T09:53:05Z</time>
      </trkpt>
      <trkpt lat="45.57633" lon="5.7972">
        <ele>385.672485</ele>
        <time>2020-09-05T09:53:08Z</time>
      </trkpt>
      <trkpt lat="45.5762" lon="5.79734">
        <ele>385.157501</ele>
        <time>2020-09-05T09:53:11Z</time>
      </trkpt>
      <trkpt lat="45.57604" lon="5.79737">
        <ele>384.738739</ele>
        <time>2020-09-05T09:53:14Z</time>
      </trkpt>
      <trkpt lat="45.57597" lon="5.79749">
        <ele>384.411926</ele>
        <time>2020-09-05T09:53:16Z</time>
      </trkpt>
      <trkpt lat="45.5758" lon="5.79754">
        <ele>384.195679</ele>
        <time>2020-09-05T09:53:19Z</time>
      </trkpt>
      <trkpt lat="45.57565" lon="5.79763">
        <ele>384.047913</ele>
        <time>2020-09-05T09:53:22Z</time>
      </trkpt>
      <trkpt lat="45.57509" lon="5.79771">
        <ele>383.037506</ele>
        <time>2020-09-05T09:53:31Z</time>
      </trkpt>
      <trkpt lat="45.57487" lon="5.79765">
        <ele>383.032257</ele>
        <time>2020-09-05T09:53:35Z</time>
      </trkpt>
      <trkpt lat="45.57474" lon="5.79788">
        <ele>382.690002</ele>
        <time>2020-09-05T09:53:39Z</time>
      </trkpt>
      <trkpt lat="45.57464" lon="5.79798">
        <ele>382.532501</ele>
        <time>2020-09-05T09:53:41Z</time>
      </trkpt>
      <trkpt lat="45.5745" lon="5.79805">
        <ele>382.158752</ele>
        <time>2020-09-05T09:53:44Z</time>
      </trkpt>
      <trkpt lat="45.57419" lon="5.79806">
        <ele>381.4375</ele>
        <time>2020-09-05T09:53:49Z</time>
      </trkpt>
      <trkpt lat="45.57405" lon="5.79801">
        <ele>380.91626</ele>
        <time>2020-09-05T09:53:52Z</time>
      </trkpt>
      <trkpt lat="45.57398" lon="5.79806">
        <ele>380.561249</ele>
        <time>2020-09-05T09:53:55Z</time>
      </trkpt>
      <trkpt lat="45.57399" lon="5.79868">
        <ele>380.112793</ele>
        <time>2020-09-05T09:54:09Z</time>
      </trkpt>
      <trkpt lat="45.57396" lon="5.79872">
        <ele>379.92099</ele>
        <time>2020-09-05T09:54:14Z</time>
      </trkpt>
      <trkpt lat="45.57388" lon="5.79873">
        <ele>379.451019</ele>
        <time>2020-09-05T09:54:18Z</time>
      </trkpt>
      <trkpt lat="45.57384" lon="5.79879">
        <ele>379.13385</ele>
        <time>2020-09-05T09:54:22Z</time>
      </trkpt>
      <trkpt lat="45.57382" lon="5.79894">
        <ele>378.880066</ele>
        <time>2020-09-05T09:54:25Z</time>
      </trkpt>
      <trkpt lat="45.57398" lon="5.79979">
        <ele>377.727509</ele>
        <time>2020-09-05T09:54:38Z</time>
      </trkpt>
      <trkpt lat="45.57412" lon="5.80026">
        <ele>376.922302</ele>
        <time>2020-09-05T09:54:45Z</time>
      </trkpt>
      <trkpt lat="45.57427" lon="5.80063">
        <ele>376.40271</ele>
        <time>2020-09-05T09:54:51Z</time>
      </trkpt>
      <trkpt lat="45.57459" lon="5.80124">
        <ele>375.549316</ele>
        <time>2020-09-05T09:55:01Z</time>
      </trkpt>
      <trkpt lat="45.57487" lon="5.80163">
        <ele>374.54715</ele>
        <time>2020-09-05T09:55:08Z</time>
      </trkpt>
      <trkpt lat="45.57509" lon="5.80184">
        <ele>374.610504</ele>
        <time>2020-09-05T09:55:17Z</time>
      </trkpt>
      <trkpt lat="45.57517" lon="5.80183">
        <ele>374.953247</ele>
        <time>2020-09-05T09:55:20Z</time>
      </trkpt>
      <trkpt lat="45.57554" lon="5.80222">
        <ele>374.356598</ele>
        <time>2020-09-05T09:55:30Z</time>
      </trkpt>
      <trkpt lat="45.57639" lon="5.80333">
        <ele>374.325012</ele>
        <time>2020-09-05T09:55:50Z</time>
      </trkpt>
      <trkpt lat="45.57654" lon="5.80362">
        <ele>374.672485</ele>
        <time>2020-09-05T09:55:54Z</time>
      </trkpt>
      <trkpt lat="45.57659" lon="5.80377">
        <ele>374.797485</ele>
        <time>2020-09-05T09:55:56Z</time>
      </trkpt>
      <trkpt lat="45.57665" lon="5.8042">
        <ele>374.950012</ele>
        <time>2020-09-05T09:56:01Z</time>
      </trkpt>
      <trkpt lat="45.57661" lon="5.80455">
        <ele>375.415009</ele>
        <time>2020-09-05T09:56:05Z</time>
      </trkpt>
      <trkpt lat="45.57651" lon="5.80485">
        <ele>375.720703</ele>
        <time>2020-09-05T09:56:09Z</time>
      </trkpt>
      <trkpt lat="45.57623" lon="5.80527">
        <ele>379.167908</ele>
        <time>2020-09-05T09:56:16Z</time>
      </trkpt>
      <trkpt lat="45.57607" lon="5.80534">
        <ele>380.110016</ele>
        <time>2020-09-05T09:56:19Z</time>
      </trkpt>
      <trkpt lat="45.57574" lon="5.80538">
        <ele>381.397491</ele>
        <time>2020-09-05T09:56:25Z</time>
      </trkpt>
      <trkpt lat="45.57537" lon="5.80536">
        <ele>381.438782</ele>
        <time>2020-09-05T09:56:32Z</time>
      </trkpt>
      <trkpt lat="45.57512" lon="5.80544">
        <ele>382.271545</ele>
        <time>2020-09-05T09:56:37Z</time>
      </trkpt>
      <trkpt lat="45.57483" lon="5.80559">
        <ele>385.568451</ele>
        <time>2020-09-05T09:56:43Z</time>
      </trkpt>
      <trkpt lat="45.57448" lon="5.80585">
        <ele>387.089813</ele>
        <time>2020-09-05T09:56:50Z</time>
      </trkpt>
      <trkpt lat="45.57411" lon="5.80607">
        <ele>387.50235</ele>
        <time>2020-09-05T09:56:57Z</time>
      </trkpt>
      <trkpt lat="45.57377" lon="5.80621">
        <ele>387.152466</ele>
        <time>2020-09-05T09:57:03Z</time>
      </trkpt>
      <trkpt lat="45.57331" lon="5.80656">
        <ele>386.59491</ele>
        <time>2020-09-05T09:57:12Z</time>
      </trkpt>
      <trkpt lat="45.57286" lon="5.80725">
        <ele>389.782776</ele>
        <time>2020-09-05T09:57:23Z</time>
      </trkpt>
      <trkpt lat="45.57252" lon="5.80766">
        <ele>389.117767</ele>
        <time>2020-09-05T09:57:30Z</time>
      </trkpt>
      <trkpt lat="45.5718" lon="5.80841">
        <ele>390.276855</ele>
        <time>2020-09-05T09:57:43Z</time>
      </trkpt>
      <trkpt lat="45.57163" lon="5.80855">
        <ele>391.282379</ele>
        <time>2020-09-05T09:57:46Z</time>
      </trkpt>
      <trkpt lat="45.57031" lon="5.80893">
        <ele>386.667175</ele>
        <time>2020-09-05T09:58:08Z</time>
      </trkpt>
      <trkpt lat="45.56997" lon="5.80896">
        <ele>386.825287</ele>
        <time>2020-09-05T09:58:14Z</time>
      </trkpt>
      <trkpt lat="45.56951" lon="5.80896">
        <ele>387.924011</ele>
        <time>2020-09-05T09:58:22Z</time>
      </trkpt>
      <trkpt lat="45.56849" lon="5.80879">
        <ele>386.220001</ele>
        <time>2020-09-05T09:58:39Z</time>
      </trkpt>
      <trkpt lat="45.56813" lon="5.80877">
        <ele>386.325012</ele>
        <time>2020-09-05T09:58:45Z</time>
      </trkpt>
      <trkpt lat="45.56764" lon="5.80889">
        <ele>389.76236</ele>
        <time>2020-09-05T09:58:53Z</time>
      </trkpt>
      <trkpt lat="45.5672" lon="5.80904">
        <ele>391.155151</ele>
        <time>2020-09-05T09:59:01Z</time>
      </trkpt>
      <trkpt lat="45.56682" lon="5.80921">
        <ele>392.268799</ele>
        <time>2020-09-05T09:59:08Z</time>
      </trkpt>
      <trkpt lat="45.56636" lon="5.80949">
        <ele>391.87793</ele>
        <time>2020-09-05T09:59:16Z</time>
      </trkpt>
      <trkpt lat="45.56556" lon="5.81014">
        <ele>392.004486</ele>
        <time>2020-09-05T09:59:31Z</time>
      </trkpt>
      <trkpt lat="45.56489" lon="5.81057">
        <ele>388.907501</ele>
        <time>2020-09-05T09:59:43Z</time>
      </trkpt>
      <trkpt lat="45.56473" lon="5.8107">
        <ele>389.332977</ele>
        <time>2020-09-05T09:59:46Z</time>
      </trkpt>
      <trkpt lat="45.5644" lon="5.81112">
        <ele>391.844421</ele>
        <time>2020-09-05T09:59:53Z</time>
      </trkpt>
      <trkpt lat="45.56418" lon="5.81128">
        <ele>394.746887</ele>
        <time>2020-09-05T09:59:57Z</time>
      </trkpt>
      <trkpt lat="45.56368" lon="5.81131">
        <ele>389.262512</ele>
        <time>2020-09-05T10:00:05Z</time>
      </trkpt>
      <trkpt lat="45.56335" lon="5.81147">
        <ele>390.785675</ele>
        <time>2020-09-05T10:00:11Z</time>
      </trkpt>
      <trkpt lat="45.56269" lon="5.81196">
        <ele>396.83606</ele>
        <time>2020-09-05T10:00:23Z</time>
      </trkpt>
      <trkpt lat="45.56248" lon="5.81206">
        <ele>397.429749</ele>
        <time>2020-09-05T10:00:27Z</time>
      </trkpt>
      <trkpt lat="45.56208" lon="5.8121">
        <ele>394.246765</ele>
        <time>2020-09-05T10:00:34Z</time>
      </trkpt>
      <trkpt lat="45.56146" lon="5.81237">
        <ele>401.061066</ele>
        <time>2020-09-05T10:00:45Z</time>
      </trkpt>
      <trkpt lat="45.56084" lon="5.8125">
        <ele>403.165314</ele>
        <time>2020-09-05T10:00:55Z</time>
      </trkpt>
      <trkpt lat="45.56048" lon="5.81246">
        <ele>402.289795</ele>
        <time>2020-09-05T10:01:01Z</time>
      </trkpt>
      <trkpt lat="45.56013" lon="5.81236">
        <ele>400.878937</ele>
        <time>2020-09-05T10:01:07Z</time>
      </trkpt>
      <trkpt lat="45.55989" lon="5.81235">
        <ele>400.979004</ele>
        <time>2020-09-05T10:01:11Z</time>
      </trkpt>
      <trkpt lat="45.55938" lon="5.8124">
        <ele>404.246704</ele>
        <time>2020-09-05T10:01:19Z</time>
      </trkpt>
      <trkpt lat="45.55909" lon="5.81235">
        <ele>403.724884</ele>
        <time>2020-09-05T10:01:24Z</time>
      </trkpt>
      <trkpt lat="45.55888" lon="5.81217">
        <ele>398.458527</ele>
        <time>2020-09-05T10:01:32Z</time>
      </trkpt>
      <trkpt lat="45.55883" lon="5.81224">
        <ele>394.2</ele>
        <time>2020-09-05T10:01:34Z</time>
      </trkpt>
      <trkpt lat="45.55863" lon="5.81235">
        <ele>407.570587</ele>
        <time>2020-09-05T10:01:42Z</time>
      </trkpt>
      <trkpt lat="45.55837" lon="5.81246">
        <ele>414.297333</ele>
        <time>2020-09-05T10:01:50Z</time>
      </trkpt>
      <trkpt lat="45.55821" lon="5.8125">
        <ele>417.581268</ele>
        <time>2020-09-05T10:01:55Z</time>
      </trkpt>
      <trkpt lat="45.55793" lon="5.81261">
        <ele>419.894104</ele>
        <time>2020-09-05T10:02:06Z</time>
      </trkpt>
      <trkpt lat="45.55776" lon="5.8125">
        <ele>426.476746</ele>
        <time>2020-09-05T10:02:41Z</time>
      </trkpt>
      <trkpt lat="45.55764" lon="5.81253">
        <ele>428.767334</ele>
        <time>2020-09-05T10:02:46Z</time>
      </trkpt>
      <trkpt lat="45.55752" lon="5.81265">
        <ele>428.256409</ele>
        <time>2020-09-05T10:02:53Z</time>
      </trkpt>
      <trkpt lat="45.55733" lon="5.8127">
        <ele>434.979095</ele>
        <time>2020-09-05T10:03:03Z</time>
      </trkpt>
      <trkpt lat="45.5571" lon="5.81283">
        <ele>442.017273</ele>
        <time>2020-09-05T10:03:14Z</time>
      </trkpt>
      <trkpt lat="45.55692" lon="5.81288">
        <ele>445.449646</ele>
        <time>2020-09-05T10:03:24Z</time>
      </trkpt>
      <trkpt lat="45.55681" lon="5.81288">
        <ele>447.236542</ele>
        <time>2020-09-05T10:03:29Z</time>
      </trkpt>
      <trkpt lat="45.55662" lon="5.81295">
        <ele>448.644135</ele>
        <time>2020-09-05T10:03:38Z</time>
      </trkpt>
      <trkpt lat="45.55647" lon="5.81297">
        <ele>451.559601</ele>
        <time>2020-09-05T10:03:45Z</time>
      </trkpt>
      <trkpt lat="45.55629" lon="5.81307">
        <ele>453.096771</ele>
        <time>2020-09-05T10:03:54Z</time>
      </trkpt>
      <trkpt lat="45.55615" lon="5.81321">
        <ele>452.408234</ele>
        <time>2020-09-05T10:04:04Z</time>
      </trkpt>
      <trkpt lat="45.55606" lon="5.81325">
        <ele>455.749176</ele>
        <time>2020-09-05T10:04:09Z</time>
      </trkpt>
      <trkpt lat="45.55596" lon="5.81333">
        <ele>459.965698</ele>
        <time>2020-09-05T10:04:15Z</time>
      </trkpt>
      <trkpt lat="45.55585" lon="5.81338">
        <ele>463.186768</ele>
        <time>2020-09-05T10:04:20Z</time>
      </trkpt>
      <trkpt lat="45.55577" lon="5.81347">
        <ele>465.770996</ele>
        <time>2020-09-05T10:04:25Z</time>
      </trkpt>
      <trkpt lat="45.55554" lon="5.81354">
        <ele>470.354187</ele>
        <time>2020-09-05T10:04:36Z</time>
      </trkpt>
      <trkpt lat="45.55534" lon="5.81365">
        <ele>473.773987</ele>
        <time>2020-09-05T10:04:44Z</time>
      </trkpt>
      <trkpt lat="45.55519" lon="5.8137">
        <ele>475.333313</ele>
        <time>2020-09-05T10:04:50Z</time>
      </trkpt>
      <trkpt lat="45.55517" lon="5.81373">
        <ele>475.120514</ele>
        <time>2020-09-05T10:04:51Z</time>
      </trkpt>
      <trkpt lat="45.55448" lon="5.81404">
        <ele>479.246399</ele>
        <time>2020-09-05T10:05:17Z</time>
      </trkpt>
      <trkpt lat="45.55431" lon="5.81415">
        <ele>479.615295</ele>
        <time>2020-09-05T10:05:23Z</time>
      </trkpt>
      <trkpt lat="45.55396" lon="5.81427">
        <ele>479.521027</ele>
        <time>2020-09-05T10:05:34Z</time>
      </trkpt>
      <trkpt lat="45.5538" lon="5.81437">
        <ele>479.082153</ele>
        <time>2020-09-05T10:05:40Z</time>
      </trkpt>
      <trkpt lat="45.55345" lon="5.81446">
        <ele>481.384247</ele>
        <time>2020-09-05T10:05:51Z</time>
      </trkpt>
      <trkpt lat="45.55311" lon="5.81461">
        <ele>484.535309</ele>
        <time>2020-09-05T10:06:02Z</time>
      </trkpt>
      <trkpt lat="45.55241" lon="5.81506">
        <ele>484.576294</ele>
        <time>2020-09-05T10:06:27Z</time>
      </trkpt>
      <trkpt lat="45.5523" lon="5.8151">
        <ele>487.058289</ele>
        <time>2020-09-05T10:06:31Z</time>
      </trkpt>
      <trkpt lat="45.55175" lon="5.81545">
        <ele>485.253906</ele>
        <time>2020-09-05T10:06:49Z</time>
      </trkpt>
      <trkpt lat="45.55145" lon="5.81559">
        <ele>492.880249</ele>
        <time>2020-09-05T10:06:56Z</time>
      </trkpt>
      <trkpt lat="45.5513" lon="5.81571">
        <ele>498.658875</ele>
        <time>2020-09-05T10:07:00Z</time>
      </trkpt>
      <trkpt lat="45.55107" lon="5.81604">
        <ele>498.783325</ele>
        <time>2020-09-05T10:07:08Z</time>
      </trkpt>
      <trkpt lat="45.55054" lon="5.81652">
        <ele>505.291992</ele>
        <time>2020-09-05T10:07:23Z</time>
      </trkpt>
      <trkpt lat="45.55021" lon="5.8167">
        <ele>508.835785</ele>
        <time>2020-09-05T10:07:32Z</time>
      </trkpt>
      <trkpt lat="45.5499" lon="5.81696">
        <ele>512.50824</ele>
        <time>2020-09-05T10:07:40Z</time>
      </trkpt>
      <trkpt lat="45.5492" lon="5.81784">
        <ele>513.250549</ele>
        <time>2020-09-05T10:08:01Z</time>
      </trkpt>
      <trkpt lat="45.54911" lon="5.81774">
        <ele>514.01355</ele>
        <time>2020-09-05T10:08:04Z</time>
      </trkpt>
      <trkpt lat="45.54893" lon="5.81766">
        <ele>515.22052</ele>
        <time>2020-09-05T10:08:09Z</time>
      </trkpt>
      <trkpt lat="45.54849" lon="5.81777">
        <ele>515.830139</ele>
        <time>2020-09-05T10:08:21Z</time>
      </trkpt>
      <trkpt lat="45.5478" lon="5.81812">
        <ele>508.929535</ele>
        <time>2020-09-05T10:08:43Z</time>
      </trkpt>
      <trkpt lat="45.54745" lon="5.81822">
        <ele>502.487762</ele>
        <time>2020-09-05T10:08:53Z</time>
      </trkpt>
      <trkpt lat="45.54709" lon="5.81824">
        <ele>508.307922</ele>
        <time>2020-09-05T10:09:02Z</time>
      </trkpt>
      <trkpt lat="45.54684" lon="5.81832">
        <ele>513.866577</ele>
        <time>2020-09-05T10:09:06Z</time>
      </trkpt>
      <trkpt lat="45.54652" lon="5.8185">
        <ele>517.791199</ele>
        <time>2020-09-05T10:09:11Z</time>
      </trkpt>
      <trkpt lat="45.54565" lon="5.81869">
        <ele>511.352509</ele>
        <time>2020-09-05T10:09:22Z</time>
      </trkpt>
      <trkpt lat="45.54532" lon="5.81888">
        <ele>506.424561</ele>
        <time>2020-09-05T10:09:26Z</time>
      </trkpt>
      <trkpt lat="45.54482" lon="5.81901">
        <ele>506.92334</ele>
        <time>2020-09-05T10:09:31Z</time>
      </trkpt>
      <trkpt lat="45.54451" lon="5.81893">
        <ele>498.507111</ele>
        <time>2020-09-05T10:09:34Z</time>
      </trkpt>
      <trkpt lat="45.54441" lon="5.81895">
        <ele>497.26712</ele>
        <time>2020-09-05T10:09:35Z</time>
      </trkpt>
      <trkpt lat="45.54424" lon="5.81905">
        <ele>496.922577</ele>
        <time>2020-09-05T10:09:37Z</time>
      </trkpt>
      <trkpt lat="45.54405" lon="5.81941">
        <ele>499.922638</ele>
        <time>2020-09-05T10:09:40Z</time>
      </trkpt>
      <trkpt lat="45.54371" lon="5.81985">
        <ele>495.90625</ele>
        <time>2020-09-05T10:09:44Z</time>
      </trkpt>
      <trkpt lat="45.54339" lon="5.82034">
        <ele>489.514069</ele>
        <time>2020-09-05T10:09:48Z</time>
      </trkpt>
      <trkpt lat="45.54335" lon="5.82046">
        <ele>489.48999</ele>
        <time>2020-09-05T10:09:49Z</time>
      </trkpt>
      <trkpt lat="45.54315" lon="5.82065">
        <ele>486.954987</ele>
        <time>2020-09-05T10:10:16Z</time>
      </trkpt>
      <trkpt lat="45.54306" lon="5.82058">
        <ele>483.584991</ele>
        <time>2020-09-05T10:10:19Z</time>
      </trkpt>
      <trkpt lat="45.54292" lon="5.8204">
        <ele>477.527496</ele>
        <time>2020-09-05T10:10:23Z</time>
      </trkpt>
      <trkpt lat="45.54289" lon="5.82032">
        <ele>475.307495</ele>
        <time>2020-09-05T10:10:26Z</time>
      </trkpt>
      <trkpt lat="45.54284" lon="5.82027">
        <ele>473.257996</ele>
        <time>2020-09-05T10:10:30Z</time>
      </trkpt>
      <trkpt lat="45.54274" lon="5.82033">
        <ele>472.421356</ele>
        <time>2020-09-05T10:10:34Z</time>
      </trkpt>
      <trkpt lat="45.54261" lon="5.82049">
        <ele>471.49704</ele>
        <time>2020-09-05T10:10:38Z</time>
      </trkpt>
      <trkpt lat="45.54239" lon="5.82056">
        <ele>466.390015</ele>
        <time>2020-09-05T10:10:41Z</time>
      </trkpt>
      <trkpt lat="45.54219" lon="5.82055">
        <ele>462.415009</ele>
        <time>2020-09-05T10:10:44Z</time>
      </trkpt>
      <trkpt lat="45.54187" lon="5.82033">
        <ele>455.085632</ele>
        <time>2020-09-05T10:10:49Z</time>
      </trkpt>
      <trkpt lat="45.54175" lon="5.82029">
        <ele>452.854279</ele>
        <time>2020-09-05T10:10:51Z</time>
      </trkpt>
      <trkpt lat="45.54135" lon="5.82026">
        <ele>449.30249</ele>
        <time>2020-09-05T10:10:57Z</time>
      </trkpt>
      <trkpt lat="45.54105" lon="5.81967">
        <ele>441.841095</ele>
        <time>2020-09-05T10:11:05Z</time>
      </trkpt>
      <trkpt lat="45.54095" lon="5.81954">
        <ele>441.187408</ele>
        <time>2020-09-05T10:11:08Z</time>
      </trkpt>
      <trkpt lat="45.54066" lon="5.81938">
        <ele>442.485931</ele>
        <time>2020-09-05T10:11:17Z</time>
      </trkpt>
      <trkpt lat="45.54036" lon="5.81903">
        <ele>440.620056</ele>
        <time>2020-09-05T10:11:28Z</time>
      </trkpt>
      <trkpt lat="45.54023" lon="5.81881">
        <ele>439.375031</ele>
        <time>2020-09-05T10:11:33Z</time>
      </trkpt>
      <trkpt lat="45.54003" lon="5.81866">
        <ele>439.734924</ele>
        <time>2020-09-05T10:11:36Z</time>
      </trkpt>
      <trkpt lat="45.53927" lon="5.81828">
        <ele>436.619751</ele>
        <time>2020-09-05T10:11:52Z</time>
      </trkpt>
      <trkpt lat="45.53874" lon="5.81797">
        <ele>426.995056</ele>
        <time>2020-09-05T10:11:58Z</time>
      </trkpt>
      <trkpt lat="45.53829" lon="5.81778">
        <ele>420.871094</ele>
        <time>2020-09-05T10:12:02Z</time>
      </trkpt>
      <trkpt lat="45.53764" lon="5.81727">
        <ele>413.51062</ele>
        <time>2020-09-05T10:12:08Z</time>
      </trkpt>
      <trkpt lat="45.53733" lon="5.81683">
        <ele>413.608765</ele>
        <time>2020-09-05T10:12:13Z</time>
      </trkpt>
      <trkpt lat="45.53724" lon="5.8164">
        <ele>412.568604</ele>
        <time>2020-09-05T10:12:19Z</time>
      </trkpt>
      <trkpt lat="45.53723" lon="5.81609">
        <ele>411.18399</ele>
        <time>2020-09-05T10:12:23Z</time>
      </trkpt>
      <trkpt lat="45.53726" lon="5.81539">
        <ele>408.442505</ele>
        <time>2020-09-05T10:12:33Z</time>
      </trkpt>
      <trkpt lat="45.53716" lon="5.81532">
        <ele>409.317505</ele>
        <time>2020-09-05T10:12:35Z</time>
      </trkpt>
      <trkpt lat="45.537" lon="5.81527">
        <ele>410.935242</ele>
        <time>2020-09-05T10:12:40Z</time>
      </trkpt>
      <trkpt lat="45.53697" lon="5.81536">
        <ele>411.315308</ele>
        <time>2020-09-05T10:12:43Z</time>
      </trkpt>
      <trkpt lat="45.537" lon="5.8154">
        <ele>411.138824</ele>
        <time>2020-09-05T10:12:47Z</time>
      </trkpt>
      <trkpt lat="45.537" lon="5.81538">
        <ele>411.075439</ele>
        <time>2020-09-05T10:12:59Z</time>
      </trkpt>
      <trkpt lat="45.53698" lon="5.81519">
        <ele>408.5</ele>
        <time>2020-09-05T10:14:53.467Z</time>
      </trkpt>
      <trkpt lat="45.53729" lon="5.81531">
        <ele>407.3</ele>
        <time>2020-09-05T10:19:18.474Z</time>
      </trkpt>
      <trkpt lat="45.53743" lon="5.81519">
        <ele>405.7</ele>
        <time>2020-09-05T10:21:37.274Z</time>
      </trkpt>
      <trkpt lat="45.53751" lon="5.81487">
        <ele>405</ele>
        <time>2020-09-05T10:24:53.642Z</time>
      </trkpt>
      <trkpt lat="45.53735" lon="5.81433">
        <ele>406.9</ele>
        <time>2020-09-05T10:30:42.019Z</time>
      </trkpt>
      <trkpt lat="45.53692" lon="5.81395">
        <ele>412.8</ele>
        <time>2020-09-05T10:37:44.699Z</time>
      </trkpt>
      <trkpt lat="45.53659" lon="5.81344">
        <ele>416.4</ele>
        <time>2020-09-05T10:44:34.399Z</time>
      </trkpt>
      <trkpt lat="45.53632" lon="5.813">
        <ele>419.3</ele>
        <time>2020-09-05T10:50:15.482Z</time>
      </trkpt>
      <trkpt lat="45.53606" lon="5.81291">
        <ele>420.7</ele>
        <time>2020-09-05T10:53:56.083Z</time>
      </trkpt>
      <trkpt lat="45.53601" lon="5.81251">
        <ele>421.1</ele>
        <time>2020-09-05T10:57:56.803Z</time>
      </trkpt>
      <trkpt lat="45.53638" lon="5.81094">
        <ele>421.8</ele>
        <time>2020-09-05T11:14:10.167Z</time>
      </trkpt>
      <trkpt lat="45.53652" lon="5.81007">
        <ele>421.6</ele>
        <time>2020-09-05T11:22:50.082Z</time>
      </trkpt>
      <trkpt lat="45.53647" lon="5.80941">
        <ele>422.9</ele>
        <time>2020-09-05T11:29:22.163Z</time>
      </trkpt>
      <trkpt lat="45.53684" lon="5.80887">
        <ele>428.1</ele>
        <time>2020-09-05T11:36:45.028Z</time>
      </trkpt>
      <trkpt lat="45.53693" lon="5.80843">
        <ele>429.7</ele>
        <time>2020-09-05T11:41:15.267Z</time>
      </trkpt>
      <trkpt lat="45.53692" lon="5.8074">
        <ele>433.5</ele>
        <time>2020-09-05T11:51:16.416Z</time>
      </trkpt>
      <trkpt lat="45.5372" lon="5.80638">
        <ele>436.4</ele>
        <time>2020-09-05T12:02:03.369Z</time>
      </trkpt>
      <trkpt lat="45.53773" lon="5.80549">
        <ele>437.3</ele>
        <time>2020-09-05T12:13:26.790Z</time>
      </trkpt>
      <trkpt lat="45.53787" lon="5.80459">
        <ele>438.8</ele>
        <time>2020-09-05T12:22:28.867Z</time>
      </trkpt>
      <trkpt lat="45.53772" lon="5.80387">
        <ele>436.3</ele>
        <time>2020-09-05T12:29:45.957Z</time>
      </trkpt>
      <trkpt lat="45.53652" lon="5.80321">
        <ele>436.7</ele>
        <time>2020-09-05T12:47:46.021Z</time>
      </trkpt>
      <trkpt lat="45.53613" lon="5.80316">
        <ele>438.4</ele>
        <time>2020-09-05T12:53:14.298Z</time>
      </trkpt>
      <trkpt lat="45.53536" lon="5.80145">
        <ele>436.3</ele>
        <time>2020-09-05T13:13:08.659Z</time>
      </trkpt>
      <trkpt lat="45.53433" lon="5.79934">
        <ele>427.5</ele>
        <time>2020-09-05T13:38:17.522Z</time>
      </trkpt>
      <trkpt lat="45.5338" lon="5.79823">
        <ele>421.3</ele>
        <time>2020-09-05T13:51:26.643Z</time>
      </trkpt>
      <trkpt lat="45.53383" lon="5.79653">
        <ele>405</ele>
        <time>2020-09-05T14:08:01.523Z</time>
      </trkpt>
      <trkpt lat="45.53368" lon="5.7957">
        <ele>405.1</ele>
        <time>2020-09-05T14:16:28.392Z</time>
      </trkpt>
      <trkpt lat="45.53341" lon="5.7949">
        <ele>408.1</ele>
        <time>2020-09-05T14:25:06.397Z</time>
      </trkpt>
      <trkpt lat="45.53245" lon="5.79432">
        <ele>416.1</ele>
        <time>2020-09-05T14:39:40.895Z</time>
      </trkpt>
      <trkpt lat="45.53231" lon="5.79353">
        <ele>421.7</ele>
        <time>2020-09-05T14:47:40.295Z</time>
      </trkpt>
      <trkpt lat="45.53231" lon="5.79256">
        <ele>433.6</ele>
        <time>2020-09-05T14:57:06.830Z</time>
      </trkpt>
      <trkpt lat="45.532" lon="5.79085">
        <ele>448.8</ele>
        <time>2020-09-05T15:14:28.128Z</time>
      </trkpt>
      <trkpt lat="45.53093" lon="5.78872">
        <ele>460.2</ele>
        <time>2020-09-05T15:40:01.921Z</time>
      </trkpt>
      <trkpt lat="45.52973" lon="5.78789">
        <ele>470.4</ele>
        <time>2020-09-05T15:58:42.440Z</time>
      </trkpt>
      <trkpt lat="45.52893" lon="5.78668">
        <ele>472.6</ele>
        <time>2020-09-05T16:14:53.202Z</time>
      </trkpt>
      <trkpt lat="45.52789" lon="5.78589">
        <ele>491</ele>
        <time>2020-09-05T16:31:18.968Z</time>
      </trkpt>
      <trkpt lat="45.52783" lon="5.78462">
        <ele>497.4</ele>
        <time>2020-09-05T16:43:43.521Z</time>
      </trkpt>
      <trkpt lat="45.52717" lon="5.78205">
        <ele>502.5</ele>
        <time>2020-09-05T17:10:32.770Z</time>
      </trkpt>
      <trkpt lat="45.52717" lon="5.78008">
        <ele>502.2</ele>
        <time>2020-09-05T17:29:51.122Z</time>
      </trkpt>
      <trkpt lat="45.52717" lon="5.77911">
        <ele>499.8</ele>
        <time>2020-09-05T17:39:17.707Z</time>
      </trkpt>
      <trkpt lat="45.52788" lon="5.77711">
        <ele>494.2</ele>
        <time>2020-09-05T18:01:09.679Z</time>
      </trkpt>
      <trkpt lat="45.52747" lon="5.77531">
        <ele>494.3</ele>
        <time>2020-09-05T18:19:40.586Z</time>
      </trkpt>
      <trkpt lat="45.52689" lon="5.77413">
        <ele>497.1</ele>
        <time>2020-09-05T18:33:49.506Z</time>
      </trkpt>
      <trkpt lat="45.52665" lon="5.77252">
        <ele>500.9</ele>
        <time>2020-09-05T18:49:55.069Z</time>
      </trkpt>
      <trkpt lat="45.52634" lon="5.7713">
        <ele>499.3</ele>
        <time>2020-09-05T19:02:35.647Z</time>
      </trkpt>
      <trkpt lat="45.52585" lon="5.77025">
        <ele>494.8</ele>
        <time>2020-09-05T19:14:59.475Z</time>
      </trkpt>
      <trkpt lat="45.52579" lon="5.76922">
        <ele>489</ele>
        <time>2020-09-05T19:25:05.940Z</time>
      </trkpt>
      <trkpt lat="45.52573" lon="5.76842">
        <ele>487.1</ele>
        <time>2020-09-05T19:32:54.523Z</time>
      </trkpt>
      <trkpt lat="45.52483" lon="5.76804">
        <ele>478</ele>
        <time>2020-09-05T19:46:03.255Z</time>
      </trkpt>
      <trkpt lat="45.52444" lon="5.76729">
        <ele>474.8</ele>
        <time>2020-09-05T19:55:12.240Z</time>
      </trkpt>
      <trkpt lat="45.52447" lon="5.76604">
        <ele>466.5</ele>
        <time>2020-09-05T20:07:22.969Z</time>
      </trkpt>
      <trkpt lat="45.52484" lon="5.76488">
        <ele>462.5</ele>
        <time>2020-09-05T20:19:52.227Z</time>
      </trkpt>
      <trkpt lat="45.52459" lon="5.76456">
        <ele>458.6</ele>
        <time>2020-09-05T20:24:37.689Z</time>
      </trkpt>
      <trkpt lat="45.52424" lon="5.7643">
        <ele>454.2</ele>
        <time>2020-09-05T20:30:04.334Z</time>
      </trkpt>
      <trkpt lat="45.5237" lon="5.76445">
        <ele>453</ele>
        <time>2020-09-05T20:37:46.111Z</time>
      </trkpt>
      <trkpt lat="45.52036" lon="5.76338">
        <ele>463.5</ele>
        <time>2020-09-05T21:25:31.502Z</time>
      </trkpt>
      <trkpt lat="45.51955" lon="5.76201">
        <ele>469.1</ele>
        <time>2020-09-05T21:43:05.944Z</time>
      </trkpt>
      <trkpt lat="45.51762" lon="5.76057">
        <ele>489.7</ele>
        <time>2020-09-05T22:13:25.245Z</time>
      </trkpt>
      <trkpt lat="45.51626" lon="5.75948">
        <ele>496.8</ele>
        <time>2020-09-05T22:35:18.893Z</time>
      </trkpt>
      <trkpt lat="45.51553" lon="5.75954">
        <ele>497.1</ele>
        <time>2020-09-05T22:45:24.541Z</time>
      </trkpt>
      <trkpt lat="45.51402" lon="5.7584">
        <ele>525.2</ele>
        <time>2020-09-05T23:09:20.955Z</time>
      </trkpt>
      <trkpt lat="45.51217" lon="5.75671">
        <ele>565.5</ele>
        <time>2020-09-05T23:40:01.965Z</time>
      </trkpt>
      <trkpt lat="45.50952" lon="5.75544">
        <ele>595.9</ele>
        <time>2020-09-06T00:18:59.779Z</time>
      </trkpt>
      <trkpt lat="45.50958" lon="5.75493">
        <ele>597.6</ele>
        <time>2020-09-06T00:24:06.216Z</time>
      </trkpt>
      <trkpt lat="45.51023" lon="5.75362">
        <ele>577.9</ele>
        <time>2020-09-06T00:39:46.167Z</time>
      </trkpt>
      <trkpt lat="45.51145" lon="5.75287">
        <ele>591.6</ele>
        <time>2020-09-06T00:58:17.457Z</time>
      </trkpt>
      <trkpt lat="45.51196" lon="5.75068">
        <ele>577.6</ele>
        <time>2020-09-06T01:20:51.531Z</time>
      </trkpt>
      <trkpt lat="45.512" lon="5.75014">
        <ele>572.4</ele>
        <time>2020-09-06T01:26:08.638Z</time>
      </trkpt>
      <trkpt lat="45.51221" lon="5.74969">
        <ele>566.3</ele>
        <time>2020-09-06T01:31:26.493Z</time>
      </trkpt>
      <trkpt lat="45.51196" lon="5.74892">
        <ele>553.3</ele>
        <time>2020-09-06T01:39:47.881Z</time>
      </trkpt>
      <trkpt lat="45.51142" lon="5.7484">
        <ele>545.8</ele>
        <time>2020-09-06T01:48:52.779Z</time>
      </trkpt>
      <trkpt lat="45.51145" lon="5.74724">
        <ele>528.2</ele>
        <time>2020-09-06T02:00:13.322Z</time>
      </trkpt>
      <trkpt lat="45.51105" lon="5.74667">
        <ele>511.6</ele>
        <time>2020-09-06T02:08:05.389Z</time>
      </trkpt>
      <trkpt lat="45.51057" lon="5.74619">
        <ele>502.9</ele>
        <time>2020-09-06T02:16:14.457Z</time>
      </trkpt>
      <trkpt lat="45.51035" lon="5.74606">
        <ele>502.1</ele>
        <time>2020-09-06T02:19:37.922Z</time>
      </trkpt>
      <trkpt lat="45.5109" lon="5.74568">
        <ele>483.7</ele>
        <time>2020-09-06T02:28:16.121Z</time>
      </trkpt>
      <trkpt lat="45.51123" lon="5.74583">
        <ele>475.9</ele>
        <time>2020-09-06T02:33:06.876Z</time>
      </trkpt>
      <trkpt lat="45.51175" lon="5.74551">
        <ele>462.7</ele>
        <time>2020-09-06T02:40:54.888Z</time>
      </trkpt>
      <trkpt lat="45.51161" lon="5.74491">
        <ele>461.2</ele>
        <time>2020-09-06T02:47:05.284Z</time>
      </trkpt>
      <trkpt lat="45.5116" lon="5.74476">
        <ele>461.1</ele>
        <time>2020-09-06T02:48:34.336Z</time>
      </trkpt>
      <trkpt lat="45.51277" lon="5.74495">
        <ele>447</ele>
        <time>2020-09-06T03:05:03.163Z</time>
      </trkpt>
      <trkpt lat="45.5137" lon="5.74574">
        <ele>441.4</ele>
        <time>2020-09-06T03:20:12.425Z</time>
      </trkpt>
      <trkpt lat="45.51466" lon="5.7463">
        <ele>429.6</ele>
        <time>2020-09-06T03:34:42.362Z</time>
      </trkpt>
      <trkpt lat="45.51423" lon="5.74518">
        <ele>412.6</ele>
        <time>2020-09-06T03:47:12.158Z</time>
      </trkpt>
      <trkpt lat="45.51348" lon="5.74437">
        <ele>402.7</ele>
        <time>2020-09-06T04:00:23.033Z</time>
      </trkpt>
      <trkpt lat="45.5129" lon="5.74375">
        <ele>402.8</ele>
        <time>2020-09-06T04:10:25.020Z</time>
      </trkpt>
      <trkpt lat="45.51289" lon="5.74259">
        <ele>405</ele>
        <time>2020-09-06T04:21:45.185Z</time>
      </trkpt>
      <trkpt lat="45.51024" lon="5.74096">
        <ele>374.3</ele>
        <time>2020-09-06T05:01:59.516Z</time>
      </trkpt>
      <trkpt lat="45.50723" lon="5.73971">
        <ele>351.7</ele>
        <time>2020-09-06T05:45:42.180Z</time>
      </trkpt>
      <trkpt lat="45.50725" lon="5.73911">
        <ele>348</ele>
        <time>2020-09-06T05:51:35.057Z</time>
      </trkpt>
      <trkpt lat="45.50791" lon="5.73896">
        <ele>343.5</ele>
        <time>2020-09-06T06:00:56.190Z</time>
      </trkpt>
      <trkpt lat="45.50883" lon="5.73905">
        <ele>336.5</ele>
        <time>2020-09-06T06:13:46.101Z</time>
      </trkpt>
      <trkpt lat="45.50901" lon="5.73879">
        <ele>332.4</ele>
        <time>2020-09-06T06:17:19.833Z</time>
      </trkpt>
      <trkpt lat="45.51" lon="5.73896">
        <ele>322.8</ele>
        <time>2020-09-06T06:31:17.130Z</time>
      </trkpt>
      <trkpt lat="45.51006" lon="5.73888">
        <ele>321.6</ele>
        <time>2020-09-06T06:32:28.372Z</time>
      </trkpt>
      <trkpt lat="45.50902" lon="5.73815">
        <ele>319.5</ele>
        <time>2020-09-06T06:48:37.130Z</time>
      </trkpt>
      <trkpt lat="45.50928" lon="5.73755">
        <ele>316.2</ele>
        <time>2020-09-06T06:55:29.671Z</time>
      </trkpt>
      <trkpt lat="45.50925" lon="5.73712">
        <ele>312.5</ele>
        <time>2020-09-06T06:59:42.808Z</time>
      </trkpt>
      <trkpt lat="45.50978" lon="5.73667">
        <ele>310</ele>
        <time>2020-09-06T07:08:16.852Z</time>
      </trkpt>
      <trkpt lat="45.50991" lon="5.73542">
        <ele>304.5</ele>
        <time>2020-09-06T07:20:36.039Z</time>
      </trkpt>
      <trkpt lat="45.51089" lon="5.73557">
        <ele>303.3</ele>
        <time>2020-09-06T07:34:19.366Z</time>
      </trkpt>
      <trkpt lat="45.51117" lon="5.73489">
        <ele>308.7</ele>
        <time>2020-09-06T07:42:08.044Z</time>
      </trkpt>
      <trkpt lat="45.51117" lon="5.73424">
        <ele>312.4</ele>
        <time>2020-09-06T07:48:25.850Z</time>
      </trkpt>
      <trkpt lat="45.51154" lon="5.73355">
        <ele>319.2</ele>
        <time>2020-09-06T07:56:49.589Z</time>
      </trkpt>
      <trkpt lat="45.51128" lon="5.73231">
        <ele>328.7</ele>
        <time>2020-09-06T08:09:30.738Z</time>
      </trkpt>
      <trkpt lat="45.51105" lon="5.73031">
        <ele>328.8</ele>
        <time>2020-09-06T08:29:17.070Z</time>
      </trkpt>
      <trkpt lat="45.51098" lon="5.72909">
        <ele>326.4</ele>
        <time>2020-09-06T08:41:17.658Z</time>
      </trkpt>
      <trkpt lat="45.51149" lon="5.72768">
        <ele>325.6</ele>
        <time>2020-09-06T08:56:52.634Z</time>
      </trkpt>
      <trkpt lat="45.51071" lon="5.72686">
        <ele>325.4</ele>
        <time>2020-09-06T09:10:23.718Z</time>
      </trkpt>
      <trkpt lat="45.50996" lon="5.72615">
        <ele>318</ele>
        <time>2020-09-06T09:22:58.183Z</time>
      </trkpt>
      <trkpt lat="45.50943" lon="5.72559">
        <ele>310.2</ele>
        <time>2020-09-06T09:32:07.279Z</time>
      </trkpt>
      <trkpt lat="45.51053" lon="5.72519">
        <ele>317.4</ele>
        <time>2020-09-06T09:47:57.251Z</time>
      </trkpt>
    </trkseg>
  </trk>
</gpx>